<?xml version="1.0" encoding="UTF-8" standalone="no" ?>
<gpx xmlns="http://www.topografix.com/GPX/1/1" xmlns:xsi="http://www.w3.org/2001/XMLSchema-instance" xsi:schemaLocation="http://www.topografix.com/GPX/1/1 http://www.topografix.com/GPX/1/1/gpx.xsd" version="1.1" creator="VisuGPX - https://www.visugpx.com">
  <metadata>
    <name>Sun Trip 2019</name>
    <desc><![CDATA[Le parcours du Sun Trip 2019]]></desc>
  </metadata>
  <trk>
    <name><![CDATA[J14]]></name>
    <trkseg>
      <trkpt lat="44.52118" lon="5.73463">
        <ele>832</ele>
        <time>2019-04-18T09:50:05Z</time>
      </trkpt>
      <trkpt lat="44.52118" lon="5.73425">
        <ele>833</ele>
        <time>2019-04-18T09:51:05Z</time>
      </trkpt>
      <trkpt lat="44.52124" lon="5.73403">
        <ele>832</ele>
        <time>2019-04-18T09:52:05Z</time>
      </trkpt>
      <trkpt lat="44.52151" lon="5.73247">
        <ele>829</ele>
        <time>2019-04-18T09:53:05Z</time>
      </trkpt>
      <trkpt lat="44.52198" lon="5.73168">
        <ele>823</ele>
        <time>2019-04-18T09:54:05Z</time>
      </trkpt>
      <trkpt lat="44.52207" lon="5.73027">
        <ele>821</ele>
        <time>2019-04-18T09:55:05Z</time>
      </trkpt>
      <trkpt lat="44.52214" lon="5.72971">
        <ele>820</ele>
        <time>2019-04-18T09:56:05Z</time>
      </trkpt>
      <trkpt lat="44.52214" lon="5.7288">
        <ele>819</ele>
        <time>2019-04-18T09:57:05Z</time>
      </trkpt>
      <trkpt lat="44.52191" lon="5.72877">
        <ele>818</ele>
        <time>2019-04-18T09:58:05Z</time>
      </trkpt>
      <trkpt lat="44.52106" lon="5.72883">
        <ele>814</ele>
        <time>2019-04-18T09:59:05Z</time>
      </trkpt>
      <trkpt lat="44.51983" lon="5.72894">
        <ele>806</ele>
        <time>2019-04-18T10:00:05Z</time>
      </trkpt>
      <trkpt lat="44.5197" lon="5.72895">
        <ele>805</ele>
        <time>2019-04-18T10:01:05Z</time>
      </trkpt>
      <trkpt lat="44.51957" lon="5.72892">
        <ele>804</ele>
        <time>2019-04-18T10:02:05Z</time>
      </trkpt>
      <trkpt lat="44.51945" lon="5.72886">
        <ele>803</ele>
        <time>2019-04-18T10:03:05Z</time>
      </trkpt>
      <trkpt lat="44.51935" lon="5.72875">
        <ele>802</ele>
        <time>2019-04-18T10:04:05Z</time>
      </trkpt>
      <trkpt lat="44.51925" lon="5.72861">
        <ele>800</ele>
        <time>2019-04-18T10:05:05Z</time>
      </trkpt>
      <trkpt lat="44.51888" lon="5.72793">
        <ele>798</ele>
        <time>2019-04-18T10:06:05Z</time>
      </trkpt>
      <trkpt lat="44.51878" lon="5.72778">
        <ele>799</ele>
        <time>2019-04-18T10:07:05Z</time>
      </trkpt>
      <trkpt lat="44.51855" lon="5.72755">
        <ele>799</ele>
        <time>2019-04-18T10:08:05Z</time>
      </trkpt>
      <trkpt lat="44.51715" lon="5.72657">
        <ele>802</ele>
        <time>2019-04-18T10:09:05Z</time>
      </trkpt>
      <trkpt lat="44.5169" lon="5.72644">
        <ele>803</ele>
        <time>2019-04-18T10:10:05Z</time>
      </trkpt>
      <trkpt lat="44.51677" lon="5.72642">
        <ele>803</ele>
        <time>2019-04-18T10:11:05Z</time>
      </trkpt>
      <trkpt lat="44.51617" lon="5.72645">
        <ele>802</ele>
        <time>2019-04-18T10:12:05Z</time>
      </trkpt>
      <trkpt lat="44.51606" lon="5.72644">
        <ele>802</ele>
        <time>2019-04-18T10:13:05Z</time>
      </trkpt>
      <trkpt lat="44.51562" lon="5.72631">
        <ele>801</ele>
        <time>2019-04-18T10:14:05Z</time>
      </trkpt>
      <trkpt lat="44.51543" lon="5.72614">
        <ele>801</ele>
        <time>2019-04-18T10:15:05Z</time>
      </trkpt>
      <trkpt lat="44.51538" lon="5.72593">
        <ele>802</ele>
        <time>2019-04-18T10:16:05Z</time>
      </trkpt>
      <trkpt lat="44.51538" lon="5.72581">
        <ele>802</ele>
        <time>2019-04-18T10:17:05Z</time>
      </trkpt>
      <trkpt lat="44.51545" lon="5.72553">
        <ele>800</ele>
        <time>2019-04-18T10:18:05Z</time>
      </trkpt>
      <trkpt lat="44.516" lon="5.72466">
        <ele>799</ele>
        <time>2019-04-18T10:19:05Z</time>
      </trkpt>
      <trkpt lat="44.51618" lon="5.72433">
        <ele>797</ele>
        <time>2019-04-18T10:20:05Z</time>
      </trkpt>
      <trkpt lat="44.51625" lon="5.72415">
        <ele>796</ele>
        <time>2019-04-18T10:21:05Z</time>
      </trkpt>
      <trkpt lat="44.51633" lon="5.72376">
        <ele>794</ele>
        <time>2019-04-18T10:22:05Z</time>
      </trkpt>
      <trkpt lat="44.51636" lon="5.72319">
        <ele>789</ele>
        <time>2019-04-18T10:23:05Z</time>
      </trkpt>
      <trkpt lat="44.51639" lon="5.72301">
        <ele>789</ele>
        <time>2019-04-18T10:24:05Z</time>
      </trkpt>
      <trkpt lat="44.51651" lon="5.72248">
        <ele>786</ele>
        <time>2019-04-18T10:25:05Z</time>
      </trkpt>
      <trkpt lat="44.51653" lon="5.72229">
        <ele>786</ele>
        <time>2019-04-18T10:26:05Z</time>
      </trkpt>
      <trkpt lat="44.51652" lon="5.72211">
        <ele>786</ele>
        <time>2019-04-18T10:27:05Z</time>
      </trkpt>
      <trkpt lat="44.51647" lon="5.72193">
        <ele>786</ele>
        <time>2019-04-18T10:28:05Z</time>
      </trkpt>
      <trkpt lat="44.51641" lon="5.72175">
        <ele>785</ele>
        <time>2019-04-18T10:29:05Z</time>
      </trkpt>
      <trkpt lat="44.51633" lon="5.72159">
        <ele>786</ele>
        <time>2019-04-18T10:30:05Z</time>
      </trkpt>
      <trkpt lat="44.51624" lon="5.72145">
        <ele>787</ele>
        <time>2019-04-18T10:31:05Z</time>
      </trkpt>
      <trkpt lat="44.51593" lon="5.72114">
        <ele>790</ele>
        <time>2019-04-18T10:32:05Z</time>
      </trkpt>
      <trkpt lat="44.51584" lon="5.72102">
        <ele>791</ele>
        <time>2019-04-18T10:33:05Z</time>
      </trkpt>
      <trkpt lat="44.51579" lon="5.7209">
        <ele>792</ele>
        <time>2019-04-18T10:34:05Z</time>
      </trkpt>
      <trkpt lat="44.51573" lon="5.72061">
        <ele>795</ele>
        <time>2019-04-18T10:35:05Z</time>
      </trkpt>
      <trkpt lat="44.51572" lon="5.72027">
        <ele>797</ele>
        <time>2019-04-18T10:36:05Z</time>
      </trkpt>
      <trkpt lat="44.51573" lon="5.71962">
        <ele>800</ele>
        <time>2019-04-18T10:37:05Z</time>
      </trkpt>
      <trkpt lat="44.51577" lon="5.71918">
        <ele>802</ele>
        <time>2019-04-18T10:38:05Z</time>
      </trkpt>
      <trkpt lat="44.51581" lon="5.71898">
        <ele>802</ele>
        <time>2019-04-18T10:39:05Z</time>
      </trkpt>
      <trkpt lat="44.5173" lon="5.71422">
        <ele>801</ele>
        <time>2019-04-18T10:40:05Z</time>
      </trkpt>
      <trkpt lat="44.51924" lon="5.70822">
        <ele>799</ele>
        <time>2019-04-18T10:41:05Z</time>
      </trkpt>
      <trkpt lat="44.51931" lon="5.70805">
        <ele>798</ele>
        <time>2019-04-18T10:42:05Z</time>
      </trkpt>
      <trkpt lat="44.51939" lon="5.70792">
        <ele>798</ele>
        <time>2019-04-18T10:43:05Z</time>
      </trkpt>
      <trkpt lat="44.51948" lon="5.70781">
        <ele>797</ele>
        <time>2019-04-18T10:44:05Z</time>
      </trkpt>
      <trkpt lat="44.51968" lon="5.70768">
        <ele>796</ele>
        <time>2019-04-18T10:45:05Z</time>
      </trkpt>
      <trkpt lat="44.5199" lon="5.70758">
        <ele>795</ele>
        <time>2019-04-18T10:46:05Z</time>
      </trkpt>
      <trkpt lat="44.52" lon="5.70728">
        <ele>794</ele>
        <time>2019-04-18T10:47:05Z</time>
      </trkpt>
      <trkpt lat="44.52001" lon="5.707">
        <ele>793</ele>
        <time>2019-04-18T10:48:05Z</time>
      </trkpt>
      <trkpt lat="44.51988" lon="5.70386">
        <ele>783</ele>
        <time>2019-04-18T10:49:05Z</time>
      </trkpt>
      <trkpt lat="44.51988" lon="5.70339">
        <ele>782</ele>
        <time>2019-04-18T10:50:05Z</time>
      </trkpt>
      <trkpt lat="44.51991" lon="5.70316">
        <ele>782</ele>
        <time>2019-04-18T10:51:05Z</time>
      </trkpt>
      <trkpt lat="44.51995" lon="5.70295">
        <ele>781</ele>
        <time>2019-04-18T10:52:05Z</time>
      </trkpt>
      <trkpt lat="44.52006" lon="5.70253">
        <ele>781</ele>
        <time>2019-04-18T10:53:05Z</time>
      </trkpt>
      <trkpt lat="44.52026" lon="5.70194">
        <ele>780</ele>
        <time>2019-04-18T10:54:05Z</time>
      </trkpt>
      <trkpt lat="44.52042" lon="5.70159">
        <ele>779</ele>
        <time>2019-04-18T10:55:05Z</time>
      </trkpt>
      <trkpt lat="44.5248" lon="5.69382">
        <ele>779</ele>
        <time>2019-04-18T10:56:05Z</time>
      </trkpt>
      <trkpt lat="44.52975" lon="5.68489">
        <ele>789</ele>
        <time>2019-04-18T10:57:05Z</time>
      </trkpt>
      <trkpt lat="44.53047" lon="5.68356">
        <ele>786</ele>
        <time>2019-04-18T10:58:05Z</time>
      </trkpt>
      <trkpt lat="44.53071" lon="5.6832">
        <ele>786</ele>
        <time>2019-04-18T10:59:05Z</time>
      </trkpt>
      <trkpt lat="44.53226" lon="5.68146">
        <ele>787</ele>
        <time>2019-04-18T11:00:05Z</time>
      </trkpt>
      <trkpt lat="44.53292" lon="5.68087">
        <ele>787</ele>
        <time>2019-04-18T11:01:05Z</time>
      </trkpt>
      <trkpt lat="44.53318" lon="5.68058">
        <ele>787</ele>
        <time>2019-04-18T11:02:05Z</time>
      </trkpt>
      <trkpt lat="44.53329" lon="5.68031">
        <ele>787</ele>
        <time>2019-04-18T11:03:05Z</time>
      </trkpt>
      <trkpt lat="44.53331" lon="5.68002">
        <ele>787</ele>
        <time>2019-04-18T11:04:05Z</time>
      </trkpt>
      <trkpt lat="44.53328" lon="5.67974">
        <ele>787</ele>
        <time>2019-04-18T11:05:05Z</time>
      </trkpt>
      <trkpt lat="44.53315" lon="5.67938">
        <ele>787</ele>
        <time>2019-04-18T11:06:05Z</time>
      </trkpt>
      <trkpt lat="44.53311" lon="5.67908">
        <ele>788</ele>
        <time>2019-04-18T11:07:05Z</time>
      </trkpt>
      <trkpt lat="44.53315" lon="5.67882">
        <ele>788</ele>
        <time>2019-04-18T11:08:05Z</time>
      </trkpt>
      <trkpt lat="44.53324" lon="5.67863">
        <ele>788</ele>
        <time>2019-04-18T11:09:05Z</time>
      </trkpt>
      <trkpt lat="44.53452" lon="5.67628">
        <ele>789</ele>
        <time>2019-04-18T11:10:05Z</time>
      </trkpt>
      <trkpt lat="44.5367" lon="5.67236">
        <ele>797</ele>
        <time>2019-04-18T11:11:05Z</time>
      </trkpt>
      <trkpt lat="44.53931" lon="5.66772">
        <ele>813</ele>
        <time>2019-04-18T11:12:05Z</time>
      </trkpt>
      <trkpt lat="44.53966" lon="5.66719">
        <ele>813</ele>
        <time>2019-04-18T11:13:05Z</time>
      </trkpt>
      <trkpt lat="44.53984" lon="5.66697">
        <ele>814</ele>
        <time>2019-04-18T11:14:05Z</time>
      </trkpt>
      <trkpt lat="44.54119" lon="5.66559">
        <ele>817</ele>
        <time>2019-04-18T11:15:05Z</time>
      </trkpt>
      <trkpt lat="44.54428" lon="5.66261">
        <ele>826</ele>
        <time>2019-04-18T11:16:05Z</time>
      </trkpt>
      <trkpt lat="44.54468" lon="5.66221">
        <ele>826</ele>
        <time>2019-04-18T11:17:05Z</time>
      </trkpt>
      <trkpt lat="44.54505" lon="5.66179">
        <ele>826</ele>
        <time>2019-04-18T11:18:05Z</time>
      </trkpt>
      <trkpt lat="44.54525" lon="5.66152">
        <ele>827</ele>
        <time>2019-04-18T11:19:05Z</time>
      </trkpt>
      <trkpt lat="44.54536" lon="5.66132">
        <ele>828</ele>
        <time>2019-04-18T11:20:05Z</time>
      </trkpt>
      <trkpt lat="44.54571" lon="5.66032">
        <ele>831</ele>
        <time>2019-04-18T11:21:05Z</time>
      </trkpt>
      <trkpt lat="44.54583" lon="5.65991">
        <ele>832</ele>
        <time>2019-04-18T11:22:05Z</time>
      </trkpt>
      <trkpt lat="44.54586" lon="5.65967">
        <ele>833</ele>
        <time>2019-04-18T11:23:05Z</time>
      </trkpt>
      <trkpt lat="44.54581" lon="5.65865">
        <ele>836</ele>
        <time>2019-04-18T11:24:05Z</time>
      </trkpt>
      <trkpt lat="44.54587" lon="5.65846">
        <ele>837</ele>
        <time>2019-04-18T11:25:05Z</time>
      </trkpt>
      <trkpt lat="44.54592" lon="5.65838">
        <ele>836</ele>
        <time>2019-04-18T11:26:05Z</time>
      </trkpt>
      <trkpt lat="44.54607" lon="5.65825">
        <ele>836</ele>
        <time>2019-04-18T11:27:05Z</time>
      </trkpt>
      <trkpt lat="44.54618" lon="5.65804">
        <ele>836</ele>
        <time>2019-04-18T11:28:05Z</time>
      </trkpt>
      <trkpt lat="44.5465" lon="5.65677">
        <ele>838</ele>
        <time>2019-04-18T11:29:05Z</time>
      </trkpt>
      <trkpt lat="44.54762" lon="5.65197">
        <ele>847</ele>
        <time>2019-04-18T11:30:05Z</time>
      </trkpt>
      <trkpt lat="44.54807" lon="5.6501">
        <ele>847</ele>
        <time>2019-04-18T11:31:05Z</time>
      </trkpt>
      <trkpt lat="44.54961" lon="5.64318">
        <ele>863</ele>
        <time>2019-04-18T11:32:05Z</time>
      </trkpt>
      <trkpt lat="44.55024" lon="5.64021">
        <ele>869</ele>
        <time>2019-04-18T11:33:05Z</time>
      </trkpt>
      <trkpt lat="44.55037" lon="5.63969">
        <ele>870</ele>
        <time>2019-04-18T11:34:05Z</time>
      </trkpt>
      <trkpt lat="44.55049" lon="5.63928">
        <ele>870</ele>
        <time>2019-04-18T11:35:05Z</time>
      </trkpt>
      <trkpt lat="44.55057" lon="5.63912">
        <ele>870</ele>
        <time>2019-04-18T11:36:05Z</time>
      </trkpt>
      <trkpt lat="44.55139" lon="5.63763">
        <ele>875</ele>
        <time>2019-04-18T11:37:05Z</time>
      </trkpt>
      <trkpt lat="44.55156" lon="5.63739">
        <ele>875</ele>
        <time>2019-04-18T11:38:05Z</time>
      </trkpt>
      <trkpt lat="44.55182" lon="5.63709">
        <ele>877</ele>
        <time>2019-04-18T11:39:05Z</time>
      </trkpt>
      <trkpt lat="44.55263" lon="5.63627">
        <ele>884</ele>
        <time>2019-04-18T11:40:05Z</time>
      </trkpt>
      <trkpt lat="44.55281" lon="5.63601">
        <ele>886</ele>
        <time>2019-04-18T11:41:05Z</time>
      </trkpt>
      <trkpt lat="44.55288" lon="5.63582">
        <ele>888</ele>
        <time>2019-04-18T11:42:05Z</time>
      </trkpt>
      <trkpt lat="44.55292" lon="5.63565">
        <ele>889</ele>
        <time>2019-04-18T11:43:05Z</time>
      </trkpt>
      <trkpt lat="44.5531" lon="5.63355">
        <ele>897</ele>
        <time>2019-04-18T11:44:05Z</time>
      </trkpt>
      <trkpt lat="44.55313" lon="5.63297">
        <ele>897</ele>
        <time>2019-04-18T11:45:05Z</time>
      </trkpt>
      <trkpt lat="44.55317" lon="5.63279">
        <ele>898</ele>
        <time>2019-04-18T11:46:05Z</time>
      </trkpt>
      <trkpt lat="44.55323" lon="5.63276">
        <ele>898</ele>
        <time>2019-04-18T11:47:05Z</time>
      </trkpt>
      <trkpt lat="44.55325" lon="5.63276">
        <ele>898</ele>
        <time>2019-04-18T11:48:05Z</time>
      </trkpt>
      <trkpt lat="44.5533" lon="5.63281">
        <ele>899</ele>
        <time>2019-04-18T11:49:05Z</time>
      </trkpt>
      <trkpt lat="44.55337" lon="5.63329">
        <ele>903</ele>
        <time>2019-04-18T11:50:05Z</time>
      </trkpt>
      <trkpt lat="44.55346" lon="5.63379">
        <ele>908</ele>
        <time>2019-04-18T11:51:05Z</time>
      </trkpt>
      <trkpt lat="44.55351" lon="5.63389">
        <ele>911</ele>
        <time>2019-04-18T11:52:05Z</time>
      </trkpt>
      <trkpt lat="44.55357" lon="5.63389">
        <ele>914</ele>
        <time>2019-04-18T11:53:05Z</time>
      </trkpt>
      <trkpt lat="44.55361" lon="5.63385">
        <ele>917</ele>
        <time>2019-04-18T11:54:05Z</time>
      </trkpt>
      <trkpt lat="44.55362" lon="5.63374">
        <ele>917</ele>
        <time>2019-04-18T11:55:05Z</time>
      </trkpt>
      <trkpt lat="44.55358" lon="5.63346">
        <ele>914</ele>
        <time>2019-04-18T11:56:05Z</time>
      </trkpt>
      <trkpt lat="44.55357" lon="5.63326">
        <ele>913</ele>
        <time>2019-04-18T11:57:05Z</time>
      </trkpt>
      <trkpt lat="44.55359" lon="5.63314">
        <ele>913</ele>
        <time>2019-04-18T11:58:05Z</time>
      </trkpt>
      <trkpt lat="44.55384" lon="5.63221">
        <ele>919</ele>
        <time>2019-04-18T11:59:05Z</time>
      </trkpt>
      <trkpt lat="44.55388" lon="5.63161">
        <ele>919</ele>
        <time>2019-04-18T12:00:05Z</time>
      </trkpt>
      <trkpt lat="44.55394" lon="5.63128">
        <ele>921</ele>
        <time>2019-04-18T12:01:05Z</time>
      </trkpt>
      <trkpt lat="44.55408" lon="5.63082">
        <ele>924</ele>
        <time>2019-04-18T12:02:05Z</time>
      </trkpt>
      <trkpt lat="44.55412" lon="5.63062">
        <ele>926</ele>
        <time>2019-04-18T12:03:05Z</time>
      </trkpt>
      <trkpt lat="44.55408" lon="5.62998">
        <ele>927</ele>
        <time>2019-04-18T12:04:05Z</time>
      </trkpt>
      <trkpt lat="44.55413" lon="5.62943">
        <ele>931</ele>
        <time>2019-04-18T12:05:05Z</time>
      </trkpt>
      <trkpt lat="44.55414" lon="5.62918">
        <ele>933</ele>
        <time>2019-04-18T12:06:05Z</time>
      </trkpt>
      <trkpt lat="44.5541" lon="5.62849">
        <ele>936</ele>
        <time>2019-04-18T12:07:05Z</time>
      </trkpt>
      <trkpt lat="44.55413" lon="5.62807">
        <ele>939</ele>
        <time>2019-04-18T12:08:05Z</time>
      </trkpt>
      <trkpt lat="44.55415" lon="5.628">
        <ele>939</ele>
        <time>2019-04-18T12:09:05Z</time>
      </trkpt>
      <trkpt lat="44.5542" lon="5.62795">
        <ele>941</ele>
        <time>2019-04-18T12:10:05Z</time>
      </trkpt>
      <trkpt lat="44.55427" lon="5.62795">
        <ele>944</ele>
        <time>2019-04-18T12:11:05Z</time>
      </trkpt>
      <trkpt lat="44.55433" lon="5.62797">
        <ele>946</ele>
        <time>2019-04-18T12:12:05Z</time>
      </trkpt>
      <trkpt lat="44.55436" lon="5.62805">
        <ele>946</ele>
        <time>2019-04-18T12:13:05Z</time>
      </trkpt>
      <trkpt lat="44.55438" lon="5.62855">
        <ele>943</ele>
        <time>2019-04-18T12:14:05Z</time>
      </trkpt>
      <trkpt lat="44.55444" lon="5.62888">
        <ele>944</ele>
        <time>2019-04-18T12:15:05Z</time>
      </trkpt>
      <trkpt lat="44.5546" lon="5.62949">
        <ele>948</ele>
        <time>2019-04-18T12:16:05Z</time>
      </trkpt>
      <trkpt lat="44.55466" lon="5.63002">
        <ele>948</ele>
        <time>2019-04-18T12:17:05Z</time>
      </trkpt>
      <trkpt lat="44.55471" lon="5.63013">
        <ele>950</ele>
        <time>2019-04-18T12:18:05Z</time>
      </trkpt>
      <trkpt lat="44.5548" lon="5.63016">
        <ele>954</ele>
        <time>2019-04-18T12:19:05Z</time>
      </trkpt>
      <trkpt lat="44.55485" lon="5.63012">
        <ele>956</ele>
        <time>2019-04-18T12:20:05Z</time>
      </trkpt>
      <trkpt lat="44.55488" lon="5.63008">
        <ele>957</ele>
        <time>2019-04-18T12:21:05Z</time>
      </trkpt>
      <trkpt lat="44.5549" lon="5.62994">
        <ele>958</ele>
        <time>2019-04-18T12:22:05Z</time>
      </trkpt>
      <trkpt lat="44.55488" lon="5.62962">
        <ele>958</ele>
        <time>2019-04-18T12:23:05Z</time>
      </trkpt>
      <trkpt lat="44.55489" lon="5.62947">
        <ele>959</ele>
        <time>2019-04-18T12:24:05Z</time>
      </trkpt>
      <trkpt lat="44.5549" lon="5.62927">
        <ele>960</ele>
        <time>2019-04-18T12:25:05Z</time>
      </trkpt>
      <trkpt lat="44.55497" lon="5.62892">
        <ele>964</ele>
        <time>2019-04-18T12:26:05Z</time>
      </trkpt>
      <trkpt lat="44.55499" lon="5.62864">
        <ele>966</ele>
        <time>2019-04-18T12:27:05Z</time>
      </trkpt>
      <trkpt lat="44.55494" lon="5.6284">
        <ele>965</ele>
        <time>2019-04-18T12:28:05Z</time>
      </trkpt>
      <trkpt lat="44.55475" lon="5.62775">
        <ele>964</ele>
        <time>2019-04-18T12:29:05Z</time>
      </trkpt>
      <trkpt lat="44.55473" lon="5.62761">
        <ele>964</ele>
        <time>2019-04-18T12:30:05Z</time>
      </trkpt>
      <trkpt lat="44.55472" lon="5.62745">
        <ele>965</ele>
        <time>2019-04-18T12:31:05Z</time>
      </trkpt>
      <trkpt lat="44.55477" lon="5.6268">
        <ele>971</ele>
        <time>2019-04-18T12:32:05Z</time>
      </trkpt>
      <trkpt lat="44.55476" lon="5.62654">
        <ele>973</ele>
        <time>2019-04-18T12:33:05Z</time>
      </trkpt>
      <trkpt lat="44.5546" lon="5.6255">
        <ele>977</ele>
        <time>2019-04-18T12:34:05Z</time>
      </trkpt>
      <trkpt lat="44.55461" lon="5.62538">
        <ele>979</ele>
        <time>2019-04-18T12:35:05Z</time>
      </trkpt>
      <trkpt lat="44.55469" lon="5.62484">
        <ele>985</ele>
        <time>2019-04-18T12:36:05Z</time>
      </trkpt>
      <trkpt lat="44.55471" lon="5.62461">
        <ele>987</ele>
        <time>2019-04-18T12:37:05Z</time>
      </trkpt>
      <trkpt lat="44.55474" lon="5.62398">
        <ele>989</ele>
        <time>2019-04-18T12:38:05Z</time>
      </trkpt>
      <trkpt lat="44.55477" lon="5.62379">
        <ele>989</ele>
        <time>2019-04-18T12:39:05Z</time>
      </trkpt>
      <trkpt lat="44.55512" lon="5.62223">
        <ele>999</ele>
        <time>2019-04-18T12:40:05Z</time>
      </trkpt>
      <trkpt lat="44.55516" lon="5.62189">
        <ele>1000</ele>
        <time>2019-04-18T12:41:05Z</time>
      </trkpt>
      <trkpt lat="44.55516" lon="5.62178">
        <ele>999</ele>
        <time>2019-04-18T12:42:05Z</time>
      </trkpt>
      <trkpt lat="44.55512" lon="5.62158">
        <ele>1000</ele>
        <time>2019-04-18T12:43:05Z</time>
      </trkpt>
      <trkpt lat="44.55502" lon="5.62137">
        <ele>1004</ele>
        <time>2019-04-18T12:44:05Z</time>
      </trkpt>
      <trkpt lat="44.55468" lon="5.62089">
        <ele>1005</ele>
        <time>2019-04-18T12:45:05Z</time>
      </trkpt>
      <trkpt lat="44.55463" lon="5.62078">
        <ele>1006</ele>
        <time>2019-04-18T12:46:05Z</time>
      </trkpt>
      <trkpt lat="44.55449" lon="5.62029">
        <ele>1013</ele>
        <time>2019-04-18T12:47:05Z</time>
      </trkpt>
      <trkpt lat="44.55424" lon="5.61983">
        <ele>1006</ele>
        <time>2019-04-18T12:48:05Z</time>
      </trkpt>
      <trkpt lat="44.55422" lon="5.61969">
        <ele>1005</ele>
        <time>2019-04-18T12:49:05Z</time>
      </trkpt>
      <trkpt lat="44.55422" lon="5.61961">
        <ele>1005</ele>
        <time>2019-04-18T12:50:05Z</time>
      </trkpt>
      <trkpt lat="44.55426" lon="5.61947">
        <ele>1008</ele>
        <time>2019-04-18T12:51:05Z</time>
      </trkpt>
      <trkpt lat="44.55432" lon="5.61938">
        <ele>1012</ele>
        <time>2019-04-18T12:52:05Z</time>
      </trkpt>
      <trkpt lat="44.55441" lon="5.6192">
        <ele>1019</ele>
        <time>2019-04-18T12:53:05Z</time>
      </trkpt>
      <trkpt lat="44.5545" lon="5.61888">
        <ele>1024</ele>
        <time>2019-04-18T12:54:05Z</time>
      </trkpt>
      <trkpt lat="44.55451" lon="5.61877">
        <ele>1025</ele>
        <time>2019-04-18T12:55:05Z</time>
      </trkpt>
      <trkpt lat="44.55449" lon="5.61838">
        <ele>1023</ele>
        <time>2019-04-18T12:56:05Z</time>
      </trkpt>
      <trkpt lat="44.5545" lon="5.61821">
        <ele>1023</ele>
        <time>2019-04-18T12:57:05Z</time>
      </trkpt>
      <trkpt lat="44.55455" lon="5.61801">
        <ele>1025</ele>
        <time>2019-04-18T12:58:05Z</time>
      </trkpt>
      <trkpt lat="44.55462" lon="5.61743">
        <ele>1026</ele>
        <time>2019-04-18T12:59:05Z</time>
      </trkpt>
      <trkpt lat="44.55466" lon="5.61722">
        <ele>1027</ele>
        <time>2019-04-18T13:00:05Z</time>
      </trkpt>
      <trkpt lat="44.55481" lon="5.61674">
        <ele>1030</ele>
        <time>2019-04-18T13:01:05Z</time>
      </trkpt>
      <trkpt lat="44.55484" lon="5.61656">
        <ele>1029</ele>
        <time>2019-04-18T13:02:05Z</time>
      </trkpt>
      <trkpt lat="44.55506" lon="5.61567">
        <ele>1031</ele>
        <time>2019-04-18T13:03:05Z</time>
      </trkpt>
      <trkpt lat="44.55544" lon="5.61421">
        <ele>1040</ele>
        <time>2019-04-18T13:04:05Z</time>
      </trkpt>
      <trkpt lat="44.5557" lon="5.61376">
        <ele>1044</ele>
        <time>2019-04-18T13:05:05Z</time>
      </trkpt>
      <trkpt lat="44.556" lon="5.61337">
        <ele>1048</ele>
        <time>2019-04-18T13:06:05Z</time>
      </trkpt>
      <trkpt lat="44.5569" lon="5.6124">
        <ele>1060</ele>
        <time>2019-04-18T13:07:05Z</time>
      </trkpt>
      <trkpt lat="44.55701" lon="5.6122">
        <ele>1060</ele>
        <time>2019-04-18T13:08:05Z</time>
      </trkpt>
      <trkpt lat="44.55711" lon="5.61177">
        <ele>1057</ele>
        <time>2019-04-18T13:09:05Z</time>
      </trkpt>
      <trkpt lat="44.5572" lon="5.61161">
        <ele>1057</ele>
        <time>2019-04-18T13:10:05Z</time>
      </trkpt>
      <trkpt lat="44.5573" lon="5.61148">
        <ele>1058</ele>
        <time>2019-04-18T13:11:05Z</time>
      </trkpt>
      <trkpt lat="44.55743" lon="5.61137">
        <ele>1060</ele>
        <time>2019-04-18T13:12:05Z</time>
      </trkpt>
      <trkpt lat="44.55753" lon="5.61131">
        <ele>1061</ele>
        <time>2019-04-18T13:13:05Z</time>
      </trkpt>
      <trkpt lat="44.55798" lon="5.61117">
        <ele>1068</ele>
        <time>2019-04-18T13:14:05Z</time>
      </trkpt>
      <trkpt lat="44.5582" lon="5.61107">
        <ele>1071</ele>
        <time>2019-04-18T13:15:05Z</time>
      </trkpt>
      <trkpt lat="44.55833" lon="5.61094">
        <ele>1072</ele>
        <time>2019-04-18T13:16:05Z</time>
      </trkpt>
      <trkpt lat="44.55839" lon="5.61085">
        <ele>1073</ele>
        <time>2019-04-18T13:17:05Z</time>
      </trkpt>
      <trkpt lat="44.55845" lon="5.61072">
        <ele>1074</ele>
        <time>2019-04-18T13:18:05Z</time>
      </trkpt>
      <trkpt lat="44.55851" lon="5.61049">
        <ele>1077</ele>
        <time>2019-04-18T13:19:05Z</time>
      </trkpt>
      <trkpt lat="44.55852" lon="5.61037">
        <ele>1078</ele>
        <time>2019-04-18T13:20:05Z</time>
      </trkpt>
      <trkpt lat="44.5585" lon="5.61014">
        <ele>1079</ele>
        <time>2019-04-18T13:21:05Z</time>
      </trkpt>
      <trkpt lat="44.55846" lon="5.61001">
        <ele>1079</ele>
        <time>2019-04-18T13:22:05Z</time>
      </trkpt>
      <trkpt lat="44.55831" lon="5.60968">
        <ele>1081</ele>
        <time>2019-04-18T13:23:05Z</time>
      </trkpt>
      <trkpt lat="44.55817" lon="5.60945">
        <ele>1084</ele>
        <time>2019-04-18T13:24:05Z</time>
      </trkpt>
      <trkpt lat="44.55764" lon="5.60911">
        <ele>1089</ele>
        <time>2019-04-18T13:25:05Z</time>
      </trkpt>
      <trkpt lat="44.55754" lon="5.60909">
        <ele>1089</ele>
        <time>2019-04-18T13:26:05Z</time>
      </trkpt>
      <trkpt lat="44.55676" lon="5.60909">
        <ele>1094</ele>
        <time>2019-04-18T13:27:05Z</time>
      </trkpt>
      <trkpt lat="44.55653" lon="5.60915">
        <ele>1096</ele>
        <time>2019-04-18T13:28:05Z</time>
      </trkpt>
      <trkpt lat="44.55605" lon="5.60932">
        <ele>1100</ele>
        <time>2019-04-18T13:29:05Z</time>
      </trkpt>
      <trkpt lat="44.55516" lon="5.60959">
        <ele>1095</ele>
        <time>2019-04-18T13:30:05Z</time>
      </trkpt>
      <trkpt lat="44.55496" lon="5.60956">
        <ele>1095</ele>
        <time>2019-04-18T13:31:05Z</time>
      </trkpt>
      <trkpt lat="44.55485" lon="5.60948">
        <ele>1094</ele>
        <time>2019-04-18T13:32:05Z</time>
      </trkpt>
      <trkpt lat="44.55481" lon="5.60942">
        <ele>1095</ele>
        <time>2019-04-18T13:33:05Z</time>
      </trkpt>
      <trkpt lat="44.55475" lon="5.60926">
        <ele>1097</ele>
        <time>2019-04-18T13:34:05Z</time>
      </trkpt>
      <trkpt lat="44.55466" lon="5.60878">
        <ele>1101</ele>
        <time>2019-04-18T13:35:05Z</time>
      </trkpt>
      <trkpt lat="44.55465" lon="5.60841">
        <ele>1105</ele>
        <time>2019-04-18T13:36:05Z</time>
      </trkpt>
      <trkpt lat="44.55475" lon="5.60773">
        <ele>1117</ele>
        <time>2019-04-18T13:37:05Z</time>
      </trkpt>
      <trkpt lat="44.55474" lon="5.60753">
        <ele>1119</ele>
        <time>2019-04-18T13:38:05Z</time>
      </trkpt>
      <trkpt lat="44.55464" lon="5.60722">
        <ele>1121</ele>
        <time>2019-04-18T13:39:05Z</time>
      </trkpt>
      <trkpt lat="44.55454" lon="5.60699">
        <ele>1121</ele>
        <time>2019-04-18T13:40:05Z</time>
      </trkpt>
      <trkpt lat="44.55391" lon="5.60599">
        <ele>1125</ele>
        <time>2019-04-18T13:41:05Z</time>
      </trkpt>
      <trkpt lat="44.55381" lon="5.60586">
        <ele>1126</ele>
        <time>2019-04-18T13:42:05Z</time>
      </trkpt>
      <trkpt lat="44.55374" lon="5.60581">
        <ele>1125</ele>
        <time>2019-04-18T13:43:05Z</time>
      </trkpt>
      <trkpt lat="44.5536" lon="5.60574">
        <ele>1123</ele>
        <time>2019-04-18T13:44:05Z</time>
      </trkpt>
      <trkpt lat="44.55342" lon="5.60562">
        <ele>1122</ele>
        <time>2019-04-18T13:45:05Z</time>
      </trkpt>
      <trkpt lat="44.55335" lon="5.60555">
        <ele>1122</ele>
        <time>2019-04-18T13:46:05Z</time>
      </trkpt>
      <trkpt lat="44.5532" lon="5.60535">
        <ele>1128</ele>
        <time>2019-04-18T13:47:05Z</time>
      </trkpt>
      <trkpt lat="44.55307" lon="5.60528">
        <ele>1131</ele>
        <time>2019-04-18T13:48:05Z</time>
      </trkpt>
      <trkpt lat="44.55292" lon="5.60525">
        <ele>1132</ele>
        <time>2019-04-18T13:49:05Z</time>
      </trkpt>
      <trkpt lat="44.55252" lon="5.60523">
        <ele>1133</ele>
        <time>2019-04-18T13:50:05Z</time>
      </trkpt>
      <trkpt lat="44.55245" lon="5.60524">
        <ele>1134</ele>
        <time>2019-04-18T13:51:05Z</time>
      </trkpt>
      <trkpt lat="44.55228" lon="5.60532">
        <ele>1137</ele>
        <time>2019-04-18T13:52:05Z</time>
      </trkpt>
      <trkpt lat="44.55199" lon="5.60553">
        <ele>1140</ele>
        <time>2019-04-18T13:53:05Z</time>
      </trkpt>
      <trkpt lat="44.55188" lon="5.60568">
        <ele>1139</ele>
        <time>2019-04-18T13:54:05Z</time>
      </trkpt>
      <trkpt lat="44.55171" lon="5.60594">
        <ele>1137</ele>
        <time>2019-04-18T13:55:05Z</time>
      </trkpt>
      <trkpt lat="44.55164" lon="5.60608">
        <ele>1135</ele>
        <time>2019-04-18T13:56:05Z</time>
      </trkpt>
      <trkpt lat="44.55145" lon="5.60656">
        <ele>1125</ele>
        <time>2019-04-18T13:57:05Z</time>
      </trkpt>
      <trkpt lat="44.55137" lon="5.60668">
        <ele>1122</ele>
        <time>2019-04-18T13:58:05Z</time>
      </trkpt>
      <trkpt lat="44.5513" lon="5.60674">
        <ele>1121</ele>
        <time>2019-04-18T13:59:05Z</time>
      </trkpt>
      <trkpt lat="44.55123" lon="5.60675">
        <ele>1121</ele>
        <time>2019-04-18T14:00:05Z</time>
      </trkpt>
      <trkpt lat="44.55113" lon="5.6067">
        <ele>1123</ele>
        <time>2019-04-18T14:01:05Z</time>
      </trkpt>
      <trkpt lat="44.55104" lon="5.6066">
        <ele>1126</ele>
        <time>2019-04-18T14:02:05Z</time>
      </trkpt>
      <trkpt lat="44.55092" lon="5.60632">
        <ele>1134</ele>
        <time>2019-04-18T14:03:05Z</time>
      </trkpt>
      <trkpt lat="44.55073" lon="5.606">
        <ele>1139</ele>
        <time>2019-04-18T14:04:05Z</time>
      </trkpt>
      <trkpt lat="44.55065" lon="5.60582">
        <ele>1140</ele>
        <time>2019-04-18T14:05:05Z</time>
      </trkpt>
      <trkpt lat="44.55052" lon="5.60545">
        <ele>1143</ele>
        <time>2019-04-18T14:06:05Z</time>
      </trkpt>
      <trkpt lat="44.55039" lon="5.60514">
        <ele>1144</ele>
        <time>2019-04-18T14:07:05Z</time>
      </trkpt>
      <trkpt lat="44.55037" lon="5.60508">
        <ele>1144</ele>
        <time>2019-04-18T14:08:05Z</time>
      </trkpt>
      <trkpt lat="44.55038" lon="5.60496">
        <ele>1147</ele>
        <time>2019-04-18T14:09:05Z</time>
      </trkpt>
      <trkpt lat="44.55046" lon="5.6047">
        <ele>1154</ele>
        <time>2019-04-18T14:10:05Z</time>
      </trkpt>
      <trkpt lat="44.55048" lon="5.60455">
        <ele>1157</ele>
        <time>2019-04-18T14:11:05Z</time>
      </trkpt>
      <trkpt lat="44.55048" lon="5.60433">
        <ele>1159</ele>
        <time>2019-04-18T14:12:05Z</time>
      </trkpt>
      <trkpt lat="44.55047" lon="5.6042">
        <ele>1160</ele>
        <time>2019-04-18T14:13:05Z</time>
      </trkpt>
      <trkpt lat="44.5504" lon="5.60399">
        <ele>1160</ele>
        <time>2019-04-18T14:14:05Z</time>
      </trkpt>
      <trkpt lat="44.55036" lon="5.6039">
        <ele>1160</ele>
        <time>2019-04-18T14:15:05Z</time>
      </trkpt>
      <trkpt lat="44.5501" lon="5.60356">
        <ele>1154</ele>
        <time>2019-04-18T14:16:05Z</time>
      </trkpt>
      <trkpt lat="44.55002" lon="5.6033">
        <ele>1154</ele>
        <time>2019-04-18T14:17:05Z</time>
      </trkpt>
      <trkpt lat="44.55001" lon="5.60317">
        <ele>1153</ele>
        <time>2019-04-18T14:18:05Z</time>
      </trkpt>
      <trkpt lat="44.55004" lon="5.60305">
        <ele>1154</ele>
        <time>2019-04-18T14:19:05Z</time>
      </trkpt>
      <trkpt lat="44.55029" lon="5.60268">
        <ele>1164</ele>
        <time>2019-04-18T14:20:05Z</time>
      </trkpt>
      <trkpt lat="44.55037" lon="5.6025">
        <ele>1167</ele>
        <time>2019-04-18T14:21:05Z</time>
      </trkpt>
      <trkpt lat="44.55039" lon="5.60226">
        <ele>1167</ele>
        <time>2019-04-18T14:22:05Z</time>
      </trkpt>
      <trkpt lat="44.55039" lon="5.60195">
        <ele>1167</ele>
        <time>2019-04-18T14:23:05Z</time>
      </trkpt>
      <trkpt lat="44.55041" lon="5.60181">
        <ele>1167</ele>
        <time>2019-04-18T14:24:05Z</time>
      </trkpt>
      <trkpt lat="44.55054" lon="5.60126">
        <ele>1174</ele>
        <time>2019-04-18T14:25:05Z</time>
      </trkpt>
      <trkpt lat="44.55054" lon="5.60114">
        <ele>1175</ele>
        <time>2019-04-18T14:26:05Z</time>
      </trkpt>
      <trkpt lat="44.5505" lon="5.60092">
        <ele>1176</ele>
        <time>2019-04-18T14:27:05Z</time>
      </trkpt>
      <trkpt lat="44.55043" lon="5.60077">
        <ele>1175</ele>
        <time>2019-04-18T14:28:05Z</time>
      </trkpt>
      <trkpt lat="44.55024" lon="5.60054">
        <ele>1173</ele>
        <time>2019-04-18T14:29:05Z</time>
      </trkpt>
      <trkpt lat="44.55005" lon="5.60021">
        <ele>1172</ele>
        <time>2019-04-18T14:30:05Z</time>
      </trkpt>
      <trkpt lat="44.55002" lon="5.60006">
        <ele>1174</ele>
        <time>2019-04-18T14:31:05Z</time>
      </trkpt>
      <trkpt lat="44.54982" lon="5.59883">
        <ele>1184</ele>
        <time>2019-04-18T14:32:05Z</time>
      </trkpt>
      <trkpt lat="44.54978" lon="5.59869">
        <ele>1185</ele>
        <time>2019-04-18T14:33:05Z</time>
      </trkpt>
      <trkpt lat="44.54968" lon="5.59847">
        <ele>1185</ele>
        <time>2019-04-18T14:34:05Z</time>
      </trkpt>
      <trkpt lat="44.54959" lon="5.59832">
        <ele>1184</ele>
        <time>2019-04-18T14:35:05Z</time>
      </trkpt>
      <trkpt lat="44.5495" lon="5.59819">
        <ele>1182</ele>
        <time>2019-04-18T14:36:05Z</time>
      </trkpt>
      <trkpt lat="44.54937" lon="5.59812">
        <ele>1179</ele>
        <time>2019-04-18T14:37:05Z</time>
      </trkpt>
      <trkpt lat="44.54925" lon="5.59808">
        <ele>1177</ele>
        <time>2019-04-18T14:38:05Z</time>
      </trkpt>
      <trkpt lat="44.54901" lon="5.59806">
        <ele>1177</ele>
        <time>2019-04-18T14:39:05Z</time>
      </trkpt>
      <trkpt lat="44.54879" lon="5.59812">
        <ele>1179</ele>
        <time>2019-04-18T14:40:05Z</time>
      </trkpt>
      <trkpt lat="44.54869" lon="5.59814">
        <ele>1180</ele>
        <time>2019-04-18T14:41:05Z</time>
      </trkpt>
      <trkpt lat="44.54861" lon="5.59812">
        <ele>1181</ele>
        <time>2019-04-18T14:42:05Z</time>
      </trkpt>
      <trkpt lat="44.5485" lon="5.59804">
        <ele>1181</ele>
        <time>2019-04-18T14:43:05Z</time>
      </trkpt>
      <trkpt lat="44.54842" lon="5.59784">
        <ele>1181</ele>
        <time>2019-04-18T14:44:05Z</time>
      </trkpt>
      <trkpt lat="44.54839" lon="5.59761">
        <ele>1181</ele>
        <time>2019-04-18T14:45:05Z</time>
      </trkpt>
      <trkpt lat="44.5484" lon="5.59749">
        <ele>1180</ele>
        <time>2019-04-18T14:46:05Z</time>
      </trkpt>
      <trkpt lat="44.54852" lon="5.59703">
        <ele>1178</ele>
        <time>2019-04-18T14:47:05Z</time>
      </trkpt>
      <trkpt lat="44.54855" lon="5.59688">
        <ele>1177</ele>
        <time>2019-04-18T14:48:05Z</time>
      </trkpt>
      <trkpt lat="44.54858" lon="5.59604">
        <ele>1175</ele>
        <time>2019-04-18T14:49:05Z</time>
      </trkpt>
      <trkpt lat="44.54862" lon="5.59569">
        <ele>1174</ele>
        <time>2019-04-18T14:50:05Z</time>
      </trkpt>
      <trkpt lat="44.5488" lon="5.59469">
        <ele>1168</ele>
        <time>2019-04-18T14:51:05Z</time>
      </trkpt>
      <trkpt lat="44.54886" lon="5.59424">
        <ele>1167</ele>
        <time>2019-04-18T14:52:05Z</time>
      </trkpt>
      <trkpt lat="44.54885" lon="5.59379">
        <ele>1168</ele>
        <time>2019-04-18T14:53:05Z</time>
      </trkpt>
      <trkpt lat="44.54877" lon="5.59334">
        <ele>1173</ele>
        <time>2019-04-18T14:54:05Z</time>
      </trkpt>
      <trkpt lat="44.54879" lon="5.59325">
        <ele>1172</ele>
        <time>2019-04-18T14:55:05Z</time>
      </trkpt>
      <trkpt lat="44.54885" lon="5.59319">
        <ele>1170</ele>
        <time>2019-04-18T14:56:05Z</time>
      </trkpt>
      <trkpt lat="44.54892" lon="5.59319">
        <ele>1166</ele>
        <time>2019-04-18T14:57:05Z</time>
      </trkpt>
      <trkpt lat="44.54898" lon="5.59323">
        <ele>1164</ele>
        <time>2019-04-18T14:58:05Z</time>
      </trkpt>
      <trkpt lat="44.54903" lon="5.59334">
        <ele>1161</ele>
        <time>2019-04-18T14:59:05Z</time>
      </trkpt>
      <trkpt lat="44.54903" lon="5.59349">
        <ele>1161</ele>
        <time>2019-04-18T15:00:05Z</time>
      </trkpt>
      <trkpt lat="44.54899" lon="5.59372">
        <ele>1162</ele>
        <time>2019-04-18T15:01:05Z</time>
      </trkpt>
      <trkpt lat="44.54898" lon="5.59393">
        <ele>1162</ele>
        <time>2019-04-18T15:02:05Z</time>
      </trkpt>
      <trkpt lat="44.549" lon="5.59434">
        <ele>1160</ele>
        <time>2019-04-18T15:03:05Z</time>
      </trkpt>
      <trkpt lat="44.54896" lon="5.5949">
        <ele>1160</ele>
        <time>2019-04-18T15:04:05Z</time>
      </trkpt>
      <trkpt lat="44.54896" lon="5.59518">
        <ele>1159</ele>
        <time>2019-04-18T15:05:05Z</time>
      </trkpt>
      <trkpt lat="44.54898" lon="5.59544">
        <ele>1158</ele>
        <time>2019-04-18T15:06:05Z</time>
      </trkpt>
      <trkpt lat="44.54911" lon="5.59621">
        <ele>1155</ele>
        <time>2019-04-18T15:07:05Z</time>
      </trkpt>
      <trkpt lat="44.54917" lon="5.59638">
        <ele>1154</ele>
        <time>2019-04-18T15:08:05Z</time>
      </trkpt>
      <trkpt lat="44.54926" lon="5.59648">
        <ele>1156</ele>
        <time>2019-04-18T15:09:05Z</time>
      </trkpt>
      <trkpt lat="44.54933" lon="5.59649">
        <ele>1157</ele>
        <time>2019-04-18T15:10:05Z</time>
      </trkpt>
      <trkpt lat="44.54942" lon="5.59647">
        <ele>1158</ele>
        <time>2019-04-18T15:11:05Z</time>
      </trkpt>
      <trkpt lat="44.54964" lon="5.59618">
        <ele>1156</ele>
        <time>2019-04-18T15:12:05Z</time>
      </trkpt>
      <trkpt lat="44.54992" lon="5.59588">
        <ele>1152</ele>
        <time>2019-04-18T15:13:05Z</time>
      </trkpt>
      <trkpt lat="44.55008" lon="5.59566">
        <ele>1150</ele>
        <time>2019-04-18T15:14:05Z</time>
      </trkpt>
      <trkpt lat="44.55036" lon="5.59511">
        <ele>1145</ele>
        <time>2019-04-18T15:15:05Z</time>
      </trkpt>
      <trkpt lat="44.55061" lon="5.59475">
        <ele>1144</ele>
        <time>2019-04-18T15:16:05Z</time>
      </trkpt>
      <trkpt lat="44.55066" lon="5.59462">
        <ele>1142</ele>
        <time>2019-04-18T15:17:05Z</time>
      </trkpt>
      <trkpt lat="44.55074" lon="5.59434">
        <ele>1137</ele>
        <time>2019-04-18T15:18:05Z</time>
      </trkpt>
      <trkpt lat="44.55085" lon="5.59418">
        <ele>1135</ele>
        <time>2019-04-18T15:19:05Z</time>
      </trkpt>
      <trkpt lat="44.55094" lon="5.59409">
        <ele>1134</ele>
        <time>2019-04-18T15:20:05Z</time>
      </trkpt>
      <trkpt lat="44.55106" lon="5.59402">
        <ele>1134</ele>
        <time>2019-04-18T15:21:05Z</time>
      </trkpt>
      <trkpt lat="44.55143" lon="5.59393">
        <ele>1138</ele>
        <time>2019-04-18T15:22:05Z</time>
      </trkpt>
      <trkpt lat="44.55157" lon="5.59386">
        <ele>1138</ele>
        <time>2019-04-18T15:23:05Z</time>
      </trkpt>
      <trkpt lat="44.55164" lon="5.59379">
        <ele>1137</ele>
        <time>2019-04-18T15:24:05Z</time>
      </trkpt>
      <trkpt lat="44.55178" lon="5.59357">
        <ele>1134</ele>
        <time>2019-04-18T15:25:05Z</time>
      </trkpt>
      <trkpt lat="44.55191" lon="5.59341">
        <ele>1133</ele>
        <time>2019-04-18T15:26:05Z</time>
      </trkpt>
      <trkpt lat="44.55212" lon="5.59325">
        <ele>1137</ele>
        <time>2019-04-18T15:27:05Z</time>
      </trkpt>
      <trkpt lat="44.55217" lon="5.59318">
        <ele>1138</ele>
        <time>2019-04-18T15:28:05Z</time>
      </trkpt>
      <trkpt lat="44.55221" lon="5.5931">
        <ele>1137</ele>
        <time>2019-04-18T15:29:05Z</time>
      </trkpt>
      <trkpt lat="44.55222" lon="5.59301">
        <ele>1136</ele>
        <time>2019-04-18T15:30:05Z</time>
      </trkpt>
      <trkpt lat="44.55222" lon="5.59253">
        <ele>1126</ele>
        <time>2019-04-18T15:31:05Z</time>
      </trkpt>
      <trkpt lat="44.55223" lon="5.59233">
        <ele>1123</ele>
        <time>2019-04-18T15:32:05Z</time>
      </trkpt>
      <trkpt lat="44.55227" lon="5.59205">
        <ele>1120</ele>
        <time>2019-04-18T15:33:05Z</time>
      </trkpt>
      <trkpt lat="44.55232" lon="5.59184">
        <ele>1118</ele>
        <time>2019-04-18T15:34:05Z</time>
      </trkpt>
      <trkpt lat="44.55247" lon="5.59163">
        <ele>1119</ele>
        <time>2019-04-18T15:35:05Z</time>
      </trkpt>
      <trkpt lat="44.55257" lon="5.59156">
        <ele>1120</ele>
        <time>2019-04-18T15:36:05Z</time>
      </trkpt>
      <trkpt lat="44.55281" lon="5.59148">
        <ele>1122</ele>
        <time>2019-04-18T15:37:05Z</time>
      </trkpt>
      <trkpt lat="44.5529" lon="5.59136">
        <ele>1120</ele>
        <time>2019-04-18T15:38:05Z</time>
      </trkpt>
      <trkpt lat="44.55292" lon="5.59127">
        <ele>1118</ele>
        <time>2019-04-18T15:39:05Z</time>
      </trkpt>
      <trkpt lat="44.55291" lon="5.5912">
        <ele>1116</ele>
        <time>2019-04-18T15:40:05Z</time>
      </trkpt>
      <trkpt lat="44.55285" lon="5.59109">
        <ele>1113</ele>
        <time>2019-04-18T15:41:05Z</time>
      </trkpt>
      <trkpt lat="44.55279" lon="5.59106">
        <ele>1112</ele>
        <time>2019-04-18T15:42:05Z</time>
      </trkpt>
      <trkpt lat="44.55271" lon="5.59106">
        <ele>1111</ele>
        <time>2019-04-18T15:43:05Z</time>
      </trkpt>
      <trkpt lat="44.55264" lon="5.59109">
        <ele>1111</ele>
        <time>2019-04-18T15:44:05Z</time>
      </trkpt>
      <trkpt lat="44.5524" lon="5.59129">
        <ele>1111</ele>
        <time>2019-04-18T15:45:05Z</time>
      </trkpt>
      <trkpt lat="44.55226" lon="5.59152">
        <ele>1111</ele>
        <time>2019-04-18T15:46:05Z</time>
      </trkpt>
      <trkpt lat="44.55221" lon="5.59163">
        <ele>1111</ele>
        <time>2019-04-18T15:47:05Z</time>
      </trkpt>
      <trkpt lat="44.55199" lon="5.59229">
        <ele>1113</ele>
        <time>2019-04-18T15:48:05Z</time>
      </trkpt>
      <trkpt lat="44.55196" lon="5.59246">
        <ele>1114</ele>
        <time>2019-04-18T15:49:05Z</time>
      </trkpt>
      <trkpt lat="44.55195" lon="5.59271">
        <ele>1119</ele>
        <time>2019-04-18T15:50:05Z</time>
      </trkpt>
      <trkpt lat="44.55192" lon="5.5928">
        <ele>1120</ele>
        <time>2019-04-18T15:51:05Z</time>
      </trkpt>
      <trkpt lat="44.55152" lon="5.59323">
        <ele>1116</ele>
        <time>2019-04-18T15:52:05Z</time>
      </trkpt>
      <trkpt lat="44.55139" lon="5.5933">
        <ele>1116</ele>
        <time>2019-04-18T15:53:05Z</time>
      </trkpt>
      <trkpt lat="44.55125" lon="5.59335">
        <ele>1115</ele>
        <time>2019-04-18T15:54:05Z</time>
      </trkpt>
      <trkpt lat="44.55068" lon="5.59341">
        <ele>1111</ele>
        <time>2019-04-18T15:55:05Z</time>
      </trkpt>
      <trkpt lat="44.55048" lon="5.59354">
        <ele>1115</ele>
        <time>2019-04-18T15:56:05Z</time>
      </trkpt>
      <trkpt lat="44.55037" lon="5.59365">
        <ele>1117</ele>
        <time>2019-04-18T15:57:05Z</time>
      </trkpt>
      <trkpt lat="44.55028" lon="5.59371">
        <ele>1118</ele>
        <time>2019-04-18T15:58:05Z</time>
      </trkpt>
      <trkpt lat="44.55018" lon="5.5937">
        <ele>1118</ele>
        <time>2019-04-18T15:59:05Z</time>
      </trkpt>
      <trkpt lat="44.55013" lon="5.59366">
        <ele>1117</ele>
        <time>2019-04-18T16:00:05Z</time>
      </trkpt>
      <trkpt lat="44.55008" lon="5.59355">
        <ele>1116</ele>
        <time>2019-04-18T16:01:05Z</time>
      </trkpt>
      <trkpt lat="44.55007" lon="5.59344">
        <ele>1115</ele>
        <time>2019-04-18T16:02:05Z</time>
      </trkpt>
      <trkpt lat="44.55008" lon="5.59332">
        <ele>1113</ele>
        <time>2019-04-18T16:03:05Z</time>
      </trkpt>
      <trkpt lat="44.55041" lon="5.59174">
        <ele>1099</ele>
        <time>2019-04-18T16:04:05Z</time>
      </trkpt>
      <trkpt lat="44.55043" lon="5.59147">
        <ele>1098</ele>
        <time>2019-04-18T16:05:05Z</time>
      </trkpt>
      <trkpt lat="44.55047" lon="5.59065">
        <ele>1095</ele>
        <time>2019-04-18T16:06:05Z</time>
      </trkpt>
      <trkpt lat="44.55049" lon="5.58952">
        <ele>1093</ele>
        <time>2019-04-18T16:07:05Z</time>
      </trkpt>
      <trkpt lat="44.55052" lon="5.58892">
        <ele>1095</ele>
        <time>2019-04-18T16:08:05Z</time>
      </trkpt>
      <trkpt lat="44.55062" lon="5.58821">
        <ele>1096</ele>
        <time>2019-04-18T16:09:05Z</time>
      </trkpt>
      <trkpt lat="44.55073" lon="5.58779">
        <ele>1094</ele>
        <time>2019-04-18T16:10:05Z</time>
      </trkpt>
      <trkpt lat="44.55089" lon="5.58704">
        <ele>1093</ele>
        <time>2019-04-18T16:11:05Z</time>
      </trkpt>
      <trkpt lat="44.55102" lon="5.58667">
        <ele>1092</ele>
        <time>2019-04-18T16:12:05Z</time>
      </trkpt>
      <trkpt lat="44.55112" lon="5.5865">
        <ele>1090</ele>
        <time>2019-04-18T16:13:05Z</time>
      </trkpt>
      <trkpt lat="44.5517" lon="5.58581">
        <ele>1077</ele>
        <time>2019-04-18T16:14:05Z</time>
      </trkpt>
      <trkpt lat="44.5522" lon="5.58538">
        <ele>1066</ele>
        <time>2019-04-18T16:15:05Z</time>
      </trkpt>
      <trkpt lat="44.55238" lon="5.58516">
        <ele>1064</ele>
        <time>2019-04-18T16:16:05Z</time>
      </trkpt>
      <trkpt lat="44.55245" lon="5.58502">
        <ele>1064</ele>
        <time>2019-04-18T16:17:05Z</time>
      </trkpt>
      <trkpt lat="44.5526" lon="5.58472">
        <ele>1062</ele>
        <time>2019-04-18T16:18:05Z</time>
      </trkpt>
      <trkpt lat="44.55274" lon="5.58439">
        <ele>1061</ele>
        <time>2019-04-18T16:19:05Z</time>
      </trkpt>
      <trkpt lat="44.55294" lon="5.58385">
        <ele>1060</ele>
        <time>2019-04-18T16:20:05Z</time>
      </trkpt>
      <trkpt lat="44.55301" lon="5.5836">
        <ele>1059</ele>
        <time>2019-04-18T16:21:05Z</time>
      </trkpt>
      <trkpt lat="44.55306" lon="5.5832">
        <ele>1059</ele>
        <time>2019-04-18T16:22:05Z</time>
      </trkpt>
      <trkpt lat="44.55306" lon="5.5828">
        <ele>1061</ele>
        <time>2019-04-18T16:23:05Z</time>
      </trkpt>
      <trkpt lat="44.55309" lon="5.58252">
        <ele>1062</ele>
        <time>2019-04-18T16:24:05Z</time>
      </trkpt>
      <trkpt lat="44.55328" lon="5.58192">
        <ele>1063</ele>
        <time>2019-04-18T16:25:05Z</time>
      </trkpt>
      <trkpt lat="44.55342" lon="5.58167">
        <ele>1061</ele>
        <time>2019-04-18T16:26:05Z</time>
      </trkpt>
      <trkpt lat="44.55349" lon="5.5816">
        <ele>1060</ele>
        <time>2019-04-18T16:27:05Z</time>
      </trkpt>
      <trkpt lat="44.55376" lon="5.5814">
        <ele>1051</ele>
        <time>2019-04-18T16:28:05Z</time>
      </trkpt>
      <trkpt lat="44.55388" lon="5.58124">
        <ele>1049</ele>
        <time>2019-04-18T16:29:05Z</time>
      </trkpt>
      <trkpt lat="44.55408" lon="5.58069">
        <ele>1049</ele>
        <time>2019-04-18T16:30:05Z</time>
      </trkpt>
      <trkpt lat="44.55433" lon="5.58009">
        <ele>1048</ele>
        <time>2019-04-18T16:31:05Z</time>
      </trkpt>
      <trkpt lat="44.55443" lon="5.57991">
        <ele>1047</ele>
        <time>2019-04-18T16:32:05Z</time>
      </trkpt>
      <trkpt lat="44.5546" lon="5.57969">
        <ele>1045</ele>
        <time>2019-04-18T16:33:05Z</time>
      </trkpt>
      <trkpt lat="44.55474" lon="5.57945">
        <ele>1045</ele>
        <time>2019-04-18T16:34:05Z</time>
      </trkpt>
      <trkpt lat="44.55486" lon="5.57922">
        <ele>1046</ele>
        <time>2019-04-18T16:35:05Z</time>
      </trkpt>
      <trkpt lat="44.55503" lon="5.57908">
        <ele>1045</ele>
        <time>2019-04-18T16:36:05Z</time>
      </trkpt>
      <trkpt lat="44.55518" lon="5.57907">
        <ele>1045</ele>
        <time>2019-04-18T16:37:05Z</time>
      </trkpt>
      <trkpt lat="44.5556" lon="5.57923">
        <ele>1037</ele>
        <time>2019-04-18T16:38:05Z</time>
      </trkpt>
      <trkpt lat="44.55583" lon="5.57927">
        <ele>1034</ele>
        <time>2019-04-18T16:39:05Z</time>
      </trkpt>
      <trkpt lat="44.55618" lon="5.57926">
        <ele>1034</ele>
        <time>2019-04-18T16:40:05Z</time>
      </trkpt>
      <trkpt lat="44.55672" lon="5.57943">
        <ele>1025</ele>
        <time>2019-04-18T16:41:05Z</time>
      </trkpt>
      <trkpt lat="44.55688" lon="5.57941">
        <ele>1023</ele>
        <time>2019-04-18T16:42:05Z</time>
      </trkpt>
      <trkpt lat="44.55704" lon="5.57932">
        <ele>1022</ele>
        <time>2019-04-18T16:43:05Z</time>
      </trkpt>
      <trkpt lat="44.55727" lon="5.57909">
        <ele>1023</ele>
        <time>2019-04-18T16:44:05Z</time>
      </trkpt>
      <trkpt lat="44.5579" lon="5.57831">
        <ele>1020</ele>
        <time>2019-04-18T16:45:05Z</time>
      </trkpt>
      <trkpt lat="44.55806" lon="5.57804">
        <ele>1018</ele>
        <time>2019-04-18T16:46:05Z</time>
      </trkpt>
      <trkpt lat="44.55818" lon="5.57781">
        <ele>1016</ele>
        <time>2019-04-18T16:47:05Z</time>
      </trkpt>
      <trkpt lat="44.5583" lon="5.5775">
        <ele>1014</ele>
        <time>2019-04-18T16:48:05Z</time>
      </trkpt>
      <trkpt lat="44.55836" lon="5.57723">
        <ele>1014</ele>
        <time>2019-04-18T16:49:05Z</time>
      </trkpt>
      <trkpt lat="44.55848" lon="5.57652">
        <ele>1016</ele>
        <time>2019-04-18T16:50:05Z</time>
      </trkpt>
      <trkpt lat="44.55854" lon="5.576">
        <ele>1017</ele>
        <time>2019-04-18T16:51:05Z</time>
      </trkpt>
      <trkpt lat="44.55858" lon="5.57586">
        <ele>1015</ele>
        <time>2019-04-18T16:52:05Z</time>
      </trkpt>
      <trkpt lat="44.5588" lon="5.57517">
        <ele>1009</ele>
        <time>2019-04-18T16:53:05Z</time>
      </trkpt>
      <trkpt lat="44.55902" lon="5.57432">
        <ele>1004</ele>
        <time>2019-04-18T16:54:05Z</time>
      </trkpt>
      <trkpt lat="44.55908" lon="5.57398">
        <ele>1003</ele>
        <time>2019-04-18T16:55:05Z</time>
      </trkpt>
      <trkpt lat="44.55911" lon="5.57347">
        <ele>1004</ele>
        <time>2019-04-18T16:56:05Z</time>
      </trkpt>
      <trkpt lat="44.55913" lon="5.57339">
        <ele>1003</ele>
        <time>2019-04-18T16:57:05Z</time>
      </trkpt>
      <trkpt lat="44.55918" lon="5.57329">
        <ele>1000</ele>
        <time>2019-04-18T16:58:05Z</time>
      </trkpt>
      <trkpt lat="44.55926" lon="5.57327">
        <ele>996</ele>
        <time>2019-04-18T16:59:05Z</time>
      </trkpt>
      <trkpt lat="44.55931" lon="5.57329">
        <ele>993</ele>
        <time>2019-04-18T17:00:05Z</time>
      </trkpt>
      <trkpt lat="44.55938" lon="5.57339">
        <ele>990</ele>
        <time>2019-04-18T17:01:05Z</time>
      </trkpt>
      <trkpt lat="44.55937" lon="5.57349">
        <ele>990</ele>
        <time>2019-04-18T17:02:05Z</time>
      </trkpt>
      <trkpt lat="44.5593" lon="5.57385">
        <ele>992</ele>
        <time>2019-04-18T17:03:05Z</time>
      </trkpt>
      <trkpt lat="44.55925" lon="5.57432">
        <ele>992</ele>
        <time>2019-04-18T17:04:05Z</time>
      </trkpt>
      <trkpt lat="44.55918" lon="5.57537">
        <ele>988</ele>
        <time>2019-04-18T17:05:05Z</time>
      </trkpt>
      <trkpt lat="44.55909" lon="5.57596">
        <ele>989</ele>
        <time>2019-04-18T17:06:05Z</time>
      </trkpt>
      <trkpt lat="44.55894" lon="5.57877">
        <ele>975</ele>
        <time>2019-04-18T17:07:05Z</time>
      </trkpt>
      <trkpt lat="44.5588" lon="5.57982">
        <ele>970</ele>
        <time>2019-04-18T17:08:05Z</time>
      </trkpt>
      <trkpt lat="44.55871" lon="5.58023">
        <ele>967</ele>
        <time>2019-04-18T17:09:05Z</time>
      </trkpt>
      <trkpt lat="44.55854" lon="5.5808">
        <ele>963</ele>
        <time>2019-04-18T17:10:05Z</time>
      </trkpt>
      <trkpt lat="44.55845" lon="5.58097">
        <ele>963</ele>
        <time>2019-04-18T17:11:05Z</time>
      </trkpt>
      <trkpt lat="44.55832" lon="5.58111">
        <ele>962</ele>
        <time>2019-04-18T17:12:05Z</time>
      </trkpt>
      <trkpt lat="44.55823" lon="5.58124">
        <ele>960</ele>
        <time>2019-04-18T17:13:05Z</time>
      </trkpt>
      <trkpt lat="44.5582" lon="5.58136">
        <ele>957</ele>
        <time>2019-04-18T17:14:05Z</time>
      </trkpt>
      <trkpt lat="44.55823" lon="5.58151">
        <ele>955</ele>
        <time>2019-04-18T17:15:05Z</time>
      </trkpt>
      <trkpt lat="44.55827" lon="5.58156">
        <ele>954</ele>
        <time>2019-04-18T17:16:05Z</time>
      </trkpt>
      <trkpt lat="44.55837" lon="5.58156">
        <ele>954</ele>
        <time>2019-04-18T17:17:05Z</time>
      </trkpt>
      <trkpt lat="44.55842" lon="5.58152">
        <ele>954</ele>
        <time>2019-04-18T17:18:05Z</time>
      </trkpt>
      <trkpt lat="44.55849" lon="5.58143">
        <ele>954</ele>
        <time>2019-04-18T17:19:05Z</time>
      </trkpt>
      <trkpt lat="44.55858" lon="5.58122">
        <ele>956</ele>
        <time>2019-04-18T17:20:05Z</time>
      </trkpt>
      <trkpt lat="44.55877" lon="5.58088">
        <ele>958</ele>
        <time>2019-04-18T17:21:05Z</time>
      </trkpt>
      <trkpt lat="44.5591" lon="5.58035">
        <ele>958</ele>
        <time>2019-04-18T17:22:05Z</time>
      </trkpt>
      <trkpt lat="44.55924" lon="5.58002">
        <ele>957</ele>
        <time>2019-04-18T17:23:05Z</time>
      </trkpt>
      <trkpt lat="44.55944" lon="5.57934">
        <ele>953</ele>
        <time>2019-04-18T17:24:05Z</time>
      </trkpt>
      <trkpt lat="44.55955" lon="5.57885">
        <ele>951</ele>
        <time>2019-04-18T17:25:05Z</time>
      </trkpt>
      <trkpt lat="44.55963" lon="5.57806">
        <ele>950</ele>
        <time>2019-04-18T17:26:05Z</time>
      </trkpt>
      <trkpt lat="44.55967" lon="5.57785">
        <ele>950</ele>
        <time>2019-04-18T17:27:05Z</time>
      </trkpt>
      <trkpt lat="44.55975" lon="5.57756">
        <ele>950</ele>
        <time>2019-04-18T17:28:05Z</time>
      </trkpt>
      <trkpt lat="44.55993" lon="5.57712">
        <ele>946</ele>
        <time>2019-04-18T17:29:05Z</time>
      </trkpt>
      <trkpt lat="44.56003" lon="5.57668">
        <ele>944</ele>
        <time>2019-04-18T17:30:05Z</time>
      </trkpt>
      <trkpt lat="44.56011" lon="5.57643">
        <ele>943</ele>
        <time>2019-04-18T17:31:05Z</time>
      </trkpt>
      <trkpt lat="44.56027" lon="5.57603">
        <ele>938</ele>
        <time>2019-04-18T17:32:05Z</time>
      </trkpt>
      <trkpt lat="44.56036" lon="5.57565">
        <ele>937</ele>
        <time>2019-04-18T17:33:05Z</time>
      </trkpt>
      <trkpt lat="44.56046" lon="5.57537">
        <ele>936</ele>
        <time>2019-04-18T17:34:05Z</time>
      </trkpt>
      <trkpt lat="44.56083" lon="5.57452">
        <ele>932</ele>
        <time>2019-04-18T17:35:05Z</time>
      </trkpt>
      <trkpt lat="44.56092" lon="5.5743">
        <ele>929</ele>
        <time>2019-04-18T17:36:05Z</time>
      </trkpt>
      <trkpt lat="44.561" lon="5.57402">
        <ele>924</ele>
        <time>2019-04-18T17:37:05Z</time>
      </trkpt>
      <trkpt lat="44.56101" lon="5.57376">
        <ele>920</ele>
        <time>2019-04-18T17:38:05Z</time>
      </trkpt>
      <trkpt lat="44.56093" lon="5.57355">
        <ele>922</ele>
        <time>2019-04-18T17:39:05Z</time>
      </trkpt>
      <trkpt lat="44.56083" lon="5.57342">
        <ele>924</ele>
        <time>2019-04-18T17:40:05Z</time>
      </trkpt>
      <trkpt lat="44.56051" lon="5.57323">
        <ele>934</ele>
        <time>2019-04-18T17:41:05Z</time>
      </trkpt>
      <trkpt lat="44.56036" lon="5.57309">
        <ele>937</ele>
        <time>2019-04-18T17:42:05Z</time>
      </trkpt>
      <trkpt lat="44.56027" lon="5.57289">
        <ele>936</ele>
        <time>2019-04-18T17:43:05Z</time>
      </trkpt>
      <trkpt lat="44.56011" lon="5.57233">
        <ele>934</ele>
        <time>2019-04-18T17:44:05Z</time>
      </trkpt>
      <trkpt lat="44.56005" lon="5.57195">
        <ele>934</ele>
        <time>2019-04-18T17:45:05Z</time>
      </trkpt>
      <trkpt lat="44.56007" lon="5.57175">
        <ele>932</ele>
        <time>2019-04-18T17:46:05Z</time>
      </trkpt>
      <trkpt lat="44.56032" lon="5.57098">
        <ele>929</ele>
        <time>2019-04-18T17:47:05Z</time>
      </trkpt>
      <trkpt lat="44.56043" lon="5.5708">
        <ele>927</ele>
        <time>2019-04-18T17:48:05Z</time>
      </trkpt>
      <trkpt lat="44.56057" lon="5.57068">
        <ele>925</ele>
        <time>2019-04-18T17:49:05Z</time>
      </trkpt>
      <trkpt lat="44.56119" lon="5.57025">
        <ele>917</ele>
        <time>2019-04-18T17:50:05Z</time>
      </trkpt>
      <trkpt lat="44.56134" lon="5.5701">
        <ele>916</ele>
        <time>2019-04-18T17:51:05Z</time>
      </trkpt>
      <trkpt lat="44.56147" lon="5.56994">
        <ele>916</ele>
        <time>2019-04-18T17:52:05Z</time>
      </trkpt>
      <trkpt lat="44.56163" lon="5.56979">
        <ele>914</ele>
        <time>2019-04-18T17:53:05Z</time>
      </trkpt>
      <trkpt lat="44.56212" lon="5.56953">
        <ele>903</ele>
        <time>2019-04-18T17:54:05Z</time>
      </trkpt>
      <trkpt lat="44.56221" lon="5.56946">
        <ele>901</ele>
        <time>2019-04-18T17:55:05Z</time>
      </trkpt>
      <trkpt lat="44.56232" lon="5.56932">
        <ele>900</ele>
        <time>2019-04-18T17:56:05Z</time>
      </trkpt>
      <trkpt lat="44.56242" lon="5.56909">
        <ele>899</ele>
        <time>2019-04-18T17:57:05Z</time>
      </trkpt>
      <trkpt lat="44.56249" lon="5.56882">
        <ele>899</ele>
        <time>2019-04-18T17:58:05Z</time>
      </trkpt>
      <trkpt lat="44.5625" lon="5.56826">
        <ele>905</ele>
        <time>2019-04-18T17:59:05Z</time>
      </trkpt>
      <trkpt lat="44.56252" lon="5.56809">
        <ele>905</ele>
        <time>2019-04-18T18:00:05Z</time>
      </trkpt>
      <trkpt lat="44.56258" lon="5.56793">
        <ele>904</ele>
        <time>2019-04-18T18:01:05Z</time>
      </trkpt>
      <trkpt lat="44.5628" lon="5.56748">
        <ele>900</ele>
        <time>2019-04-18T18:02:05Z</time>
      </trkpt>
      <trkpt lat="44.56295" lon="5.56701">
        <ele>894</ele>
        <time>2019-04-18T18:03:05Z</time>
      </trkpt>
      <trkpt lat="44.56299" lon="5.56685">
        <ele>892</ele>
        <time>2019-04-18T18:04:05Z</time>
      </trkpt>
      <trkpt lat="44.56301" lon="5.56649">
        <ele>888</ele>
        <time>2019-04-18T18:05:05Z</time>
      </trkpt>
      <trkpt lat="44.56296" lon="5.56621">
        <ele>884</ele>
        <time>2019-04-18T18:06:05Z</time>
      </trkpt>
      <trkpt lat="44.56284" lon="5.5659">
        <ele>882</ele>
        <time>2019-04-18T18:07:05Z</time>
      </trkpt>
      <trkpt lat="44.56277" lon="5.56579">
        <ele>882</ele>
        <time>2019-04-18T18:08:05Z</time>
      </trkpt>
      <trkpt lat="44.56253" lon="5.56552">
        <ele>884</ele>
        <time>2019-04-18T18:09:05Z</time>
      </trkpt>
      <trkpt lat="44.56233" lon="5.56525">
        <ele>889</ele>
        <time>2019-04-18T18:10:05Z</time>
      </trkpt>
      <trkpt lat="44.56228" lon="5.56508">
        <ele>889</ele>
        <time>2019-04-18T18:11:05Z</time>
      </trkpt>
      <trkpt lat="44.56226" lon="5.56482">
        <ele>890</ele>
        <time>2019-04-18T18:12:05Z</time>
      </trkpt>
      <trkpt lat="44.56227" lon="5.56464">
        <ele>891</ele>
        <time>2019-04-18T18:13:05Z</time>
      </trkpt>
      <trkpt lat="44.56229" lon="5.56442">
        <ele>891</ele>
        <time>2019-04-18T18:14:05Z</time>
      </trkpt>
      <trkpt lat="44.56237" lon="5.56425">
        <ele>888</ele>
        <time>2019-04-18T18:15:05Z</time>
      </trkpt>
      <trkpt lat="44.56266" lon="5.56388">
        <ele>886</ele>
        <time>2019-04-18T18:16:05Z</time>
      </trkpt>
      <trkpt lat="44.56282" lon="5.56372">
        <ele>885</ele>
        <time>2019-04-18T18:17:05Z</time>
      </trkpt>
      <trkpt lat="44.56319" lon="5.56347">
        <ele>876</ele>
        <time>2019-04-18T18:18:05Z</time>
      </trkpt>
      <trkpt lat="44.56324" lon="5.56341">
        <ele>875</ele>
        <time>2019-04-18T18:19:05Z</time>
      </trkpt>
      <trkpt lat="44.56333" lon="5.56325">
        <ele>873</ele>
        <time>2019-04-18T18:20:05Z</time>
      </trkpt>
      <trkpt lat="44.56351" lon="5.56256">
        <ele>871</ele>
        <time>2019-04-18T18:21:05Z</time>
      </trkpt>
      <trkpt lat="44.56354" lon="5.56201">
        <ele>872</ele>
        <time>2019-04-18T18:22:05Z</time>
      </trkpt>
      <trkpt lat="44.56367" lon="5.5615">
        <ele>870</ele>
        <time>2019-04-18T18:23:05Z</time>
      </trkpt>
      <trkpt lat="44.56374" lon="5.56094">
        <ele>874</ele>
        <time>2019-04-18T18:24:05Z</time>
      </trkpt>
      <trkpt lat="44.56378" lon="5.56087">
        <ele>874</ele>
        <time>2019-04-18T18:25:05Z</time>
      </trkpt>
      <trkpt lat="44.56388" lon="5.56075">
        <ele>872</ele>
        <time>2019-04-18T18:26:05Z</time>
      </trkpt>
      <trkpt lat="44.56409" lon="5.56064">
        <ele>867</ele>
        <time>2019-04-18T18:27:05Z</time>
      </trkpt>
      <trkpt lat="44.56427" lon="5.56061">
        <ele>864</ele>
        <time>2019-04-18T18:28:05Z</time>
      </trkpt>
      <trkpt lat="44.5646" lon="5.56067">
        <ele>858</ele>
        <time>2019-04-18T18:29:05Z</time>
      </trkpt>
      <trkpt lat="44.56466" lon="5.56066">
        <ele>857</ele>
        <time>2019-04-18T18:30:05Z</time>
      </trkpt>
      <trkpt lat="44.56477" lon="5.56059">
        <ele>856</ele>
        <time>2019-04-18T18:31:05Z</time>
      </trkpt>
      <trkpt lat="44.56481" lon="5.56051">
        <ele>856</ele>
        <time>2019-04-18T18:32:05Z</time>
      </trkpt>
      <trkpt lat="44.56484" lon="5.56042">
        <ele>856</ele>
        <time>2019-04-18T18:33:05Z</time>
      </trkpt>
      <trkpt lat="44.56485" lon="5.56032">
        <ele>857</ele>
        <time>2019-04-18T18:34:05Z</time>
      </trkpt>
      <trkpt lat="44.56481" lon="5.56011">
        <ele>859</ele>
        <time>2019-04-18T18:35:05Z</time>
      </trkpt>
      <trkpt lat="44.56479" lon="5.55991">
        <ele>861</ele>
        <time>2019-04-18T18:36:05Z</time>
      </trkpt>
      <trkpt lat="44.56483" lon="5.55973">
        <ele>862</ele>
        <time>2019-04-18T18:37:05Z</time>
      </trkpt>
      <trkpt lat="44.56497" lon="5.55954">
        <ele>860</ele>
        <time>2019-04-18T18:38:05Z</time>
      </trkpt>
      <trkpt lat="44.56519" lon="5.55933">
        <ele>855</ele>
        <time>2019-04-18T18:39:05Z</time>
      </trkpt>
      <trkpt lat="44.56529" lon="5.55923">
        <ele>853</ele>
        <time>2019-04-18T18:40:05Z</time>
      </trkpt>
      <trkpt lat="44.56536" lon="5.55912">
        <ele>852</ele>
        <time>2019-04-18T18:41:05Z</time>
      </trkpt>
      <trkpt lat="44.56545" lon="5.55895">
        <ele>850</ele>
        <time>2019-04-18T18:42:05Z</time>
      </trkpt>
      <trkpt lat="44.56551" lon="5.55877">
        <ele>848</ele>
        <time>2019-04-18T18:43:05Z</time>
      </trkpt>
      <trkpt lat="44.56553" lon="5.55857">
        <ele>848</ele>
        <time>2019-04-18T18:44:05Z</time>
      </trkpt>
      <trkpt lat="44.56552" lon="5.55838">
        <ele>848</ele>
        <time>2019-04-18T18:45:05Z</time>
      </trkpt>
      <trkpt lat="44.56547" lon="5.55811">
        <ele>845</ele>
        <time>2019-04-18T18:46:05Z</time>
      </trkpt>
      <trkpt lat="44.56547" lon="5.55797">
        <ele>842</ele>
        <time>2019-04-18T18:47:05Z</time>
      </trkpt>
      <trkpt lat="44.5655" lon="5.55791">
        <ele>841</ele>
        <time>2019-04-18T18:48:05Z</time>
      </trkpt>
      <trkpt lat="44.56557" lon="5.55785">
        <ele>838</ele>
        <time>2019-04-18T18:49:05Z</time>
      </trkpt>
      <trkpt lat="44.56567" lon="5.55788">
        <ele>836</ele>
        <time>2019-04-18T18:50:05Z</time>
      </trkpt>
      <trkpt lat="44.56571" lon="5.55795">
        <ele>836</ele>
        <time>2019-04-18T18:51:05Z</time>
      </trkpt>
      <trkpt lat="44.56573" lon="5.55807">
        <ele>838</ele>
        <time>2019-04-18T18:52:05Z</time>
      </trkpt>
      <trkpt lat="44.56575" lon="5.5585">
        <ele>843</ele>
        <time>2019-04-18T18:53:05Z</time>
      </trkpt>
      <trkpt lat="44.56581" lon="5.55895">
        <ele>841</ele>
        <time>2019-04-18T18:54:05Z</time>
      </trkpt>
      <trkpt lat="44.56581" lon="5.55909">
        <ele>841</ele>
        <time>2019-04-18T18:55:05Z</time>
      </trkpt>
      <trkpt lat="44.56577" lon="5.55926">
        <ele>841</ele>
        <time>2019-04-18T18:56:05Z</time>
      </trkpt>
      <trkpt lat="44.5656" lon="5.55964">
        <ele>843</ele>
        <time>2019-04-18T18:57:05Z</time>
      </trkpt>
      <trkpt lat="44.56559" lon="5.5598">
        <ele>842</ele>
        <time>2019-04-18T18:58:05Z</time>
      </trkpt>
      <trkpt lat="44.56564" lon="5.55994">
        <ele>840</ele>
        <time>2019-04-18T18:59:05Z</time>
      </trkpt>
      <trkpt lat="44.56592" lon="5.56023">
        <ele>832</ele>
        <time>2019-04-18T19:00:05Z</time>
      </trkpt>
      <trkpt lat="44.56606" lon="5.56045">
        <ele>830</ele>
        <time>2019-04-18T19:01:05Z</time>
      </trkpt>
      <trkpt lat="44.56609" lon="5.56056">
        <ele>830</ele>
        <time>2019-04-18T19:02:05Z</time>
      </trkpt>
      <trkpt lat="44.56612" lon="5.56085">
        <ele>829</ele>
        <time>2019-04-18T19:03:05Z</time>
      </trkpt>
      <trkpt lat="44.56609" lon="5.56128">
        <ele>827</ele>
        <time>2019-04-18T19:04:05Z</time>
      </trkpt>
      <trkpt lat="44.56605" lon="5.5614">
        <ele>827</ele>
        <time>2019-04-18T19:05:05Z</time>
      </trkpt>
      <trkpt lat="44.56596" lon="5.56157">
        <ele>826</ele>
        <time>2019-04-18T19:06:05Z</time>
      </trkpt>
      <trkpt lat="44.56584" lon="5.56167">
        <ele>827</ele>
        <time>2019-04-18T19:07:05Z</time>
      </trkpt>
      <trkpt lat="44.56576" lon="5.5617">
        <ele>827</ele>
        <time>2019-04-18T19:08:05Z</time>
      </trkpt>
      <trkpt lat="44.56498" lon="5.56184">
        <ele>828</ele>
        <time>2019-04-18T19:09:05Z</time>
      </trkpt>
      <trkpt lat="44.56486" lon="5.56194">
        <ele>829</ele>
        <time>2019-04-18T19:10:05Z</time>
      </trkpt>
      <trkpt lat="44.5648" lon="5.56206">
        <ele>829</ele>
        <time>2019-04-18T19:11:05Z</time>
      </trkpt>
      <trkpt lat="44.56477" lon="5.56215">
        <ele>828</ele>
        <time>2019-04-18T19:12:05Z</time>
      </trkpt>
      <trkpt lat="44.56473" lon="5.56234">
        <ele>826</ele>
        <time>2019-04-18T19:13:05Z</time>
      </trkpt>
      <trkpt lat="44.56473" lon="5.56252">
        <ele>824</ele>
        <time>2019-04-18T19:14:05Z</time>
      </trkpt>
      <trkpt lat="44.56479" lon="5.5633">
        <ele>819</ele>
        <time>2019-04-18T19:15:05Z</time>
      </trkpt>
      <trkpt lat="44.5648" lon="5.56369">
        <ele>817</ele>
        <time>2019-04-18T19:16:05Z</time>
      </trkpt>
      <trkpt lat="44.56478" lon="5.56435">
        <ele>813</ele>
        <time>2019-04-18T19:17:05Z</time>
      </trkpt>
      <trkpt lat="44.56475" lon="5.56462">
        <ele>812</ele>
        <time>2019-04-18T19:18:05Z</time>
      </trkpt>
      <trkpt lat="44.56466" lon="5.56511">
        <ele>813</ele>
        <time>2019-04-18T19:19:05Z</time>
      </trkpt>
      <trkpt lat="44.56468" lon="5.56527">
        <ele>814</ele>
        <time>2019-04-18T19:20:05Z</time>
      </trkpt>
      <trkpt lat="44.56474" lon="5.56538">
        <ele>813</ele>
        <time>2019-04-18T19:21:05Z</time>
      </trkpt>
      <trkpt lat="44.56493" lon="5.56555">
        <ele>809</ele>
        <time>2019-04-18T19:22:05Z</time>
      </trkpt>
      <trkpt lat="44.56511" lon="5.56577">
        <ele>805</ele>
        <time>2019-04-18T19:23:05Z</time>
      </trkpt>
      <trkpt lat="44.56518" lon="5.56591">
        <ele>804</ele>
        <time>2019-04-18T19:24:05Z</time>
      </trkpt>
      <trkpt lat="44.56525" lon="5.56606">
        <ele>804</ele>
        <time>2019-04-18T19:25:05Z</time>
      </trkpt>
      <trkpt lat="44.56541" lon="5.56657">
        <ele>802</ele>
        <time>2019-04-18T19:26:05Z</time>
      </trkpt>
      <trkpt lat="44.56554" lon="5.56787">
        <ele>797</ele>
        <time>2019-04-18T19:27:05Z</time>
      </trkpt>
      <trkpt lat="44.56555" lon="5.5682">
        <ele>795</ele>
        <time>2019-04-18T19:28:05Z</time>
      </trkpt>
      <trkpt lat="44.5654" lon="5.56902">
        <ele>795</ele>
        <time>2019-04-18T19:29:05Z</time>
      </trkpt>
      <trkpt lat="44.56537" lon="5.56929">
        <ele>794</ele>
        <time>2019-04-18T19:30:05Z</time>
      </trkpt>
      <trkpt lat="44.56535" lon="5.5694">
        <ele>794</ele>
        <time>2019-04-18T19:31:05Z</time>
      </trkpt>
      <trkpt lat="44.5652" lon="5.56976">
        <ele>795</ele>
        <time>2019-04-18T19:32:05Z</time>
      </trkpt>
      <trkpt lat="44.56519" lon="5.56982">
        <ele>795</ele>
        <time>2019-04-18T19:33:05Z</time>
      </trkpt>
      <trkpt lat="44.5652" lon="5.56994">
        <ele>794</ele>
        <time>2019-04-18T19:34:05Z</time>
      </trkpt>
      <trkpt lat="44.56527" lon="5.57002">
        <ele>792</ele>
        <time>2019-04-18T19:35:05Z</time>
      </trkpt>
      <trkpt lat="44.5653" lon="5.57004">
        <ele>791</ele>
        <time>2019-04-18T19:36:05Z</time>
      </trkpt>
      <trkpt lat="44.5654" lon="5.57">
        <ele>789</ele>
        <time>2019-04-18T19:37:05Z</time>
      </trkpt>
      <trkpt lat="44.56544" lon="5.56993">
        <ele>788</ele>
        <time>2019-04-18T19:38:05Z</time>
      </trkpt>
      <trkpt lat="44.56546" lon="5.56984">
        <ele>788</ele>
        <time>2019-04-18T19:39:05Z</time>
      </trkpt>
      <trkpt lat="44.56553" lon="5.56937">
        <ele>789</ele>
        <time>2019-04-18T19:40:05Z</time>
      </trkpt>
      <trkpt lat="44.56558" lon="5.56915">
        <ele>788</ele>
        <time>2019-04-18T19:41:05Z</time>
      </trkpt>
      <trkpt lat="44.56567" lon="5.5689">
        <ele>787</ele>
        <time>2019-04-18T19:42:05Z</time>
      </trkpt>
      <trkpt lat="44.56597" lon="5.56829">
        <ele>783</ele>
        <time>2019-04-18T19:43:05Z</time>
      </trkpt>
      <trkpt lat="44.56614" lon="5.5678">
        <ele>780</ele>
        <time>2019-04-18T19:44:05Z</time>
      </trkpt>
      <trkpt lat="44.56636" lon="5.56736">
        <ele>776</ele>
        <time>2019-04-18T19:45:05Z</time>
      </trkpt>
      <trkpt lat="44.56667" lon="5.56632">
        <ele>772</ele>
        <time>2019-04-18T19:46:05Z</time>
      </trkpt>
      <trkpt lat="44.56684" lon="5.56591">
        <ele>770</ele>
        <time>2019-04-18T19:47:05Z</time>
      </trkpt>
      <trkpt lat="44.56719" lon="5.56499">
        <ele>764</ele>
        <time>2019-04-18T19:48:05Z</time>
      </trkpt>
      <trkpt lat="44.56735" lon="5.56475">
        <ele>763</ele>
        <time>2019-04-18T19:49:05Z</time>
      </trkpt>
      <trkpt lat="44.56744" lon="5.56466">
        <ele>763</ele>
        <time>2019-04-18T19:50:05Z</time>
      </trkpt>
      <trkpt lat="44.56793" lon="5.56431">
        <ele>760</ele>
        <time>2019-04-18T19:51:05Z</time>
      </trkpt>
      <trkpt lat="44.56876" lon="5.56355">
        <ele>759</ele>
        <time>2019-04-18T19:52:05Z</time>
      </trkpt>
      <trkpt lat="44.5689" lon="5.5634">
        <ele>758</ele>
        <time>2019-04-18T19:53:05Z</time>
      </trkpt>
      <trkpt lat="44.56907" lon="5.56318">
        <ele>756</ele>
        <time>2019-04-18T19:54:05Z</time>
      </trkpt>
      <trkpt lat="44.56934" lon="5.56277">
        <ele>757</ele>
        <time>2019-04-18T19:55:05Z</time>
      </trkpt>
      <trkpt lat="44.5695" lon="5.56265">
        <ele>757</ele>
        <time>2019-04-18T19:56:05Z</time>
      </trkpt>
      <trkpt lat="44.56965" lon="5.56265">
        <ele>757</ele>
        <time>2019-04-18T19:57:05Z</time>
      </trkpt>
      <trkpt lat="44.56976" lon="5.56264">
        <ele>756</ele>
        <time>2019-04-18T19:58:05Z</time>
      </trkpt>
      <trkpt lat="44.56984" lon="5.56257">
        <ele>756</ele>
        <time>2019-04-18T19:59:05Z</time>
      </trkpt>
      <trkpt lat="44.56992" lon="5.5624">
        <ele>755</ele>
        <time>2019-04-18T20:00:05Z</time>
      </trkpt>
      <trkpt lat="44.57031" lon="5.5605">
        <ele>748</ele>
        <time>2019-04-18T20:01:05Z</time>
      </trkpt>
      <trkpt lat="44.57035" lon="5.56009">
        <ele>745</ele>
        <time>2019-04-18T20:02:05Z</time>
      </trkpt>
      <trkpt lat="44.57036" lon="5.55986">
        <ele>744</ele>
        <time>2019-04-18T20:03:05Z</time>
      </trkpt>
      <trkpt lat="44.57033" lon="5.55896">
        <ele>740</ele>
        <time>2019-04-18T20:04:05Z</time>
      </trkpt>
      <trkpt lat="44.57031" lon="5.55762">
        <ele>741</ele>
        <time>2019-04-18T20:05:05Z</time>
      </trkpt>
      <trkpt lat="44.57029" lon="5.55745">
        <ele>741</ele>
        <time>2019-04-18T20:06:05Z</time>
      </trkpt>
      <trkpt lat="44.57021" lon="5.55716">
        <ele>742</ele>
        <time>2019-04-18T20:07:05Z</time>
      </trkpt>
      <trkpt lat="44.57013" lon="5.557">
        <ele>742</ele>
        <time>2019-04-18T20:08:05Z</time>
      </trkpt>
      <trkpt lat="44.56988" lon="5.55663">
        <ele>740</ele>
        <time>2019-04-18T20:09:05Z</time>
      </trkpt>
      <trkpt lat="44.56964" lon="5.55605">
        <ele>740</ele>
        <time>2019-04-18T20:10:05Z</time>
      </trkpt>
      <trkpt lat="44.56683" lon="5.54752">
        <ele>726</ele>
        <time>2019-04-18T20:11:05Z</time>
      </trkpt>
      <trkpt lat="44.56673" lon="5.54733">
        <ele>726</ele>
        <time>2019-04-18T20:12:05Z</time>
      </trkpt>
      <trkpt lat="44.56652" lon="5.54702">
        <ele>727</ele>
        <time>2019-04-18T20:13:05Z</time>
      </trkpt>
      <trkpt lat="44.56349" lon="5.54296">
        <ele>719</ele>
        <time>2019-04-18T20:14:05Z</time>
      </trkpt>
      <trkpt lat="44.56333" lon="5.54279">
        <ele>722</ele>
        <time>2019-04-18T20:15:05Z</time>
      </trkpt>
      <trkpt lat="44.56311" lon="5.54266">
        <ele>722</ele>
        <time>2019-04-18T20:16:05Z</time>
      </trkpt>
      <trkpt lat="44.5626" lon="5.54251">
        <ele>719</ele>
        <time>2019-04-18T20:17:05Z</time>
      </trkpt>
      <trkpt lat="44.56239" lon="5.54248">
        <ele>717</ele>
        <time>2019-04-18T20:18:05Z</time>
      </trkpt>
      <trkpt lat="44.56205" lon="5.54247">
        <ele>714</ele>
        <time>2019-04-18T20:19:05Z</time>
      </trkpt>
      <trkpt lat="44.5618" lon="5.54249">
        <ele>711</ele>
        <time>2019-04-18T20:20:05Z</time>
      </trkpt>
      <trkpt lat="44.56155" lon="5.54247">
        <ele>709</ele>
        <time>2019-04-18T20:21:05Z</time>
      </trkpt>
      <trkpt lat="44.5593" lon="5.5411">
        <ele>706</ele>
        <time>2019-04-18T20:22:05Z</time>
      </trkpt>
      <trkpt lat="44.55917" lon="5.54105">
        <ele>706</ele>
        <time>2019-04-18T20:23:05Z</time>
      </trkpt>
      <trkpt lat="44.55901" lon="5.54101">
        <ele>706</ele>
        <time>2019-04-18T20:24:05Z</time>
      </trkpt>
      <trkpt lat="44.5587" lon="5.54105">
        <ele>706</ele>
        <time>2019-04-18T20:25:05Z</time>
      </trkpt>
      <trkpt lat="44.55853" lon="5.54112">
        <ele>706</ele>
        <time>2019-04-18T20:26:05Z</time>
      </trkpt>
      <trkpt lat="44.55723" lon="5.54198">
        <ele>703</ele>
        <time>2019-04-18T20:27:05Z</time>
      </trkpt>
      <trkpt lat="44.55695" lon="5.54207">
        <ele>704</ele>
        <time>2019-04-18T20:28:05Z</time>
      </trkpt>
      <trkpt lat="44.55682" lon="5.54207">
        <ele>705</ele>
        <time>2019-04-18T20:29:05Z</time>
      </trkpt>
      <trkpt lat="44.55666" lon="5.54201">
        <ele>706</ele>
        <time>2019-04-18T20:30:05Z</time>
      </trkpt>
      <trkpt lat="44.55644" lon="5.54186">
        <ele>705</ele>
        <time>2019-04-18T20:31:05Z</time>
      </trkpt>
      <trkpt lat="44.55388" lon="5.53961">
        <ele>700</ele>
        <time>2019-04-18T20:32:05Z</time>
      </trkpt>
      <trkpt lat="44.55336" lon="5.53916">
        <ele>699</ele>
        <time>2019-04-18T20:33:05Z</time>
      </trkpt>
      <trkpt lat="44.55312" lon="5.53898">
        <ele>703</ele>
        <time>2019-04-18T20:34:05Z</time>
      </trkpt>
      <trkpt lat="44.55283" lon="5.53882">
        <ele>703</ele>
        <time>2019-04-18T20:35:05Z</time>
      </trkpt>
      <trkpt lat="44.54986" lon="5.53739">
        <ele>689</ele>
        <time>2019-04-18T20:36:05Z</time>
      </trkpt>
      <trkpt lat="44.54973" lon="5.53728">
        <ele>689</ele>
        <time>2019-04-18T20:37:05Z</time>
      </trkpt>
      <trkpt lat="44.54963" lon="5.53715">
        <ele>688</ele>
        <time>2019-04-18T20:38:05Z</time>
      </trkpt>
      <trkpt lat="44.54958" lon="5.53702">
        <ele>688</ele>
        <time>2019-04-18T20:39:05Z</time>
      </trkpt>
      <trkpt lat="44.54953" lon="5.53677">
        <ele>688</ele>
        <time>2019-04-18T20:40:05Z</time>
      </trkpt>
      <trkpt lat="44.54952" lon="5.53663">
        <ele>688</ele>
        <time>2019-04-18T20:41:05Z</time>
      </trkpt>
      <trkpt lat="44.54954" lon="5.53648">
        <ele>688</ele>
        <time>2019-04-18T20:42:05Z</time>
      </trkpt>
      <trkpt lat="44.5496" lon="5.53625">
        <ele>688</ele>
        <time>2019-04-18T20:43:05Z</time>
      </trkpt>
      <trkpt lat="44.55076" lon="5.53458">
        <ele>688</ele>
        <time>2019-04-18T20:44:05Z</time>
      </trkpt>
      <trkpt lat="44.55102" lon="5.53416">
        <ele>687</ele>
        <time>2019-04-18T20:45:05Z</time>
      </trkpt>
      <trkpt lat="44.55142" lon="5.5334">
        <ele>691</ele>
        <time>2019-04-18T20:46:05Z</time>
      </trkpt>
      <trkpt lat="44.55163" lon="5.53292">
        <ele>686</ele>
        <time>2019-04-18T20:47:05Z</time>
      </trkpt>
      <trkpt lat="44.55222" lon="5.5312">
        <ele>689</ele>
        <time>2019-04-18T20:48:05Z</time>
      </trkpt>
      <trkpt lat="44.55242" lon="5.53051">
        <ele>687</ele>
        <time>2019-04-18T20:49:05Z</time>
      </trkpt>
      <trkpt lat="44.55249" lon="5.52999">
        <ele>686</ele>
        <time>2019-04-18T20:50:05Z</time>
      </trkpt>
      <trkpt lat="44.55254" lon="5.52896">
        <ele>684</ele>
        <time>2019-04-18T20:51:05Z</time>
      </trkpt>
      <trkpt lat="44.55253" lon="5.52709">
        <ele>681</ele>
        <time>2019-04-18T20:52:05Z</time>
      </trkpt>
      <trkpt lat="44.55257" lon="5.52643">
        <ele>679</ele>
        <time>2019-04-18T20:53:05Z</time>
      </trkpt>
      <trkpt lat="44.55265" lon="5.52603">
        <ele>679</ele>
        <time>2019-04-18T20:54:05Z</time>
      </trkpt>
      <trkpt lat="44.55285" lon="5.52551">
        <ele>678</ele>
        <time>2019-04-18T20:55:05Z</time>
      </trkpt>
      <trkpt lat="44.55315" lon="5.5251">
        <ele>676</ele>
        <time>2019-04-18T20:56:05Z</time>
      </trkpt>
      <trkpt lat="44.55352" lon="5.52478">
        <ele>676</ele>
        <time>2019-04-18T20:57:05Z</time>
      </trkpt>
      <trkpt lat="44.55477" lon="5.52381">
        <ele>674</ele>
        <time>2019-04-18T20:58:05Z</time>
      </trkpt>
      <trkpt lat="44.55594" lon="5.52283">
        <ele>672</ele>
        <time>2019-04-18T20:59:05Z</time>
      </trkpt>
      <trkpt lat="44.56225" lon="5.51499">
        <ele>658</ele>
        <time>2019-04-18T21:00:05Z</time>
      </trkpt>
      <trkpt lat="44.56294" lon="5.51396">
        <ele>657</ele>
        <time>2019-04-18T21:01:05Z</time>
      </trkpt>
      <trkpt lat="44.56496" lon="5.51056">
        <ele>654</ele>
        <time>2019-04-18T21:02:05Z</time>
      </trkpt>
      <trkpt lat="44.56661" lon="5.50767">
        <ele>654</ele>
        <time>2019-04-18T21:03:05Z</time>
      </trkpt>
      <trkpt lat="44.56708" lon="5.50652">
        <ele>654</ele>
        <time>2019-04-18T21:04:05Z</time>
      </trkpt>
      <trkpt lat="44.56723" lon="5.5061">
        <ele>653</ele>
        <time>2019-04-18T21:05:05Z</time>
      </trkpt>
      <trkpt lat="44.56734" lon="5.50573">
        <ele>652</ele>
        <time>2019-04-18T21:06:05Z</time>
      </trkpt>
      <trkpt lat="44.56751" lon="5.50495">
        <ele>652</ele>
        <time>2019-04-18T21:07:05Z</time>
      </trkpt>
      <trkpt lat="44.56762" lon="5.50432">
        <ele>657</ele>
        <time>2019-04-18T21:08:05Z</time>
      </trkpt>
      <trkpt lat="44.56776" lon="5.50358">
        <ele>656</ele>
        <time>2019-04-18T21:09:05Z</time>
      </trkpt>
      <trkpt lat="44.56782" lon="5.5034">
        <ele>656</ele>
        <time>2019-04-18T21:10:05Z</time>
      </trkpt>
      <trkpt lat="44.56794" lon="5.50315">
        <ele>655</ele>
        <time>2019-04-18T21:11:05Z</time>
      </trkpt>
      <trkpt lat="44.56799" lon="5.50308">
        <ele>654</ele>
        <time>2019-04-18T21:12:05Z</time>
      </trkpt>
      <trkpt lat="44.56806" lon="5.50301">
        <ele>654</ele>
        <time>2019-04-18T21:13:05Z</time>
      </trkpt>
      <trkpt lat="44.56822" lon="5.50291">
        <ele>654</ele>
        <time>2019-04-18T21:14:05Z</time>
      </trkpt>
      <trkpt lat="44.56838" lon="5.50287">
        <ele>654</ele>
        <time>2019-04-18T21:15:05Z</time>
      </trkpt>
      <trkpt lat="44.5699" lon="5.50268">
        <ele>649</ele>
        <time>2019-04-18T21:16:05Z</time>
      </trkpt>
      <trkpt lat="44.57027" lon="5.50262">
        <ele>648</ele>
        <time>2019-04-18T21:17:05Z</time>
      </trkpt>
      <trkpt lat="44.5707" lon="5.50249">
        <ele>646</ele>
        <time>2019-04-18T21:18:05Z</time>
      </trkpt>
      <trkpt lat="44.57133" lon="5.50218">
        <ele>646</ele>
        <time>2019-04-18T21:19:05Z</time>
      </trkpt>
      <trkpt lat="44.57213" lon="5.50162">
        <ele>646</ele>
        <time>2019-04-18T21:20:05Z</time>
      </trkpt>
      <trkpt lat="44.57278" lon="5.50096">
        <ele>646</ele>
        <time>2019-04-18T21:21:05Z</time>
      </trkpt>
      <trkpt lat="44.5732" lon="5.50044">
        <ele>645</ele>
        <time>2019-04-18T21:22:05Z</time>
      </trkpt>
      <trkpt lat="44.57367" lon="5.49952">
        <ele>644</ele>
        <time>2019-04-18T21:23:05Z</time>
      </trkpt>
      <trkpt lat="44.57761" lon="5.48939">
        <ele>644</ele>
        <time>2019-04-18T21:24:05Z</time>
      </trkpt>
      <trkpt lat="44.57887" lon="5.48606">
        <ele>644</ele>
        <time>2019-04-18T21:25:05Z</time>
      </trkpt>
      <trkpt lat="44.57933" lon="5.48497">
        <ele>646</ele>
        <time>2019-04-18T21:26:05Z</time>
      </trkpt>
      <trkpt lat="44.57963" lon="5.48448">
        <ele>646</ele>
        <time>2019-04-18T21:27:05Z</time>
      </trkpt>
      <trkpt lat="44.57992" lon="5.48407">
        <ele>644</ele>
        <time>2019-04-18T21:28:05Z</time>
      </trkpt>
      <trkpt lat="44.58055" lon="5.48338">
        <ele>642</ele>
        <time>2019-04-18T21:29:05Z</time>
      </trkpt>
      <trkpt lat="44.58159" lon="5.48244">
        <ele>638</ele>
        <time>2019-04-18T21:30:05Z</time>
      </trkpt>
      <trkpt lat="44.58212" lon="5.48203">
        <ele>639</ele>
        <time>2019-04-18T21:31:05Z</time>
      </trkpt>
      <trkpt lat="44.58313" lon="5.48154">
        <ele>638</ele>
        <time>2019-04-18T21:32:05Z</time>
      </trkpt>
      <trkpt lat="44.58362" lon="5.48123">
        <ele>638</ele>
        <time>2019-04-18T21:33:05Z</time>
      </trkpt>
      <trkpt lat="44.59048" lon="5.47568">
        <ele>635</ele>
        <time>2019-04-18T21:34:05Z</time>
      </trkpt>
      <trkpt lat="44.59337" lon="5.47313">
        <ele>634</ele>
        <time>2019-04-18T21:35:05Z</time>
      </trkpt>
      <trkpt lat="44.59392" lon="5.47262">
        <ele>633</ele>
        <time>2019-04-18T21:36:05Z</time>
      </trkpt>
      <trkpt lat="44.59468" lon="5.47168">
        <ele>636</ele>
        <time>2019-04-18T21:37:05Z</time>
      </trkpt>
      <trkpt lat="44.59532" lon="5.47133">
        <ele>636</ele>
        <time>2019-04-18T21:38:05Z</time>
      </trkpt>
      <trkpt lat="44.59557" lon="5.47116">
        <ele>635</ele>
        <time>2019-04-18T21:39:05Z</time>
      </trkpt>
      <trkpt lat="44.59853" lon="5.46853">
        <ele>633</ele>
        <time>2019-04-18T21:40:05Z</time>
      </trkpt>
      <trkpt lat="44.60193" lon="5.46548">
        <ele>638</ele>
        <time>2019-04-18T21:41:05Z</time>
      </trkpt>
      <trkpt lat="44.60226" lon="5.46514">
        <ele>641</ele>
        <time>2019-04-18T21:42:05Z</time>
      </trkpt>
      <trkpt lat="44.60254" lon="5.4648">
        <ele>644</ele>
        <time>2019-04-18T21:43:05Z</time>
      </trkpt>
      <trkpt lat="44.60265" lon="5.46461">
        <ele>647</ele>
        <time>2019-04-18T21:44:05Z</time>
      </trkpt>
      <trkpt lat="44.60276" lon="5.46434">
        <ele>648</ele>
        <time>2019-04-18T21:45:05Z</time>
      </trkpt>
      <trkpt lat="44.60281" lon="5.46412">
        <ele>647</ele>
        <time>2019-04-18T21:46:05Z</time>
      </trkpt>
      <trkpt lat="44.60285" lon="5.46383">
        <ele>647</ele>
        <time>2019-04-18T21:47:05Z</time>
      </trkpt>
      <trkpt lat="44.60286" lon="5.46351">
        <ele>646</ele>
        <time>2019-04-18T21:48:05Z</time>
      </trkpt>
      <trkpt lat="44.60278" lon="5.46318">
        <ele>644</ele>
        <time>2019-04-18T21:49:05Z</time>
      </trkpt>
      <trkpt lat="44.60263" lon="5.46284">
        <ele>644</ele>
        <time>2019-04-18T21:50:05Z</time>
      </trkpt>
      <trkpt lat="44.60249" lon="5.46266">
        <ele>642</ele>
        <time>2019-04-18T21:51:05Z</time>
      </trkpt>
      <trkpt lat="44.60229" lon="5.46248">
        <ele>643</ele>
        <time>2019-04-18T21:52:05Z</time>
      </trkpt>
      <trkpt lat="44.60206" lon="5.46236">
        <ele>644</ele>
        <time>2019-04-18T21:53:05Z</time>
      </trkpt>
      <trkpt lat="44.60154" lon="5.4622">
        <ele>637</ele>
        <time>2019-04-18T21:54:05Z</time>
      </trkpt>
      <trkpt lat="44.60143" lon="5.46218">
        <ele>634</ele>
        <time>2019-04-18T21:55:05Z</time>
      </trkpt>
      <trkpt lat="44.6013" lon="5.46221">
        <ele>631</ele>
        <time>2019-04-18T21:56:05Z</time>
      </trkpt>
      <trkpt lat="44.60082" lon="5.46256">
        <ele>627</ele>
        <time>2019-04-18T21:57:05Z</time>
      </trkpt>
      <trkpt lat="44.60062" lon="5.46273">
        <ele>627</ele>
        <time>2019-04-18T21:58:05Z</time>
      </trkpt>
      <trkpt lat="44.60042" lon="5.46301">
        <ele>630</ele>
        <time>2019-04-18T21:59:05Z</time>
      </trkpt>
      <trkpt lat="44.59996" lon="5.46338">
        <ele>629</ele>
        <time>2019-04-18T22:00:05Z</time>
      </trkpt>
      <trkpt lat="44.59962" lon="5.46351">
        <ele>631</ele>
        <time>2019-04-18T22:01:05Z</time>
      </trkpt>
      <trkpt lat="44.59925" lon="5.46355">
        <ele>630</ele>
        <time>2019-04-18T22:02:05Z</time>
      </trkpt>
      <trkpt lat="44.59902" lon="5.46346">
        <ele>629</ele>
        <time>2019-04-18T22:03:05Z</time>
      </trkpt>
      <trkpt lat="44.59877" lon="5.46327">
        <ele>628</ele>
        <time>2019-04-18T22:04:05Z</time>
      </trkpt>
      <trkpt lat="44.59837" lon="5.46286">
        <ele>627</ele>
        <time>2019-04-18T22:05:05Z</time>
      </trkpt>
      <trkpt lat="44.59812" lon="5.46234">
        <ele>625</ele>
        <time>2019-04-18T22:06:05Z</time>
      </trkpt>
      <trkpt lat="44.59795" lon="5.46187">
        <ele>626</ele>
        <time>2019-04-18T22:07:05Z</time>
      </trkpt>
      <trkpt lat="44.5979" lon="5.46146">
        <ele>625</ele>
        <time>2019-04-18T22:08:05Z</time>
      </trkpt>
      <trkpt lat="44.59788" lon="5.46097">
        <ele>623</ele>
        <time>2019-04-18T22:09:05Z</time>
      </trkpt>
      <trkpt lat="44.59794" lon="5.45991">
        <ele>620</ele>
        <time>2019-04-18T22:10:05Z</time>
      </trkpt>
      <trkpt lat="44.598" lon="5.45956">
        <ele>617</ele>
        <time>2019-04-18T22:11:05Z</time>
      </trkpt>
      <trkpt lat="44.59811" lon="5.45934">
        <ele>612</ele>
        <time>2019-04-18T22:12:05Z</time>
      </trkpt>
      <trkpt lat="44.59823" lon="5.45916">
        <ele>608</ele>
        <time>2019-04-18T22:13:05Z</time>
      </trkpt>
      <trkpt lat="44.5985" lon="5.459">
        <ele>605</ele>
        <time>2019-04-18T22:14:05Z</time>
      </trkpt>
      <trkpt lat="44.59877" lon="5.45896">
        <ele>607</ele>
        <time>2019-04-18T22:15:05Z</time>
      </trkpt>
      <trkpt lat="44.59903" lon="5.45896">
        <ele>609</ele>
        <time>2019-04-18T22:16:05Z</time>
      </trkpt>
      <trkpt lat="44.59929" lon="5.45902">
        <ele>608</ele>
        <time>2019-04-18T22:17:05Z</time>
      </trkpt>
      <trkpt lat="44.59965" lon="5.459">
        <ele>609</ele>
        <time>2019-04-18T22:18:05Z</time>
      </trkpt>
      <trkpt lat="44.59992" lon="5.4589">
        <ele>612</ele>
        <time>2019-04-18T22:19:05Z</time>
      </trkpt>
      <trkpt lat="44.60026" lon="5.45862">
        <ele>615</ele>
        <time>2019-04-18T22:20:05Z</time>
      </trkpt>
      <trkpt lat="44.60066" lon="5.45842">
        <ele>613</ele>
        <time>2019-04-18T22:21:05Z</time>
      </trkpt>
      <trkpt lat="44.60091" lon="5.45838">
        <ele>610</ele>
        <time>2019-04-18T22:22:05Z</time>
      </trkpt>
      <trkpt lat="44.60113" lon="5.45843">
        <ele>607</ele>
        <time>2019-04-18T22:23:05Z</time>
      </trkpt>
      <trkpt lat="44.60126" lon="5.45854">
        <ele>604</ele>
        <time>2019-04-18T22:24:05Z</time>
      </trkpt>
      <trkpt lat="44.60156" lon="5.45892">
        <ele>599</ele>
        <time>2019-04-18T22:25:05Z</time>
      </trkpt>
      <trkpt lat="44.6017" lon="5.45898">
        <ele>599</ele>
        <time>2019-04-18T22:26:05Z</time>
      </trkpt>
      <trkpt lat="44.6019" lon="5.45896">
        <ele>603</ele>
        <time>2019-04-18T22:27:05Z</time>
      </trkpt>
      <trkpt lat="44.60231" lon="5.45868">
        <ele>606</ele>
        <time>2019-04-18T22:28:05Z</time>
      </trkpt>
      <trkpt lat="44.6024" lon="5.4586">
        <ele>605</ele>
        <time>2019-04-18T22:29:05Z</time>
      </trkpt>
      <trkpt lat="44.60246" lon="5.4585">
        <ele>603</ele>
        <time>2019-04-18T22:30:05Z</time>
      </trkpt>
      <trkpt lat="44.60251" lon="5.45833">
        <ele>599</ele>
        <time>2019-04-18T22:31:05Z</time>
      </trkpt>
      <trkpt lat="44.60257" lon="5.45822">
        <ele>598</ele>
        <time>2019-04-18T22:32:05Z</time>
      </trkpt>
      <trkpt lat="44.60266" lon="5.45811">
        <ele>598</ele>
        <time>2019-04-18T22:33:05Z</time>
      </trkpt>
      <trkpt lat="44.60298" lon="5.45794">
        <ele>598</ele>
        <time>2019-04-18T22:34:05Z</time>
      </trkpt>
      <trkpt lat="44.60322" lon="5.45769">
        <ele>593</ele>
        <time>2019-04-18T22:35:05Z</time>
      </trkpt>
      <trkpt lat="44.60382" lon="5.45698">
        <ele>595</ele>
        <time>2019-04-18T22:36:05Z</time>
      </trkpt>
      <trkpt lat="44.6048" lon="5.45574">
        <ele>581</ele>
        <time>2019-04-18T22:37:05Z</time>
      </trkpt>
      <trkpt lat="44.60512" lon="5.45543">
        <ele>578</ele>
        <time>2019-04-18T22:38:05Z</time>
      </trkpt>
      <trkpt lat="44.60577" lon="5.45511">
        <ele>580</ele>
        <time>2019-04-18T22:39:05Z</time>
      </trkpt>
      <trkpt lat="44.60623" lon="5.45493">
        <ele>581</ele>
        <time>2019-04-18T22:40:05Z</time>
      </trkpt>
      <trkpt lat="44.6064" lon="5.45479">
        <ele>579</ele>
        <time>2019-04-18T22:41:05Z</time>
      </trkpt>
      <trkpt lat="44.60703" lon="5.4541">
        <ele>570</ele>
        <time>2019-04-18T22:42:05Z</time>
      </trkpt>
      <trkpt lat="44.60745" lon="5.45381">
        <ele>569</ele>
        <time>2019-04-18T22:43:05Z</time>
      </trkpt>
      <trkpt lat="44.60794" lon="5.45364">
        <ele>569</ele>
        <time>2019-04-18T22:44:05Z</time>
      </trkpt>
      <trkpt lat="44.60822" lon="5.45365">
        <ele>571</ele>
        <time>2019-04-18T22:45:05Z</time>
      </trkpt>
      <trkpt lat="44.60856" lon="5.45379">
        <ele>576</ele>
        <time>2019-04-18T22:46:05Z</time>
      </trkpt>
      <trkpt lat="44.60893" lon="5.45374">
        <ele>575</ele>
        <time>2019-04-18T22:47:05Z</time>
      </trkpt>
      <trkpt lat="44.60944" lon="5.45344">
        <ele>570</ele>
        <time>2019-04-18T22:48:05Z</time>
      </trkpt>
      <trkpt lat="44.60964" lon="5.45319">
        <ele>567</ele>
        <time>2019-04-18T22:49:05Z</time>
      </trkpt>
      <trkpt lat="44.60978" lon="5.45284">
        <ele>563</ele>
        <time>2019-04-18T22:50:05Z</time>
      </trkpt>
      <trkpt lat="44.60996" lon="5.45245">
        <ele>559</ele>
        <time>2019-04-18T22:51:05Z</time>
      </trkpt>
      <trkpt lat="44.61014" lon="5.45229">
        <ele>559</ele>
        <time>2019-04-18T22:52:05Z</time>
      </trkpt>
      <trkpt lat="44.61042" lon="5.45218">
        <ele>559</ele>
        <time>2019-04-18T22:53:05Z</time>
      </trkpt>
      <trkpt lat="44.61068" lon="5.45222">
        <ele>561</ele>
        <time>2019-04-18T22:54:05Z</time>
      </trkpt>
      <trkpt lat="44.61111" lon="5.45239">
        <ele>563</ele>
        <time>2019-04-18T22:55:05Z</time>
      </trkpt>
      <trkpt lat="44.61137" lon="5.45257">
        <ele>564</ele>
        <time>2019-04-18T22:56:05Z</time>
      </trkpt>
      <trkpt lat="44.61172" lon="5.45274">
        <ele>565</ele>
        <time>2019-04-18T22:57:05Z</time>
      </trkpt>
      <trkpt lat="44.61248" lon="5.45297">
        <ele>565</ele>
        <time>2019-04-18T22:58:05Z</time>
      </trkpt>
      <trkpt lat="44.61271" lon="5.45301">
        <ele>565</ele>
        <time>2019-04-18T22:59:05Z</time>
      </trkpt>
      <trkpt lat="44.61314" lon="5.45303">
        <ele>565</ele>
        <time>2019-04-18T23:00:05Z</time>
      </trkpt>
      <trkpt lat="44.61418" lon="5.45287">
        <ele>568</ele>
        <time>2019-04-18T23:01:05Z</time>
      </trkpt>
      <trkpt lat="44.61443" lon="5.45281">
        <ele>568</ele>
        <time>2019-04-18T23:02:05Z</time>
      </trkpt>
      <trkpt lat="44.61499" lon="5.45259">
        <ele>568</ele>
        <time>2019-04-18T23:03:05Z</time>
      </trkpt>
      <trkpt lat="44.61512" lon="5.45245">
        <ele>568</ele>
        <time>2019-04-18T23:04:05Z</time>
      </trkpt>
      <trkpt lat="44.61586" lon="5.45152">
        <ele>563</ele>
        <time>2019-04-18T23:05:05Z</time>
      </trkpt>
      <trkpt lat="44.61597" lon="5.45138">
        <ele>563</ele>
        <time>2019-04-18T23:06:05Z</time>
      </trkpt>
      <trkpt lat="44.6162" lon="5.45095">
        <ele>562</ele>
        <time>2019-04-18T23:07:05Z</time>
      </trkpt>
      <trkpt lat="44.61681" lon="5.44953">
        <ele>557</ele>
        <time>2019-04-18T23:08:05Z</time>
      </trkpt>
      <trkpt lat="44.61688" lon="5.44935">
        <ele>556</ele>
        <time>2019-04-18T23:09:05Z</time>
      </trkpt>
      <trkpt lat="44.61857" lon="5.44527">
        <ele>543</ele>
        <time>2019-04-18T23:10:05Z</time>
      </trkpt>
      <trkpt lat="44.61868" lon="5.44496">
        <ele>542</ele>
        <time>2019-04-18T23:11:05Z</time>
      </trkpt>
      <trkpt lat="44.61875" lon="5.44463">
        <ele>542</ele>
        <time>2019-04-18T23:12:05Z</time>
      </trkpt>
      <trkpt lat="44.61881" lon="5.44409">
        <ele>542</ele>
        <time>2019-04-18T23:13:05Z</time>
      </trkpt>
      <trkpt lat="44.61891" lon="5.44373">
        <ele>543</ele>
        <time>2019-04-18T23:14:05Z</time>
      </trkpt>
      <trkpt lat="44.61914" lon="5.44333">
        <ele>544</ele>
        <time>2019-04-18T23:15:05Z</time>
      </trkpt>
      <trkpt lat="44.62044" lon="5.44201">
        <ele>542</ele>
        <time>2019-04-18T23:16:05Z</time>
      </trkpt>
      <trkpt lat="44.62278" lon="5.43945">
        <ele>541</ele>
        <time>2019-04-18T23:17:05Z</time>
      </trkpt>
      <trkpt lat="44.62547" lon="5.43662">
        <ele>537</ele>
        <time>2019-04-18T23:18:05Z</time>
      </trkpt>
      <trkpt lat="44.63194" lon="5.42962">
        <ele>528</ele>
        <time>2019-04-18T23:19:05Z</time>
      </trkpt>
      <trkpt lat="44.63326" lon="5.42849">
        <ele>526</ele>
        <time>2019-04-18T23:20:05Z</time>
      </trkpt>
      <trkpt lat="44.6352" lon="5.4271">
        <ele>522</ele>
        <time>2019-04-18T23:21:05Z</time>
      </trkpt>
      <trkpt lat="44.63691" lon="5.42604">
        <ele>517</ele>
        <time>2019-04-18T23:22:05Z</time>
      </trkpt>
      <trkpt lat="44.63834" lon="5.42501">
        <ele>515</ele>
        <time>2019-04-18T23:23:05Z</time>
      </trkpt>
      <trkpt lat="44.63907" lon="5.4244">
        <ele>514</ele>
        <time>2019-04-18T23:24:05Z</time>
      </trkpt>
      <trkpt lat="44.63957" lon="5.42386">
        <ele>514</ele>
        <time>2019-04-18T23:25:05Z</time>
      </trkpt>
      <trkpt lat="44.64115" lon="5.42209">
        <ele>512</ele>
        <time>2019-04-18T23:26:05Z</time>
      </trkpt>
      <trkpt lat="44.6414" lon="5.42187">
        <ele>511</ele>
        <time>2019-04-18T23:27:05Z</time>
      </trkpt>
      <trkpt lat="44.6444" lon="5.41978">
        <ele>513</ele>
        <time>2019-04-18T23:28:05Z</time>
      </trkpt>
      <trkpt lat="44.64642" lon="5.41827">
        <ele>516</ele>
        <time>2019-04-18T23:29:05Z</time>
      </trkpt>
      <trkpt lat="44.64743" lon="5.41768">
        <ele>518</ele>
        <time>2019-04-18T23:30:05Z</time>
      </trkpt>
      <trkpt lat="44.64864" lon="5.4168">
        <ele>527</ele>
        <time>2019-04-18T23:31:05Z</time>
      </trkpt>
      <trkpt lat="44.64972" lon="5.41629">
        <ele>517</ele>
        <time>2019-04-18T23:32:05Z</time>
      </trkpt>
      <trkpt lat="44.65004" lon="5.41598">
        <ele>515</ele>
        <time>2019-04-18T23:33:05Z</time>
      </trkpt>
      <trkpt lat="44.65105" lon="5.41465">
        <ele>518</ele>
        <time>2019-04-18T23:34:05Z</time>
      </trkpt>
      <trkpt lat="44.65185" lon="5.41377">
        <ele>516</ele>
        <time>2019-04-18T23:35:05Z</time>
      </trkpt>
      <trkpt lat="44.65203" lon="5.41363">
        <ele>515</ele>
        <time>2019-04-18T23:36:05Z</time>
      </trkpt>
      <trkpt lat="44.65311" lon="5.4131">
        <ele>510</ele>
        <time>2019-04-18T23:37:05Z</time>
      </trkpt>
      <trkpt lat="44.65319" lon="5.41308">
        <ele>510</ele>
        <time>2019-04-18T23:38:05Z</time>
      </trkpt>
      <trkpt lat="44.65501" lon="5.41221">
        <ele>500</ele>
        <time>2019-04-18T23:39:05Z</time>
      </trkpt>
      <trkpt lat="44.65522" lon="5.41221">
        <ele>499</ele>
        <time>2019-04-18T23:40:05Z</time>
      </trkpt>
      <trkpt lat="44.65527" lon="5.41225">
        <ele>499</ele>
        <time>2019-04-18T23:41:05Z</time>
      </trkpt>
      <trkpt lat="44.65537" lon="5.41226">
        <ele>499</ele>
        <time>2019-04-18T23:42:05Z</time>
      </trkpt>
      <trkpt lat="44.65541" lon="5.41223">
        <ele>499</ele>
        <time>2019-04-18T23:43:05Z</time>
      </trkpt>
      <trkpt lat="44.65545" lon="5.41218">
        <ele>498</ele>
        <time>2019-04-18T23:44:05Z</time>
      </trkpt>
      <trkpt lat="44.65547" lon="5.41211">
        <ele>498</ele>
        <time>2019-04-18T23:45:05Z</time>
      </trkpt>
      <trkpt lat="44.65571" lon="5.4119">
        <ele>498</ele>
        <time>2019-04-18T23:46:05Z</time>
      </trkpt>
      <trkpt lat="44.6564" lon="5.41156">
        <ele>498</ele>
        <time>2019-04-18T23:47:05Z</time>
      </trkpt>
      <trkpt lat="44.65737" lon="5.41114">
        <ele>497</ele>
        <time>2019-04-18T23:48:05Z</time>
      </trkpt>
      <trkpt lat="44.65796" lon="5.41077">
        <ele>497</ele>
        <time>2019-04-18T23:49:05Z</time>
      </trkpt>
      <trkpt lat="44.66617" lon="5.40453">
        <ele>482</ele>
        <time>2019-04-18T23:50:05Z</time>
      </trkpt>
      <trkpt lat="44.66664" lon="5.40434">
        <ele>481</ele>
        <time>2019-04-18T23:51:05Z</time>
      </trkpt>
      <trkpt lat="44.6718" lon="5.40278">
        <ele>483</ele>
        <time>2019-04-18T23:52:05Z</time>
      </trkpt>
      <trkpt lat="44.67259" lon="5.40247">
        <ele>483</ele>
        <time>2019-04-18T23:53:05Z</time>
      </trkpt>
      <trkpt lat="44.67285" lon="5.40228">
        <ele>482</ele>
        <time>2019-04-18T23:54:05Z</time>
      </trkpt>
      <trkpt lat="44.67306" lon="5.40198">
        <ele>480</ele>
        <time>2019-04-18T23:55:05Z</time>
      </trkpt>
      <trkpt lat="44.67397" lon="5.39971">
        <ele>475</ele>
        <time>2019-04-18T23:56:05Z</time>
      </trkpt>
      <trkpt lat="44.67599" lon="5.39507">
        <ele>470</ele>
        <time>2019-04-18T23:57:05Z</time>
      </trkpt>
      <trkpt lat="44.67636" lon="5.39451">
        <ele>472</ele>
        <time>2019-04-18T23:58:05Z</time>
      </trkpt>
      <trkpt lat="44.67658" lon="5.39429">
        <ele>472</ele>
        <time>2019-04-18T23:59:05Z</time>
      </trkpt>
      <trkpt lat="44.67699" lon="5.39395">
        <ele>473</ele>
        <time>2019-04-19T00:00:05Z</time>
      </trkpt>
      <trkpt lat="44.67738" lon="5.39374">
        <ele>474</ele>
        <time>2019-04-19T00:01:05Z</time>
      </trkpt>
      <trkpt lat="44.67765" lon="5.39357">
        <ele>474</ele>
        <time>2019-04-19T00:02:05Z</time>
      </trkpt>
      <trkpt lat="44.67816" lon="5.3933">
        <ele>473</ele>
        <time>2019-04-19T00:03:05Z</time>
      </trkpt>
      <trkpt lat="44.67867" lon="5.393">
        <ele>473</ele>
        <time>2019-04-19T00:04:05Z</time>
      </trkpt>
      <trkpt lat="44.67923" lon="5.39278">
        <ele>473</ele>
        <time>2019-04-19T00:05:05Z</time>
      </trkpt>
      <trkpt lat="44.6809" lon="5.39236">
        <ele>470</ele>
        <time>2019-04-19T00:06:05Z</time>
      </trkpt>
      <trkpt lat="44.68497" lon="5.39147">
        <ele>461</ele>
        <time>2019-04-19T00:07:05Z</time>
      </trkpt>
      <trkpt lat="44.68751" lon="5.39105">
        <ele>463</ele>
        <time>2019-04-19T00:08:05Z</time>
      </trkpt>
      <trkpt lat="44.68938" lon="5.3913">
        <ele>459</ele>
        <time>2019-04-19T00:09:05Z</time>
      </trkpt>
      <trkpt lat="44.69329" lon="5.39288">
        <ele>465</ele>
        <time>2019-04-19T00:10:05Z</time>
      </trkpt>
      <trkpt lat="44.69378" lon="5.3931">
        <ele>465</ele>
        <time>2019-04-19T00:11:05Z</time>
      </trkpt>
      <trkpt lat="44.69437" lon="5.39339">
        <ele>464</ele>
        <time>2019-04-19T00:12:05Z</time>
      </trkpt>
      <trkpt lat="44.69816" lon="5.39578">
        <ele>460</ele>
        <time>2019-04-19T00:13:05Z</time>
      </trkpt>
      <trkpt lat="44.70071" lon="5.39671">
        <ele>453</ele>
        <time>2019-04-19T00:14:05Z</time>
      </trkpt>
      <trkpt lat="44.70144" lon="5.39694">
        <ele>453</ele>
        <time>2019-04-19T00:15:05Z</time>
      </trkpt>
      <trkpt lat="44.7019" lon="5.39723">
        <ele>452</ele>
        <time>2019-04-19T00:16:05Z</time>
      </trkpt>
      <trkpt lat="44.70377" lon="5.39867">
        <ele>445</ele>
        <time>2019-04-19T00:17:05Z</time>
      </trkpt>
      <trkpt lat="44.70437" lon="5.39894">
        <ele>444</ele>
        <time>2019-04-19T00:18:05Z</time>
      </trkpt>
      <trkpt lat="44.70769" lon="5.40009">
        <ele>439</ele>
        <time>2019-04-19T00:19:05Z</time>
      </trkpt>
      <trkpt lat="44.70787" lon="5.40025">
        <ele>439</ele>
        <time>2019-04-19T00:20:05Z</time>
      </trkpt>
      <trkpt lat="44.70796" lon="5.40042">
        <ele>439</ele>
        <time>2019-04-19T00:21:05Z</time>
      </trkpt>
      <trkpt lat="44.70815" lon="5.40095">
        <ele>442</ele>
        <time>2019-04-19T00:22:05Z</time>
      </trkpt>
      <trkpt lat="44.70823" lon="5.40108">
        <ele>443</ele>
        <time>2019-04-19T00:23:05Z</time>
      </trkpt>
      <trkpt lat="44.70839" lon="5.40122">
        <ele>444</ele>
        <time>2019-04-19T00:24:05Z</time>
      </trkpt>
      <trkpt lat="44.70931" lon="5.40163">
        <ele>444</ele>
        <time>2019-04-19T00:25:05Z</time>
      </trkpt>
      <trkpt lat="44.71009" lon="5.40181">
        <ele>443</ele>
        <time>2019-04-19T00:26:05Z</time>
      </trkpt>
      <trkpt lat="44.71038" lon="5.4019">
        <ele>443</ele>
        <time>2019-04-19T00:27:05Z</time>
      </trkpt>
      <trkpt lat="44.71082" lon="5.40198">
        <ele>443</ele>
        <time>2019-04-19T00:28:05Z</time>
      </trkpt>
      <trkpt lat="44.71117" lon="5.40198">
        <ele>443</ele>
        <time>2019-04-19T00:29:05Z</time>
      </trkpt>
      <trkpt lat="44.71217" lon="5.40177">
        <ele>444</ele>
        <time>2019-04-19T00:30:05Z</time>
      </trkpt>
      <trkpt lat="44.7122" lon="5.40181">
        <ele>445</ele>
        <time>2019-04-19T00:31:05Z</time>
      </trkpt>
      <trkpt lat="44.71224" lon="5.40182">
        <ele>445</ele>
        <time>2019-04-19T00:32:05Z</time>
      </trkpt>
      <trkpt lat="44.71226" lon="5.40181">
        <ele>445</ele>
        <time>2019-04-19T00:33:05Z</time>
      </trkpt>
      <trkpt lat="44.71229" lon="5.40174">
        <ele>445</ele>
        <time>2019-04-19T00:34:05Z</time>
      </trkpt>
      <trkpt lat="44.71241" lon="5.40169">
        <ele>445</ele>
        <time>2019-04-19T00:35:05Z</time>
      </trkpt>
      <trkpt lat="44.71386" lon="5.40123">
        <ele>442</ele>
        <time>2019-04-19T00:36:05Z</time>
      </trkpt>
      <trkpt lat="44.71604" lon="5.40049">
        <ele>441</ele>
        <time>2019-04-19T00:37:05Z</time>
      </trkpt>
      <trkpt lat="44.71692" lon="5.40023">
        <ele>441</ele>
        <time>2019-04-19T00:38:05Z</time>
      </trkpt>
      <trkpt lat="44.71749" lon="5.40002">
        <ele>439</ele>
        <time>2019-04-19T00:39:05Z</time>
      </trkpt>
      <trkpt lat="44.72128" lon="5.3988">
        <ele>432</ele>
        <time>2019-04-19T00:40:05Z</time>
      </trkpt>
      <trkpt lat="44.72397" lon="5.39814">
        <ele>428</ele>
        <time>2019-04-19T00:41:05Z</time>
      </trkpt>
      <trkpt lat="44.72451" lon="5.39792">
        <ele>428</ele>
        <time>2019-04-19T00:42:05Z</time>
      </trkpt>
      <trkpt lat="44.72491" lon="5.39769">
        <ele>428</ele>
        <time>2019-04-19T00:43:05Z</time>
      </trkpt>
      <trkpt lat="44.72533" lon="5.39728">
        <ele>429</ele>
        <time>2019-04-19T00:44:05Z</time>
      </trkpt>
      <trkpt lat="44.7256" lon="5.39692">
        <ele>429</ele>
        <time>2019-04-19T00:45:05Z</time>
      </trkpt>
      <trkpt lat="44.72599" lon="5.39627">
        <ele>430</ele>
        <time>2019-04-19T00:46:05Z</time>
      </trkpt>
      <trkpt lat="44.72637" lon="5.39557">
        <ele>431</ele>
        <time>2019-04-19T00:47:05Z</time>
      </trkpt>
      <trkpt lat="44.72654" lon="5.39536">
        <ele>430</ele>
        <time>2019-04-19T00:48:05Z</time>
      </trkpt>
      <trkpt lat="44.72679" lon="5.39529">
        <ele>432</ele>
        <time>2019-04-19T00:49:05Z</time>
      </trkpt>
      <trkpt lat="44.72691" lon="5.3951">
        <ele>431</ele>
        <time>2019-04-19T00:50:05Z</time>
      </trkpt>
      <trkpt lat="44.72702" lon="5.39448">
        <ele>429</ele>
        <time>2019-04-19T00:51:05Z</time>
      </trkpt>
      <trkpt lat="44.72713" lon="5.39423">
        <ele>429</ele>
        <time>2019-04-19T00:52:05Z</time>
      </trkpt>
      <trkpt lat="44.72819" lon="5.3923">
        <ele>426</ele>
        <time>2019-04-19T00:53:05Z</time>
      </trkpt>
      <trkpt lat="44.72832" lon="5.39217">
        <ele>426</ele>
        <time>2019-04-19T00:54:05Z</time>
      </trkpt>
      <trkpt lat="44.72845" lon="5.39206">
        <ele>425</ele>
        <time>2019-04-19T00:55:05Z</time>
      </trkpt>
      <trkpt lat="44.72862" lon="5.39199">
        <ele>425</ele>
        <time>2019-04-19T00:56:05Z</time>
      </trkpt>
      <trkpt lat="44.72882" lon="5.39199">
        <ele>426</ele>
        <time>2019-04-19T00:57:05Z</time>
      </trkpt>
      <trkpt lat="44.72969" lon="5.39216">
        <ele>427</ele>
        <time>2019-04-19T00:58:05Z</time>
      </trkpt>
      <trkpt lat="44.72985" lon="5.39217">
        <ele>426</ele>
        <time>2019-04-19T00:59:05Z</time>
      </trkpt>
      <trkpt lat="44.7301" lon="5.39212">
        <ele>426</ele>
        <time>2019-04-19T01:00:05Z</time>
      </trkpt>
      <trkpt lat="44.73038" lon="5.392">
        <ele>425</ele>
        <time>2019-04-19T01:01:05Z</time>
      </trkpt>
      <trkpt lat="44.73165" lon="5.39134">
        <ele>423</ele>
        <time>2019-04-19T01:02:05Z</time>
      </trkpt>
      <trkpt lat="44.73394" lon="5.39006">
        <ele>423</ele>
        <time>2019-04-19T01:03:05Z</time>
      </trkpt>
      <trkpt lat="44.73998" lon="5.38677">
        <ele>418</ele>
        <time>2019-04-19T01:04:05Z</time>
      </trkpt>
      <trkpt lat="44.74062" lon="5.3865">
        <ele>416</ele>
        <time>2019-04-19T01:05:05Z</time>
      </trkpt>
      <trkpt lat="44.74429" lon="5.38553">
        <ele>408</ele>
        <time>2019-04-19T01:06:05Z</time>
      </trkpt>
      <trkpt lat="44.74498" lon="5.38524">
        <ele>408</ele>
        <time>2019-04-19T01:07:05Z</time>
      </trkpt>
      <trkpt lat="44.74561" lon="5.38478">
        <ele>408</ele>
        <time>2019-04-19T01:08:05Z</time>
      </trkpt>
      <trkpt lat="44.74604" lon="5.38437">
        <ele>408</ele>
        <time>2019-04-19T01:09:05Z</time>
      </trkpt>
      <trkpt lat="44.74645" lon="5.38384">
        <ele>406</ele>
        <time>2019-04-19T01:10:05Z</time>
      </trkpt>
      <trkpt lat="44.74821" lon="5.38078">
        <ele>407</ele>
        <time>2019-04-19T01:11:05Z</time>
      </trkpt>
      <trkpt lat="44.7483" lon="5.38055">
        <ele>406</ele>
        <time>2019-04-19T01:12:05Z</time>
      </trkpt>
      <trkpt lat="44.74834" lon="5.38033">
        <ele>406</ele>
        <time>2019-04-19T01:13:05Z</time>
      </trkpt>
      <trkpt lat="44.74836" lon="5.37993">
        <ele>405</ele>
        <time>2019-04-19T01:14:05Z</time>
      </trkpt>
      <trkpt lat="44.7484" lon="5.37976">
        <ele>405</ele>
        <time>2019-04-19T01:15:05Z</time>
      </trkpt>
      <trkpt lat="44.74846" lon="5.37973">
        <ele>405</ele>
        <time>2019-04-19T01:16:05Z</time>
      </trkpt>
      <trkpt lat="44.74853" lon="5.37964">
        <ele>405</ele>
        <time>2019-04-19T01:17:05Z</time>
      </trkpt>
      <trkpt lat="44.74861" lon="5.37957">
        <ele>405</ele>
        <time>2019-04-19T01:18:05Z</time>
      </trkpt>
      <trkpt lat="44.74879" lon="5.37953">
        <ele>405</ele>
        <time>2019-04-19T01:19:05Z</time>
      </trkpt>
      <trkpt lat="44.74897" lon="5.37944">
        <ele>406</ele>
        <time>2019-04-19T01:20:05Z</time>
      </trkpt>
      <trkpt lat="44.74943" lon="5.37871">
        <ele>408</ele>
        <time>2019-04-19T01:21:05Z</time>
      </trkpt>
      <trkpt lat="44.75015" lon="5.37744">
        <ele>414</ele>
        <time>2019-04-19T01:22:05Z</time>
      </trkpt>
      <trkpt lat="44.7507" lon="5.37654">
        <ele>415</ele>
        <time>2019-04-19T01:23:05Z</time>
      </trkpt>
      <trkpt lat="44.75191" lon="5.37502">
        <ele>414</ele>
        <time>2019-04-19T01:24:05Z</time>
      </trkpt>
      <trkpt lat="44.75198" lon="5.37494">
        <ele>414</ele>
        <time>2019-04-19T01:25:05Z</time>
      </trkpt>
      <trkpt lat="44.75201" lon="5.37497">
        <ele>414</ele>
        <time>2019-04-19T01:26:05Z</time>
      </trkpt>
      <trkpt lat="44.75206" lon="5.37498">
        <ele>414</ele>
        <time>2019-04-19T01:27:05Z</time>
      </trkpt>
      <trkpt lat="44.75211" lon="5.37491">
        <ele>413</ele>
        <time>2019-04-19T01:28:05Z</time>
      </trkpt>
      <trkpt lat="44.75211" lon="5.37483">
        <ele>413</ele>
        <time>2019-04-19T01:29:05Z</time>
      </trkpt>
      <trkpt lat="44.75208" lon="5.37479">
        <ele>413</ele>
        <time>2019-04-19T01:30:05Z</time>
      </trkpt>
      <trkpt lat="44.75214" lon="5.3747">
        <ele>413</ele>
        <time>2019-04-19T01:31:05Z</time>
      </trkpt>
      <trkpt lat="44.75337" lon="5.37311">
        <ele>421</ele>
        <time>2019-04-19T01:32:05Z</time>
      </trkpt>
      <trkpt lat="44.75355" lon="5.37261">
        <ele>425</ele>
        <time>2019-04-19T01:33:05Z</time>
      </trkpt>
      <trkpt lat="44.75362" lon="5.37229">
        <ele>425</ele>
        <time>2019-04-19T01:34:05Z</time>
      </trkpt>
      <trkpt lat="44.75387" lon="5.37173">
        <ele>423</ele>
        <time>2019-04-19T01:35:05Z</time>
      </trkpt>
      <trkpt lat="44.75392" lon="5.37159">
        <ele>422</ele>
        <time>2019-04-19T01:36:05Z</time>
      </trkpt>
      <trkpt lat="44.75401" lon="5.3714">
        <ele>422</ele>
        <time>2019-04-19T01:37:05Z</time>
      </trkpt>
      <trkpt lat="44.75478" lon="5.37015">
        <ele>420</ele>
        <time>2019-04-19T01:38:05Z</time>
      </trkpt>
      <trkpt lat="44.75517" lon="5.3694">
        <ele>419</ele>
        <time>2019-04-19T01:39:05Z</time>
      </trkpt>
      <trkpt lat="44.75556" lon="5.36877">
        <ele>415</ele>
        <time>2019-04-19T01:40:05Z</time>
      </trkpt>
      <trkpt lat="44.7562" lon="5.3676">
        <ele>408</ele>
        <time>2019-04-19T01:41:05Z</time>
      </trkpt>
      <trkpt lat="44.75798" lon="5.36456">
        <ele>399</ele>
        <time>2019-04-19T01:42:05Z</time>
      </trkpt>
      <trkpt lat="44.7589" lon="5.36289">
        <ele>397</ele>
        <time>2019-04-19T01:43:05Z</time>
      </trkpt>
      <trkpt lat="44.75941" lon="5.36183">
        <ele>397</ele>
        <time>2019-04-19T01:44:05Z</time>
      </trkpt>
      <trkpt lat="44.75985" lon="5.36039">
        <ele>398</ele>
        <time>2019-04-19T01:45:05Z</time>
      </trkpt>
      <trkpt lat="44.76041" lon="5.35801">
        <ele>396</ele>
        <time>2019-04-19T01:46:05Z</time>
      </trkpt>
      <trkpt lat="44.76154" lon="5.35343">
        <ele>390</ele>
        <time>2019-04-19T01:47:05Z</time>
      </trkpt>
      <trkpt lat="44.7616" lon="5.35342">
        <ele>390</ele>
        <time>2019-04-19T01:48:05Z</time>
      </trkpt>
      <trkpt lat="44.76163" lon="5.35338">
        <ele>390</ele>
        <time>2019-04-19T01:49:05Z</time>
      </trkpt>
      <trkpt lat="44.76163" lon="5.35332">
        <ele>390</ele>
        <time>2019-04-19T01:50:05Z</time>
      </trkpt>
      <trkpt lat="44.76161" lon="5.35328">
        <ele>390</ele>
        <time>2019-04-19T01:51:05Z</time>
      </trkpt>
      <trkpt lat="44.76158" lon="5.35325">
        <ele>390</ele>
        <time>2019-04-19T01:52:05Z</time>
      </trkpt>
      <trkpt lat="44.76246" lon="5.34964">
        <ele>383</ele>
        <time>2019-04-19T01:53:05Z</time>
      </trkpt>
      <trkpt lat="44.76264" lon="5.34916">
        <ele>381</ele>
        <time>2019-04-19T01:54:05Z</time>
      </trkpt>
      <trkpt lat="44.76272" lon="5.34913">
        <ele>381</ele>
        <time>2019-04-19T01:55:05Z</time>
      </trkpt>
      <trkpt lat="44.76278" lon="5.34907">
        <ele>381</ele>
        <time>2019-04-19T01:56:05Z</time>
      </trkpt>
      <trkpt lat="44.76282" lon="5.34899">
        <ele>380</ele>
        <time>2019-04-19T01:57:05Z</time>
      </trkpt>
      <trkpt lat="44.76284" lon="5.34886">
        <ele>380</ele>
        <time>2019-04-19T01:58:05Z</time>
      </trkpt>
      <trkpt lat="44.76282" lon="5.34874">
        <ele>380</ele>
        <time>2019-04-19T01:59:05Z</time>
      </trkpt>
      <trkpt lat="44.76277" lon="5.34864">
        <ele>380</ele>
        <time>2019-04-19T02:00:05Z</time>
      </trkpt>
      <trkpt lat="44.76279" lon="5.34844">
        <ele>380</ele>
        <time>2019-04-19T02:01:05Z</time>
      </trkpt>
      <trkpt lat="44.76291" lon="5.34786">
        <ele>380</ele>
        <time>2019-04-19T02:02:05Z</time>
      </trkpt>
      <trkpt lat="44.76315" lon="5.34696">
        <ele>380</ele>
        <time>2019-04-19T02:03:05Z</time>
      </trkpt>
      <trkpt lat="44.76443" lon="5.34178">
        <ele>378</ele>
        <time>2019-04-19T02:04:05Z</time>
      </trkpt>
      <trkpt lat="44.76458" lon="5.34115">
        <ele>377</ele>
        <time>2019-04-19T02:05:05Z</time>
      </trkpt>
      <trkpt lat="44.76475" lon="5.34027">
        <ele>376</ele>
        <time>2019-04-19T02:06:05Z</time>
      </trkpt>
      <trkpt lat="44.76485" lon="5.33923">
        <ele>376</ele>
        <time>2019-04-19T02:07:05Z</time>
      </trkpt>
      <trkpt lat="44.76506" lon="5.33671">
        <ele>375</ele>
        <time>2019-04-19T02:08:05Z</time>
      </trkpt>
      <trkpt lat="44.76516" lon="5.33608">
        <ele>375</ele>
        <time>2019-04-19T02:09:05Z</time>
      </trkpt>
      <trkpt lat="44.76529" lon="5.33548">
        <ele>375</ele>
        <time>2019-04-19T02:10:05Z</time>
      </trkpt>
      <trkpt lat="44.76623" lon="5.33234">
        <ele>374</ele>
        <time>2019-04-19T02:11:05Z</time>
      </trkpt>
      <trkpt lat="44.76639" lon="5.33172">
        <ele>377</ele>
        <time>2019-04-19T02:12:05Z</time>
      </trkpt>
      <trkpt lat="44.76648" lon="5.33114">
        <ele>376</ele>
        <time>2019-04-19T02:13:05Z</time>
      </trkpt>
      <trkpt lat="44.76653" lon="5.33059">
        <ele>375</ele>
        <time>2019-04-19T02:14:05Z</time>
      </trkpt>
      <trkpt lat="44.76654" lon="5.33001">
        <ele>375</ele>
        <time>2019-04-19T02:15:05Z</time>
      </trkpt>
      <trkpt lat="44.76647" lon="5.32855">
        <ele>375</ele>
        <time>2019-04-19T02:16:05Z</time>
      </trkpt>
      <trkpt lat="44.76648" lon="5.3273">
        <ele>373</ele>
        <time>2019-04-19T02:17:05Z</time>
      </trkpt>
      <trkpt lat="44.76654" lon="5.3257">
        <ele>371</ele>
        <time>2019-04-19T02:18:05Z</time>
      </trkpt>
      <trkpt lat="44.76658" lon="5.32507">
        <ele>369</ele>
        <time>2019-04-19T02:19:05Z</time>
      </trkpt>
      <trkpt lat="44.76678" lon="5.32359">
        <ele>371</ele>
        <time>2019-04-19T02:20:05Z</time>
      </trkpt>
      <trkpt lat="44.76767" lon="5.3186">
        <ele>373</ele>
        <time>2019-04-19T02:21:05Z</time>
      </trkpt>
      <trkpt lat="44.76779" lon="5.31767">
        <ele>371</ele>
        <time>2019-04-19T02:22:05Z</time>
      </trkpt>
      <trkpt lat="44.76774" lon="5.31715">
        <ele>370</ele>
        <time>2019-04-19T02:23:05Z</time>
      </trkpt>
      <trkpt lat="44.76763" lon="5.31664">
        <ele>369</ele>
        <time>2019-04-19T02:24:05Z</time>
      </trkpt>
      <trkpt lat="44.7672" lon="5.31534">
        <ele>368</ele>
        <time>2019-04-19T02:25:05Z</time>
      </trkpt>
      <trkpt lat="44.76683" lon="5.31441">
        <ele>366</ele>
        <time>2019-04-19T02:26:05Z</time>
      </trkpt>
      <trkpt lat="44.76654" lon="5.31382">
        <ele>366</ele>
        <time>2019-04-19T02:27:05Z</time>
      </trkpt>
      <trkpt lat="44.76593" lon="5.31279">
        <ele>365</ele>
        <time>2019-04-19T02:28:05Z</time>
      </trkpt>
      <trkpt lat="44.76453" lon="5.31056">
        <ele>364</ele>
        <time>2019-04-19T02:29:05Z</time>
      </trkpt>
      <trkpt lat="44.76403" lon="5.30969">
        <ele>365</ele>
        <time>2019-04-19T02:30:05Z</time>
      </trkpt>
      <trkpt lat="44.7629" lon="5.30635">
        <ele>373</ele>
        <time>2019-04-19T02:31:05Z</time>
      </trkpt>
      <trkpt lat="44.76275" lon="5.30564">
        <ele>372</ele>
        <time>2019-04-19T02:32:05Z</time>
      </trkpt>
      <trkpt lat="44.76265" lon="5.30478">
        <ele>371</ele>
        <time>2019-04-19T02:33:05Z</time>
      </trkpt>
      <trkpt lat="44.76261" lon="5.30338">
        <ele>371</ele>
        <time>2019-04-19T02:34:05Z</time>
      </trkpt>
      <trkpt lat="44.76267" lon="5.30244">
        <ele>370</ele>
        <time>2019-04-19T02:35:05Z</time>
      </trkpt>
      <trkpt lat="44.76276" lon="5.30196">
        <ele>372</ele>
        <time>2019-04-19T02:36:05Z</time>
      </trkpt>
      <trkpt lat="44.76313" lon="5.3007">
        <ele>370</ele>
        <time>2019-04-19T02:37:05Z</time>
      </trkpt>
      <trkpt lat="44.76322" lon="5.3003">
        <ele>368</ele>
        <time>2019-04-19T02:38:05Z</time>
      </trkpt>
      <trkpt lat="44.76326" lon="5.30001">
        <ele>368</ele>
        <time>2019-04-19T02:39:05Z</time>
      </trkpt>
      <trkpt lat="44.76326" lon="5.29965">
        <ele>368</ele>
        <time>2019-04-19T02:40:05Z</time>
      </trkpt>
      <trkpt lat="44.76321" lon="5.29892">
        <ele>370</ele>
        <time>2019-04-19T02:41:05Z</time>
      </trkpt>
      <trkpt lat="44.76287" lon="5.2971">
        <ele>375</ele>
        <time>2019-04-19T02:42:05Z</time>
      </trkpt>
      <trkpt lat="44.76262" lon="5.29632">
        <ele>375</ele>
        <time>2019-04-19T02:43:05Z</time>
      </trkpt>
      <trkpt lat="44.76253" lon="5.29599">
        <ele>373</ele>
        <time>2019-04-19T02:44:05Z</time>
      </trkpt>
      <trkpt lat="44.76247" lon="5.29547">
        <ele>370</ele>
        <time>2019-04-19T02:45:05Z</time>
      </trkpt>
      <trkpt lat="44.76245" lon="5.29496">
        <ele>367</ele>
        <time>2019-04-19T02:46:05Z</time>
      </trkpt>
      <trkpt lat="44.7624" lon="5.29465">
        <ele>367</ele>
        <time>2019-04-19T02:47:05Z</time>
      </trkpt>
      <trkpt lat="44.7622" lon="5.294">
        <ele>369</ele>
        <time>2019-04-19T02:48:05Z</time>
      </trkpt>
      <trkpt lat="44.76183" lon="5.293">
        <ele>375</ele>
        <time>2019-04-19T02:49:05Z</time>
      </trkpt>
      <trkpt lat="44.76175" lon="5.29273">
        <ele>375</ele>
        <time>2019-04-19T02:50:05Z</time>
      </trkpt>
      <trkpt lat="44.7617" lon="5.2924">
        <ele>373</ele>
        <time>2019-04-19T02:51:05Z</time>
      </trkpt>
      <trkpt lat="44.76172" lon="5.29144">
        <ele>374</ele>
        <time>2019-04-19T02:52:05Z</time>
      </trkpt>
      <trkpt lat="44.76177" lon="5.29107">
        <ele>374</ele>
        <time>2019-04-19T02:53:05Z</time>
      </trkpt>
      <trkpt lat="44.76195" lon="5.29038">
        <ele>373</ele>
        <time>2019-04-19T02:54:05Z</time>
      </trkpt>
      <trkpt lat="44.76207" lon="5.28973">
        <ele>373</ele>
        <time>2019-04-19T02:55:05Z</time>
      </trkpt>
      <trkpt lat="44.76289" lon="5.28729">
        <ele>376</ele>
        <time>2019-04-19T02:56:05Z</time>
      </trkpt>
      <trkpt lat="44.76345" lon="5.28466">
        <ele>364</ele>
        <time>2019-04-19T02:57:05Z</time>
      </trkpt>
      <trkpt lat="44.76373" lon="5.28367">
        <ele>364</ele>
        <time>2019-04-19T02:58:05Z</time>
      </trkpt>
      <trkpt lat="44.76438" lon="5.28162">
        <ele>361</ele>
        <time>2019-04-19T02:59:05Z</time>
      </trkpt>
      <trkpt lat="44.76455" lon="5.28106">
        <ele>360</ele>
        <time>2019-04-19T03:00:05Z</time>
      </trkpt>
      <trkpt lat="44.76464" lon="5.28062">
        <ele>359</ele>
        <time>2019-04-19T03:01:05Z</time>
      </trkpt>
      <trkpt lat="44.76467" lon="5.28009">
        <ele>358</ele>
        <time>2019-04-19T03:02:05Z</time>
      </trkpt>
      <trkpt lat="44.76465" lon="5.27963">
        <ele>357</ele>
        <time>2019-04-19T03:03:05Z</time>
      </trkpt>
      <trkpt lat="44.76457" lon="5.27921">
        <ele>357</ele>
        <time>2019-04-19T03:04:05Z</time>
      </trkpt>
      <trkpt lat="44.7642" lon="5.27788">
        <ele>360</ele>
        <time>2019-04-19T03:05:05Z</time>
      </trkpt>
      <trkpt lat="44.76407" lon="5.27725">
        <ele>358</ele>
        <time>2019-04-19T03:06:05Z</time>
      </trkpt>
      <trkpt lat="44.76392" lon="5.27614">
        <ele>357</ele>
        <time>2019-04-19T03:07:05Z</time>
      </trkpt>
      <trkpt lat="44.76384" lon="5.27542">
        <ele>358</ele>
        <time>2019-04-19T03:08:05Z</time>
      </trkpt>
      <trkpt lat="44.76382" lon="5.27493">
        <ele>358</ele>
        <time>2019-04-19T03:09:05Z</time>
      </trkpt>
      <trkpt lat="44.76382" lon="5.27347">
        <ele>352</ele>
        <time>2019-04-19T03:10:05Z</time>
      </trkpt>
      <trkpt lat="44.76377" lon="5.27277">
        <ele>351</ele>
        <time>2019-04-19T03:11:05Z</time>
      </trkpt>
      <trkpt lat="44.76369" lon="5.27241">
        <ele>350</ele>
        <time>2019-04-19T03:12:05Z</time>
      </trkpt>
      <trkpt lat="44.76356" lon="5.27199">
        <ele>348</ele>
        <time>2019-04-19T03:13:05Z</time>
      </trkpt>
      <trkpt lat="44.76339" lon="5.27161">
        <ele>346</ele>
        <time>2019-04-19T03:14:05Z</time>
      </trkpt>
      <trkpt lat="44.76323" lon="5.27133">
        <ele>344</ele>
        <time>2019-04-19T03:15:05Z</time>
      </trkpt>
      <trkpt lat="44.76304" lon="5.27111">
        <ele>343</ele>
        <time>2019-04-19T03:16:05Z</time>
      </trkpt>
      <trkpt lat="44.76283" lon="5.27093">
        <ele>342</ele>
        <time>2019-04-19T03:17:05Z</time>
      </trkpt>
      <trkpt lat="44.76254" lon="5.27074">
        <ele>342</ele>
        <time>2019-04-19T03:18:05Z</time>
      </trkpt>
      <trkpt lat="44.76226" lon="5.27062">
        <ele>343</ele>
        <time>2019-04-19T03:19:05Z</time>
      </trkpt>
      <trkpt lat="44.76132" lon="5.2705">
        <ele>345</ele>
        <time>2019-04-19T03:20:05Z</time>
      </trkpt>
      <trkpt lat="44.75896" lon="5.2697">
        <ele>347</ele>
        <time>2019-04-19T03:21:05Z</time>
      </trkpt>
      <trkpt lat="44.75822" lon="5.26955">
        <ele>350</ele>
        <time>2019-04-19T03:22:05Z</time>
      </trkpt>
      <trkpt lat="44.75774" lon="5.26931">
        <ele>348</ele>
        <time>2019-04-19T03:23:05Z</time>
      </trkpt>
      <trkpt lat="44.75692" lon="5.26856">
        <ele>346</ele>
        <time>2019-04-19T03:24:05Z</time>
      </trkpt>
      <trkpt lat="44.75651" lon="5.26827">
        <ele>346</ele>
        <time>2019-04-19T03:25:05Z</time>
      </trkpt>
      <trkpt lat="44.75605" lon="5.26813">
        <ele>346</ele>
        <time>2019-04-19T03:26:05Z</time>
      </trkpt>
      <trkpt lat="44.75484" lon="5.26807">
        <ele>347</ele>
        <time>2019-04-19T03:27:05Z</time>
      </trkpt>
      <trkpt lat="44.75426" lon="5.26795">
        <ele>348</ele>
        <time>2019-04-19T03:28:05Z</time>
      </trkpt>
      <trkpt lat="44.75261" lon="5.26723">
        <ele>344</ele>
        <time>2019-04-19T03:29:05Z</time>
      </trkpt>
      <trkpt lat="44.75181" lon="5.26667">
        <ele>344</ele>
        <time>2019-04-19T03:30:05Z</time>
      </trkpt>
      <trkpt lat="44.75112" lon="5.26556">
        <ele>341</ele>
        <time>2019-04-19T03:31:05Z</time>
      </trkpt>
      <trkpt lat="44.75061" lon="5.26506">
        <ele>340</ele>
        <time>2019-04-19T03:32:05Z</time>
      </trkpt>
      <trkpt lat="44.75013" lon="5.26474">
        <ele>345</ele>
        <time>2019-04-19T03:33:05Z</time>
      </trkpt>
      <trkpt lat="44.74993" lon="5.26456">
        <ele>345</ele>
        <time>2019-04-19T03:34:05Z</time>
      </trkpt>
      <trkpt lat="44.7499" lon="5.26459">
        <ele>346</ele>
        <time>2019-04-19T03:35:05Z</time>
      </trkpt>
      <trkpt lat="44.74968" lon="5.26451">
        <ele>346</ele>
        <time>2019-04-19T03:36:05Z</time>
      </trkpt>
      <trkpt lat="44.74945" lon="5.26436">
        <ele>344</ele>
        <time>2019-04-19T03:37:05Z</time>
      </trkpt>
      <trkpt lat="44.74932" lon="5.26433">
        <ele>343</ele>
        <time>2019-04-19T03:38:05Z</time>
      </trkpt>
      <trkpt lat="44.74853" lon="5.26428">
        <ele>339</ele>
        <time>2019-04-19T03:39:05Z</time>
      </trkpt>
      <trkpt lat="44.74824" lon="5.26453">
        <ele>345</ele>
        <time>2019-04-19T03:40:05Z</time>
      </trkpt>
      <trkpt lat="44.74797" lon="5.26468">
        <ele>348</ele>
        <time>2019-04-19T03:41:05Z</time>
      </trkpt>
      <trkpt lat="44.74759" lon="5.26482">
        <ele>347</ele>
        <time>2019-04-19T03:42:05Z</time>
      </trkpt>
      <trkpt lat="44.7473" lon="5.26489">
        <ele>344</ele>
        <time>2019-04-19T03:43:05Z</time>
      </trkpt>
      <trkpt lat="44.7468" lon="5.26485">
        <ele>337</ele>
        <time>2019-04-19T03:44:05Z</time>
      </trkpt>
      <trkpt lat="44.74662" lon="5.26495">
        <ele>335</ele>
        <time>2019-04-19T03:45:05Z</time>
      </trkpt>
      <trkpt lat="44.74605" lon="5.26565">
        <ele>347</ele>
        <time>2019-04-19T03:46:05Z</time>
      </trkpt>
      <trkpt lat="44.74588" lon="5.2658">
        <ele>347</ele>
        <time>2019-04-19T03:47:05Z</time>
      </trkpt>
      <trkpt lat="44.74551" lon="5.26597">
        <ele>348</ele>
        <time>2019-04-19T03:48:05Z</time>
      </trkpt>
      <trkpt lat="44.74519" lon="5.26601">
        <ele>344</ele>
        <time>2019-04-19T03:49:05Z</time>
      </trkpt>
      <trkpt lat="44.74497" lon="5.2661">
        <ele>344</ele>
        <time>2019-04-19T03:50:05Z</time>
      </trkpt>
      <trkpt lat="44.74414" lon="5.26656">
        <ele>342</ele>
        <time>2019-04-19T03:51:05Z</time>
      </trkpt>
      <trkpt lat="44.74394" lon="5.26678">
        <ele>344</ele>
        <time>2019-04-19T03:52:05Z</time>
      </trkpt>
      <trkpt lat="44.74366" lon="5.26728">
        <ele>351</ele>
        <time>2019-04-19T03:53:05Z</time>
      </trkpt>
      <trkpt lat="44.74307" lon="5.26799">
        <ele>352</ele>
        <time>2019-04-19T03:54:05Z</time>
      </trkpt>
      <trkpt lat="44.74268" lon="5.26834">
        <ele>350</ele>
        <time>2019-04-19T03:55:05Z</time>
      </trkpt>
      <trkpt lat="44.74097" lon="5.26965">
        <ele>349</ele>
        <time>2019-04-19T03:56:05Z</time>
      </trkpt>
      <trkpt lat="44.74075" lon="5.26979">
        <ele>349</ele>
        <time>2019-04-19T03:57:05Z</time>
      </trkpt>
      <trkpt lat="44.74036" lon="5.27026">
        <ele>353</ele>
        <time>2019-04-19T03:58:05Z</time>
      </trkpt>
      <trkpt lat="44.74022" lon="5.27039">
        <ele>353</ele>
        <time>2019-04-19T03:59:05Z</time>
      </trkpt>
      <trkpt lat="44.73984" lon="5.27054">
        <ele>350</ele>
        <time>2019-04-19T04:00:05Z</time>
      </trkpt>
      <trkpt lat="44.73967" lon="5.27076">
        <ele>349</ele>
        <time>2019-04-19T04:01:05Z</time>
      </trkpt>
      <trkpt lat="44.73949" lon="5.2712">
        <ele>357</ele>
        <time>2019-04-19T04:02:05Z</time>
      </trkpt>
      <trkpt lat="44.73943" lon="5.27129">
        <ele>359</ele>
        <time>2019-04-19T04:03:05Z</time>
      </trkpt>
      <trkpt lat="44.73923" lon="5.27145">
        <ele>362</ele>
        <time>2019-04-19T04:04:05Z</time>
      </trkpt>
      <trkpt lat="44.73906" lon="5.27143">
        <ele>360</ele>
        <time>2019-04-19T04:05:05Z</time>
      </trkpt>
      <trkpt lat="44.73884" lon="5.27137">
        <ele>355</ele>
        <time>2019-04-19T04:06:05Z</time>
      </trkpt>
      <trkpt lat="44.73778" lon="5.2715">
        <ele>347</ele>
        <time>2019-04-19T04:07:05Z</time>
      </trkpt>
      <trkpt lat="44.7375" lon="5.27161">
        <ele>346</ele>
        <time>2019-04-19T04:08:05Z</time>
      </trkpt>
      <trkpt lat="44.73722" lon="5.27184">
        <ele>346</ele>
        <time>2019-04-19T04:09:05Z</time>
      </trkpt>
      <trkpt lat="44.7368" lon="5.27234">
        <ele>345</ele>
        <time>2019-04-19T04:10:05Z</time>
      </trkpt>
      <trkpt lat="44.73668" lon="5.27258">
        <ele>344</ele>
        <time>2019-04-19T04:11:05Z</time>
      </trkpt>
      <trkpt lat="44.73649" lon="5.27275">
        <ele>343</ele>
        <time>2019-04-19T04:12:05Z</time>
      </trkpt>
      <trkpt lat="44.73629" lon="5.27278">
        <ele>341</ele>
        <time>2019-04-19T04:13:05Z</time>
      </trkpt>
      <trkpt lat="44.73558" lon="5.2725">
        <ele>334</ele>
        <time>2019-04-19T04:14:05Z</time>
      </trkpt>
      <trkpt lat="44.73441" lon="5.27228">
        <ele>331</ele>
        <time>2019-04-19T04:15:05Z</time>
      </trkpt>
      <trkpt lat="44.73425" lon="5.27231">
        <ele>331</ele>
        <time>2019-04-19T04:16:05Z</time>
      </trkpt>
      <trkpt lat="44.73374" lon="5.27261">
        <ele>330</ele>
        <time>2019-04-19T04:17:05Z</time>
      </trkpt>
      <trkpt lat="44.7326" lon="5.27389">
        <ele>334</ele>
        <time>2019-04-19T04:18:05Z</time>
      </trkpt>
      <trkpt lat="44.73242" lon="5.27402">
        <ele>334</ele>
        <time>2019-04-19T04:19:05Z</time>
      </trkpt>
      <trkpt lat="44.73219" lon="5.27413">
        <ele>333</ele>
        <time>2019-04-19T04:20:05Z</time>
      </trkpt>
      <trkpt lat="44.73126" lon="5.27435">
        <ele>327</ele>
        <time>2019-04-19T04:21:05Z</time>
      </trkpt>
      <trkpt lat="44.72954" lon="5.27448">
        <ele>327</ele>
        <time>2019-04-19T04:22:05Z</time>
      </trkpt>
      <trkpt lat="44.72912" lon="5.27446">
        <ele>327</ele>
        <time>2019-04-19T04:23:05Z</time>
      </trkpt>
      <trkpt lat="44.72835" lon="5.2748">
        <ele>326</ele>
        <time>2019-04-19T04:24:05Z</time>
      </trkpt>
      <trkpt lat="44.72811" lon="5.27485">
        <ele>326</ele>
        <time>2019-04-19T04:25:05Z</time>
      </trkpt>
      <trkpt lat="44.72721" lon="5.27484">
        <ele>326</ele>
        <time>2019-04-19T04:26:05Z</time>
      </trkpt>
      <trkpt lat="44.72698" lon="5.27473">
        <ele>325</ele>
        <time>2019-04-19T04:27:05Z</time>
      </trkpt>
      <trkpt lat="44.72636" lon="5.27415">
        <ele>325</ele>
        <time>2019-04-19T04:28:05Z</time>
      </trkpt>
      <trkpt lat="44.72622" lon="5.27411">
        <ele>325</ele>
        <time>2019-04-19T04:29:05Z</time>
      </trkpt>
      <trkpt lat="44.72608" lon="5.27412">
        <ele>325</ele>
        <time>2019-04-19T04:30:05Z</time>
      </trkpt>
      <trkpt lat="44.72561" lon="5.27426">
        <ele>331</ele>
        <time>2019-04-19T04:31:05Z</time>
      </trkpt>
      <trkpt lat="44.72543" lon="5.27398">
        <ele>333</ele>
        <time>2019-04-19T04:32:05Z</time>
      </trkpt>
      <trkpt lat="44.72526" lon="5.27321">
        <ele>327</ele>
        <time>2019-04-19T04:33:05Z</time>
      </trkpt>
      <trkpt lat="44.72515" lon="5.27301">
        <ele>327</ele>
        <time>2019-04-19T04:34:05Z</time>
      </trkpt>
      <trkpt lat="44.72499" lon="5.27281">
        <ele>326</ele>
        <time>2019-04-19T04:35:05Z</time>
      </trkpt>
      <trkpt lat="44.72347" lon="5.27203">
        <ele>319</ele>
        <time>2019-04-19T04:36:05Z</time>
      </trkpt>
      <trkpt lat="44.72327" lon="5.27202">
        <ele>319</ele>
        <time>2019-04-19T04:37:05Z</time>
      </trkpt>
      <trkpt lat="44.72304" lon="5.27215">
        <ele>319</ele>
        <time>2019-04-19T04:38:05Z</time>
      </trkpt>
      <trkpt lat="44.72272" lon="5.27238">
        <ele>320</ele>
        <time>2019-04-19T04:39:05Z</time>
      </trkpt>
      <trkpt lat="44.72255" lon="5.27245">
        <ele>319</ele>
        <time>2019-04-19T04:40:05Z</time>
      </trkpt>
      <trkpt lat="44.72192" lon="5.27257">
        <ele>316</ele>
        <time>2019-04-19T04:41:05Z</time>
      </trkpt>
      <trkpt lat="44.72162" lon="5.27267">
        <ele>315</ele>
        <time>2019-04-19T04:42:05Z</time>
      </trkpt>
      <trkpt lat="44.72106" lon="5.27295">
        <ele>315</ele>
        <time>2019-04-19T04:43:05Z</time>
      </trkpt>
      <trkpt lat="44.72069" lon="5.27301">
        <ele>316</ele>
        <time>2019-04-19T04:44:05Z</time>
      </trkpt>
      <trkpt lat="44.71798" lon="5.27307">
        <ele>318</ele>
        <time>2019-04-19T04:45:05Z</time>
      </trkpt>
      <trkpt lat="44.71721" lon="5.27296">
        <ele>316</ele>
        <time>2019-04-19T04:46:05Z</time>
      </trkpt>
      <trkpt lat="44.71685" lon="5.27298">
        <ele>316</ele>
        <time>2019-04-19T04:47:05Z</time>
      </trkpt>
      <trkpt lat="44.71555" lon="5.27338">
        <ele>316</ele>
        <time>2019-04-19T04:48:05Z</time>
      </trkpt>
      <trkpt lat="44.71416" lon="5.27356">
        <ele>314</ele>
        <time>2019-04-19T04:49:05Z</time>
      </trkpt>
      <trkpt lat="44.71385" lon="5.27364">
        <ele>314</ele>
        <time>2019-04-19T04:50:05Z</time>
      </trkpt>
      <trkpt lat="44.71364" lon="5.27367">
        <ele>314</ele>
        <time>2019-04-19T04:51:05Z</time>
      </trkpt>
      <trkpt lat="44.71355" lon="5.27365">
        <ele>313</ele>
        <time>2019-04-19T04:52:05Z</time>
      </trkpt>
      <trkpt lat="44.71341" lon="5.27357">
        <ele>313</ele>
        <time>2019-04-19T04:53:05Z</time>
      </trkpt>
      <trkpt lat="44.71309" lon="5.27325">
        <ele>311</ele>
        <time>2019-04-19T04:54:05Z</time>
      </trkpt>
      <trkpt lat="44.71209" lon="5.27281">
        <ele>310</ele>
        <time>2019-04-19T04:55:05Z</time>
      </trkpt>
      <trkpt lat="44.71157" lon="5.27239">
        <ele>308</ele>
        <time>2019-04-19T04:56:05Z</time>
      </trkpt>
      <trkpt lat="44.71129" lon="5.2722">
        <ele>307</ele>
        <time>2019-04-19T04:57:05Z</time>
      </trkpt>
      <trkpt lat="44.70969" lon="5.2715">
        <ele>308</ele>
        <time>2019-04-19T04:58:05Z</time>
      </trkpt>
      <trkpt lat="44.70921" lon="5.27151">
        <ele>309</ele>
        <time>2019-04-19T04:59:05Z</time>
      </trkpt>
      <trkpt lat="44.70857" lon="5.27144">
        <ele>312</ele>
        <time>2019-04-19T05:00:05Z</time>
      </trkpt>
      <trkpt lat="44.70803" lon="5.27104">
        <ele>311</ele>
        <time>2019-04-19T05:01:05Z</time>
      </trkpt>
      <trkpt lat="44.70753" lon="5.2706">
        <ele>306</ele>
        <time>2019-04-19T05:02:05Z</time>
      </trkpt>
      <trkpt lat="44.70708" lon="5.27032">
        <ele>307</ele>
        <time>2019-04-19T05:03:05Z</time>
      </trkpt>
      <trkpt lat="44.70505" lon="5.26965">
        <ele>306</ele>
        <time>2019-04-19T05:04:05Z</time>
      </trkpt>
      <trkpt lat="44.70399" lon="5.26865">
        <ele>309</ele>
        <time>2019-04-19T05:05:05Z</time>
      </trkpt>
      <trkpt lat="44.70316" lon="5.2678">
        <ele>309</ele>
        <time>2019-04-19T05:06:05Z</time>
      </trkpt>
      <trkpt lat="44.70255" lon="5.26686">
        <ele>304</ele>
        <time>2019-04-19T05:07:05Z</time>
      </trkpt>
      <trkpt lat="44.70181" lon="5.26568">
        <ele>302</ele>
        <time>2019-04-19T05:08:05Z</time>
      </trkpt>
      <trkpt lat="44.70151" lon="5.26531">
        <ele>300</ele>
        <time>2019-04-19T05:09:05Z</time>
      </trkpt>
      <trkpt lat="44.70133" lon="5.26521">
        <ele>299</ele>
        <time>2019-04-19T05:10:05Z</time>
      </trkpt>
      <trkpt lat="44.70093" lon="5.2653">
        <ele>300</ele>
        <time>2019-04-19T05:11:05Z</time>
      </trkpt>
      <trkpt lat="44.70049" lon="5.26557">
        <ele>303</ele>
        <time>2019-04-19T05:12:05Z</time>
      </trkpt>
      <trkpt lat="44.70032" lon="5.26561">
        <ele>303</ele>
        <time>2019-04-19T05:13:05Z</time>
      </trkpt>
      <trkpt lat="44.69958" lon="5.26517">
        <ele>305</ele>
        <time>2019-04-19T05:14:05Z</time>
      </trkpt>
      <trkpt lat="44.69922" lon="5.26486">
        <ele>306</ele>
        <time>2019-04-19T05:15:05Z</time>
      </trkpt>
      <trkpt lat="44.69899" lon="5.26447">
        <ele>310</ele>
        <time>2019-04-19T05:16:05Z</time>
      </trkpt>
      <trkpt lat="44.69885" lon="5.26371">
        <ele>308</ele>
        <time>2019-04-19T05:17:05Z</time>
      </trkpt>
      <trkpt lat="44.6985" lon="5.26263">
        <ele>304</ele>
        <time>2019-04-19T05:18:05Z</time>
      </trkpt>
      <trkpt lat="44.69819" lon="5.26198">
        <ele>301</ele>
        <time>2019-04-19T05:19:05Z</time>
      </trkpt>
      <trkpt lat="44.69794" lon="5.26162">
        <ele>299</ele>
        <time>2019-04-19T05:20:05Z</time>
      </trkpt>
      <trkpt lat="44.69738" lon="5.26123">
        <ele>300</ele>
        <time>2019-04-19T05:21:05Z</time>
      </trkpt>
      <trkpt lat="44.69699" lon="5.261">
        <ele>299</ele>
        <time>2019-04-19T05:22:05Z</time>
      </trkpt>
      <trkpt lat="44.6964" lon="5.26097">
        <ele>298</ele>
        <time>2019-04-19T05:23:05Z</time>
      </trkpt>
      <trkpt lat="44.69571" lon="5.26131">
        <ele>297</ele>
        <time>2019-04-19T05:24:05Z</time>
      </trkpt>
      <trkpt lat="44.69463" lon="5.25869">
        <ele>299</ele>
        <time>2019-04-19T05:25:05Z</time>
      </trkpt>
      <trkpt lat="44.69456" lon="5.25822">
        <ele>303</ele>
        <time>2019-04-19T05:26:05Z</time>
      </trkpt>
      <trkpt lat="44.69477" lon="5.25702">
        <ele>306</ele>
        <time>2019-04-19T05:27:05Z</time>
      </trkpt>
      <trkpt lat="44.69493" lon="5.25664">
        <ele>303</ele>
        <time>2019-04-19T05:28:05Z</time>
      </trkpt>
      <trkpt lat="44.69531" lon="5.25595">
        <ele>303</ele>
        <time>2019-04-19T05:29:05Z</time>
      </trkpt>
      <trkpt lat="44.69574" lon="5.25527">
        <ele>303</ele>
        <time>2019-04-19T05:30:05Z</time>
      </trkpt>
      <trkpt lat="44.69587" lon="5.2545">
        <ele>307</ele>
        <time>2019-04-19T05:31:05Z</time>
      </trkpt>
      <trkpt lat="44.69602" lon="5.25393">
        <ele>307</ele>
        <time>2019-04-19T05:32:05Z</time>
      </trkpt>
      <trkpt lat="44.69633" lon="5.25288">
        <ele>300</ele>
        <time>2019-04-19T05:33:05Z</time>
      </trkpt>
      <trkpt lat="44.69635" lon="5.25227">
        <ele>298</ele>
        <time>2019-04-19T05:34:05Z</time>
      </trkpt>
      <trkpt lat="44.69618" lon="5.25043">
        <ele>300</ele>
        <time>2019-04-19T05:35:05Z</time>
      </trkpt>
      <trkpt lat="44.69627" lon="5.24909">
        <ele>298</ele>
        <time>2019-04-19T05:36:05Z</time>
      </trkpt>
      <trkpt lat="44.69614" lon="5.24779">
        <ele>296</ele>
        <time>2019-04-19T05:37:05Z</time>
      </trkpt>
      <trkpt lat="44.69575" lon="5.24595">
        <ele>292</ele>
        <time>2019-04-19T05:38:05Z</time>
      </trkpt>
      <trkpt lat="44.69529" lon="5.24432">
        <ele>291</ele>
        <time>2019-04-19T05:39:05Z</time>
      </trkpt>
      <trkpt lat="44.69459" lon="5.24294">
        <ele>293</ele>
        <time>2019-04-19T05:40:05Z</time>
      </trkpt>
      <trkpt lat="44.6938" lon="5.24155">
        <ele>294</ele>
        <time>2019-04-19T05:41:05Z</time>
      </trkpt>
      <trkpt lat="44.69311" lon="5.24037">
        <ele>289</ele>
        <time>2019-04-19T05:42:05Z</time>
      </trkpt>
      <trkpt lat="44.69254" lon="5.23986">
        <ele>291</ele>
        <time>2019-04-19T05:43:05Z</time>
      </trkpt>
      <trkpt lat="44.69196" lon="5.23957">
        <ele>292</ele>
        <time>2019-04-19T05:44:05Z</time>
      </trkpt>
      <trkpt lat="44.69114" lon="5.23926">
        <ele>292</ele>
        <time>2019-04-19T05:45:05Z</time>
      </trkpt>
      <trkpt lat="44.69045" lon="5.2388">
        <ele>295</ele>
        <time>2019-04-19T05:46:05Z</time>
      </trkpt>
      <trkpt lat="44.68966" lon="5.23821">
        <ele>290</ele>
        <time>2019-04-19T05:47:05Z</time>
      </trkpt>
      <trkpt lat="44.68996" lon="5.23763">
        <ele>292</ele>
        <time>2019-04-19T05:48:05Z</time>
      </trkpt>
      <trkpt lat="44.68922" lon="5.23635">
        <ele>291</ele>
        <time>2019-04-19T05:49:05Z</time>
      </trkpt>
      <trkpt lat="44.68905" lon="5.2358">
        <ele>294</ele>
        <time>2019-04-19T05:50:05Z</time>
      </trkpt>
      <trkpt lat="44.68891" lon="5.2352">
        <ele>294</ele>
        <time>2019-04-19T05:51:05Z</time>
      </trkpt>
      <trkpt lat="44.68882" lon="5.2345">
        <ele>294</ele>
        <time>2019-04-19T05:52:05Z</time>
      </trkpt>
      <trkpt lat="44.68883" lon="5.23176">
        <ele>294</ele>
        <time>2019-04-19T05:53:05Z</time>
      </trkpt>
      <trkpt lat="44.68878" lon="5.23109">
        <ele>296</ele>
        <time>2019-04-19T05:54:05Z</time>
      </trkpt>
      <trkpt lat="44.68862" lon="5.23012">
        <ele>290</ele>
        <time>2019-04-19T05:55:05Z</time>
      </trkpt>
      <trkpt lat="44.6886" lon="5.22927">
        <ele>286</ele>
        <time>2019-04-19T05:56:05Z</time>
      </trkpt>
      <trkpt lat="44.68873" lon="5.22839">
        <ele>283</ele>
        <time>2019-04-19T05:57:05Z</time>
      </trkpt>
      <trkpt lat="44.69026" lon="5.22002">
        <ele>277</ele>
        <time>2019-04-19T05:58:05Z</time>
      </trkpt>
      <trkpt lat="44.69038" lon="5.21909">
        <ele>278</ele>
        <time>2019-04-19T05:59:05Z</time>
      </trkpt>
      <trkpt lat="44.69052" lon="5.21824">
        <ele>280</ele>
        <time>2019-04-19T06:00:05Z</time>
      </trkpt>
      <trkpt lat="44.69081" lon="5.21747">
        <ele>276</ele>
        <time>2019-04-19T06:01:05Z</time>
      </trkpt>
      <trkpt lat="44.69119" lon="5.21685">
        <ele>286</ele>
        <time>2019-04-19T06:02:05Z</time>
      </trkpt>
      <trkpt lat="44.69147" lon="5.21633">
        <ele>290</ele>
        <time>2019-04-19T06:03:05Z</time>
      </trkpt>
      <trkpt lat="44.69169" lon="5.21577">
        <ele>290</ele>
        <time>2019-04-19T06:04:05Z</time>
      </trkpt>
      <trkpt lat="44.69177" lon="5.21518">
        <ele>295</ele>
        <time>2019-04-19T06:05:05Z</time>
      </trkpt>
      <trkpt lat="44.6917" lon="5.21472">
        <ele>293</ele>
        <time>2019-04-19T06:06:05Z</time>
      </trkpt>
      <trkpt lat="44.69156" lon="5.21433">
        <ele>292</ele>
        <time>2019-04-19T06:07:05Z</time>
      </trkpt>
      <trkpt lat="44.69136" lon="5.21396">
        <ele>294</ele>
        <time>2019-04-19T06:08:05Z</time>
      </trkpt>
      <trkpt lat="44.69088" lon="5.21337">
        <ele>281</ele>
        <time>2019-04-19T06:09:05Z</time>
      </trkpt>
      <trkpt lat="44.68989" lon="5.21224">
        <ele>283</ele>
        <time>2019-04-19T06:10:05Z</time>
      </trkpt>
      <trkpt lat="44.68979" lon="5.2119">
        <ele>287</ele>
        <time>2019-04-19T06:11:05Z</time>
      </trkpt>
      <trkpt lat="44.6898" lon="5.21157">
        <ele>289</ele>
        <time>2019-04-19T06:12:05Z</time>
      </trkpt>
      <trkpt lat="44.68994" lon="5.21115">
        <ele>286</ele>
        <time>2019-04-19T06:13:05Z</time>
      </trkpt>
      <trkpt lat="44.69018" lon="5.21065">
        <ele>290</ele>
        <time>2019-04-19T06:14:05Z</time>
      </trkpt>
      <trkpt lat="44.69022" lon="5.21018">
        <ele>288</ele>
        <time>2019-04-19T06:15:05Z</time>
      </trkpt>
      <trkpt lat="44.69024" lon="5.20956">
        <ele>284</ele>
        <time>2019-04-19T06:16:05Z</time>
      </trkpt>
      <trkpt lat="44.69034" lon="5.20907">
        <ele>284</ele>
        <time>2019-04-19T06:17:05Z</time>
      </trkpt>
      <trkpt lat="44.69058" lon="5.20853">
        <ele>283</ele>
        <time>2019-04-19T06:18:05Z</time>
      </trkpt>
      <trkpt lat="44.69101" lon="5.2079">
        <ele>282</ele>
        <time>2019-04-19T06:19:05Z</time>
      </trkpt>
      <trkpt lat="44.69191" lon="5.20672">
        <ele>280</ele>
        <time>2019-04-19T06:20:05Z</time>
      </trkpt>
      <trkpt lat="44.69258" lon="5.20569">
        <ele>277</ele>
        <time>2019-04-19T06:21:05Z</time>
      </trkpt>
      <trkpt lat="44.69292" lon="5.20505">
        <ele>272</ele>
        <time>2019-04-19T06:22:05Z</time>
      </trkpt>
      <trkpt lat="44.69377" lon="5.20327">
        <ele>271</ele>
        <time>2019-04-19T06:23:05Z</time>
      </trkpt>
      <trkpt lat="44.69406" lon="5.20264">
        <ele>275</ele>
        <time>2019-04-19T06:24:05Z</time>
      </trkpt>
      <trkpt lat="44.69455" lon="5.20118">
        <ele>277</ele>
        <time>2019-04-19T06:25:05Z</time>
      </trkpt>
      <trkpt lat="44.69466" lon="5.2009">
        <ele>276</ele>
        <time>2019-04-19T06:26:05Z</time>
      </trkpt>
      <trkpt lat="44.69497" lon="5.19991">
        <ele>273</ele>
        <time>2019-04-19T06:27:05Z</time>
      </trkpt>
      <trkpt lat="44.69502" lon="5.19946">
        <ele>271</ele>
        <time>2019-04-19T06:28:05Z</time>
      </trkpt>
      <trkpt lat="44.69505" lon="5.19895">
        <ele>271</ele>
        <time>2019-04-19T06:29:05Z</time>
      </trkpt>
      <trkpt lat="44.69503" lon="5.19792">
        <ele>270</ele>
        <time>2019-04-19T06:30:05Z</time>
      </trkpt>
      <trkpt lat="44.69481" lon="5.19529">
        <ele>270</ele>
        <time>2019-04-19T06:31:05Z</time>
      </trkpt>
      <trkpt lat="44.69434" lon="5.19171">
        <ele>266</ele>
        <time>2019-04-19T06:32:05Z</time>
      </trkpt>
      <trkpt lat="44.69419" lon="5.19099">
        <ele>261</ele>
        <time>2019-04-19T06:33:05Z</time>
      </trkpt>
      <trkpt lat="44.69397" lon="5.19022">
        <ele>259</ele>
        <time>2019-04-19T06:34:05Z</time>
      </trkpt>
      <trkpt lat="44.6937" lon="5.1895">
        <ele>258</ele>
        <time>2019-04-19T06:35:05Z</time>
      </trkpt>
      <trkpt lat="44.69322" lon="5.18844">
        <ele>257</ele>
        <time>2019-04-19T06:36:05Z</time>
      </trkpt>
      <trkpt lat="44.6929" lon="5.18761">
        <ele>258</ele>
        <time>2019-04-19T06:37:05Z</time>
      </trkpt>
      <trkpt lat="44.69272" lon="5.18704">
        <ele>258</ele>
        <time>2019-04-19T06:38:05Z</time>
      </trkpt>
      <trkpt lat="44.69215" lon="5.18377">
        <ele>255</ele>
        <time>2019-04-19T06:39:05Z</time>
      </trkpt>
      <trkpt lat="44.69203" lon="5.18279">
        <ele>255</ele>
        <time>2019-04-19T06:40:05Z</time>
      </trkpt>
      <trkpt lat="44.69202" lon="5.18196">
        <ele>255</ele>
        <time>2019-04-19T06:41:05Z</time>
      </trkpt>
      <trkpt lat="44.69256" lon="5.17809">
        <ele>253</ele>
        <time>2019-04-19T06:42:05Z</time>
      </trkpt>
      <trkpt lat="44.69264" lon="5.17713">
        <ele>251</ele>
        <time>2019-04-19T06:43:05Z</time>
      </trkpt>
      <trkpt lat="44.69266" lon="5.17593">
        <ele>250</ele>
        <time>2019-04-19T06:44:05Z</time>
      </trkpt>
      <trkpt lat="44.69255" lon="5.1759">
        <ele>250</ele>
        <time>2019-04-19T06:45:05Z</time>
      </trkpt>
      <trkpt lat="44.69238" lon="5.17579">
        <ele>252</ele>
        <time>2019-04-19T06:46:05Z</time>
      </trkpt>
      <trkpt lat="44.69238" lon="5.17556">
        <ele>253</ele>
        <time>2019-04-19T06:47:05Z</time>
      </trkpt>
      <trkpt lat="44.69245" lon="5.17538">
        <ele>252</ele>
        <time>2019-04-19T06:48:05Z</time>
      </trkpt>
      <trkpt lat="44.69248" lon="5.1752">
        <ele>252</ele>
        <time>2019-04-19T06:49:05Z</time>
      </trkpt>
      <trkpt lat="44.69246" lon="5.17501">
        <ele>253</ele>
        <time>2019-04-19T06:50:05Z</time>
      </trkpt>
      <trkpt lat="44.69232" lon="5.17428">
        <ele>254</ele>
        <time>2019-04-19T06:51:05Z</time>
      </trkpt>
      <trkpt lat="44.69226" lon="5.17367">
        <ele>254</ele>
        <time>2019-04-19T06:52:05Z</time>
      </trkpt>
      <trkpt lat="44.69212" lon="5.17323">
        <ele>255</ele>
        <time>2019-04-19T06:53:05Z</time>
      </trkpt>
      <trkpt lat="44.69219" lon="5.17265">
        <ele>253</ele>
        <time>2019-04-19T06:54:05Z</time>
      </trkpt>
      <trkpt lat="44.6921" lon="5.17129">
        <ele>259</ele>
        <time>2019-04-19T06:55:05Z</time>
      </trkpt>
      <trkpt lat="44.69211" lon="5.1708">
        <ele>262</ele>
        <time>2019-04-19T06:56:05Z</time>
      </trkpt>
      <trkpt lat="44.69228" lon="5.16983">
        <ele>260</ele>
        <time>2019-04-19T06:57:05Z</time>
      </trkpt>
      <trkpt lat="44.69242" lon="5.16884">
        <ele>258</ele>
        <time>2019-04-19T06:58:05Z</time>
      </trkpt>
      <trkpt lat="44.69251" lon="5.16855">
        <ele>256</ele>
        <time>2019-04-19T06:59:05Z</time>
      </trkpt>
      <trkpt lat="44.69264" lon="5.16828">
        <ele>255</ele>
        <time>2019-04-19T07:00:05Z</time>
      </trkpt>
      <trkpt lat="44.6931" lon="5.16773">
        <ele>250</ele>
        <time>2019-04-19T07:01:05Z</time>
      </trkpt>
      <trkpt lat="44.69332" lon="5.16737">
        <ele>248</ele>
        <time>2019-04-19T07:02:05Z</time>
      </trkpt>
      <trkpt lat="44.69367" lon="5.16635">
        <ele>248</ele>
        <time>2019-04-19T07:03:05Z</time>
      </trkpt>
      <trkpt lat="44.69386" lon="5.16502">
        <ele>248</ele>
        <time>2019-04-19T07:04:05Z</time>
      </trkpt>
      <trkpt lat="44.69391" lon="5.16431">
        <ele>246</ele>
        <time>2019-04-19T07:05:05Z</time>
      </trkpt>
      <trkpt lat="44.69388" lon="5.16354">
        <ele>247</ele>
        <time>2019-04-19T07:06:05Z</time>
      </trkpt>
      <trkpt lat="44.69388" lon="5.16307">
        <ele>247</ele>
        <time>2019-04-19T07:07:05Z</time>
      </trkpt>
      <trkpt lat="44.69393" lon="5.16268">
        <ele>247</ele>
        <time>2019-04-19T07:08:05Z</time>
      </trkpt>
      <trkpt lat="44.69403" lon="5.16211">
        <ele>247</ele>
        <time>2019-04-19T07:09:05Z</time>
      </trkpt>
      <trkpt lat="44.69411" lon="5.16153">
        <ele>247</ele>
        <time>2019-04-19T07:10:05Z</time>
      </trkpt>
      <trkpt lat="44.69414" lon="5.1608">
        <ele>247</ele>
        <time>2019-04-19T07:11:05Z</time>
      </trkpt>
      <trkpt lat="44.69444" lon="5.15966">
        <ele>249</ele>
        <time>2019-04-19T07:12:05Z</time>
      </trkpt>
      <trkpt lat="44.69447" lon="5.15891">
        <ele>251</ele>
        <time>2019-04-19T07:13:05Z</time>
      </trkpt>
      <trkpt lat="44.69462" lon="5.15833">
        <ele>250</ele>
        <time>2019-04-19T07:14:05Z</time>
      </trkpt>
      <trkpt lat="44.69465" lon="5.15773">
        <ele>249</ele>
        <time>2019-04-19T07:15:05Z</time>
      </trkpt>
      <trkpt lat="44.69445" lon="5.15748">
        <ele>251</ele>
        <time>2019-04-19T07:16:05Z</time>
      </trkpt>
      <trkpt lat="44.69416" lon="5.15706">
        <ele>253</ele>
        <time>2019-04-19T07:17:05Z</time>
      </trkpt>
      <trkpt lat="44.69377" lon="5.1563">
        <ele>259</ele>
        <time>2019-04-19T07:18:05Z</time>
      </trkpt>
      <trkpt lat="44.69359" lon="5.15597">
        <ele>260</ele>
        <time>2019-04-19T07:19:05Z</time>
      </trkpt>
      <trkpt lat="44.69322" lon="5.15525">
        <ele>259</ele>
        <time>2019-04-19T07:20:05Z</time>
      </trkpt>
      <trkpt lat="44.69297" lon="5.15428">
        <ele>256</ele>
        <time>2019-04-19T07:21:05Z</time>
      </trkpt>
      <trkpt lat="44.69293" lon="5.15393">
        <ele>255</ele>
        <time>2019-04-19T07:22:05Z</time>
      </trkpt>
      <trkpt lat="44.69291" lon="5.15334">
        <ele>256</ele>
        <time>2019-04-19T07:23:05Z</time>
      </trkpt>
      <trkpt lat="44.69285" lon="5.15274">
        <ele>254</ele>
        <time>2019-04-19T07:24:05Z</time>
      </trkpt>
      <trkpt lat="44.69245" lon="5.15163">
        <ele>254</ele>
        <time>2019-04-19T07:25:05Z</time>
      </trkpt>
      <trkpt lat="44.69223" lon="5.15087">
        <ele>256</ele>
        <time>2019-04-19T07:26:05Z</time>
      </trkpt>
      <trkpt lat="44.69235" lon="5.14886">
        <ele>255</ele>
        <time>2019-04-19T07:27:05Z</time>
      </trkpt>
      <trkpt lat="44.69238" lon="5.14807">
        <ele>254</ele>
        <time>2019-04-19T07:28:05Z</time>
      </trkpt>
      <trkpt lat="44.69261" lon="5.14648">
        <ele>251</ele>
        <time>2019-04-19T07:29:05Z</time>
      </trkpt>
      <trkpt lat="44.6926" lon="5.14574">
        <ele>255</ele>
        <time>2019-04-19T07:30:05Z</time>
      </trkpt>
      <trkpt lat="44.6926" lon="5.14496">
        <ele>253</ele>
        <time>2019-04-19T07:31:05Z</time>
      </trkpt>
      <trkpt lat="44.69272" lon="5.14308">
        <ele>259</ele>
        <time>2019-04-19T07:32:05Z</time>
      </trkpt>
      <trkpt lat="44.69268" lon="5.14066">
        <ele>258</ele>
        <time>2019-04-19T07:33:05Z</time>
      </trkpt>
      <trkpt lat="44.6927" lon="5.14019">
        <ele>254</ele>
        <time>2019-04-19T07:34:05Z</time>
      </trkpt>
      <trkpt lat="44.69276" lon="5.13993">
        <ele>252</ele>
        <time>2019-04-19T07:35:05Z</time>
      </trkpt>
      <trkpt lat="44.69298" lon="5.13928">
        <ele>248</ele>
        <time>2019-04-19T07:36:05Z</time>
      </trkpt>
      <trkpt lat="44.69334" lon="5.13855">
        <ele>243</ele>
        <time>2019-04-19T07:37:05Z</time>
      </trkpt>
      <trkpt lat="44.69351" lon="5.13843">
        <ele>242</ele>
        <time>2019-04-19T07:38:05Z</time>
      </trkpt>
      <trkpt lat="44.69372" lon="5.13831">
        <ele>240</ele>
        <time>2019-04-19T07:39:05Z</time>
      </trkpt>
      <trkpt lat="44.69375" lon="5.13817">
        <ele>240</ele>
        <time>2019-04-19T07:40:05Z</time>
      </trkpt>
      <trkpt lat="44.69368" lon="5.13768">
        <ele>240</ele>
        <time>2019-04-19T07:41:05Z</time>
      </trkpt>
      <trkpt lat="44.69375" lon="5.13706">
        <ele>239</ele>
        <time>2019-04-19T07:42:05Z</time>
      </trkpt>
      <trkpt lat="44.694" lon="5.13532">
        <ele>238</ele>
        <time>2019-04-19T07:43:05Z</time>
      </trkpt>
      <trkpt lat="44.69435" lon="5.13272">
        <ele>237</ele>
        <time>2019-04-19T07:44:05Z</time>
      </trkpt>
      <trkpt lat="44.69488" lon="5.1304">
        <ele>236</ele>
        <time>2019-04-19T07:45:05Z</time>
      </trkpt>
      <trkpt lat="44.69502" lon="5.12984">
        <ele>236</ele>
        <time>2019-04-19T07:46:05Z</time>
      </trkpt>
      <trkpt lat="44.69516" lon="5.12823">
        <ele>234</ele>
        <time>2019-04-19T07:47:05Z</time>
      </trkpt>
      <trkpt lat="44.69523" lon="5.12692">
        <ele>237</ele>
        <time>2019-04-19T07:48:05Z</time>
      </trkpt>
      <trkpt lat="44.69511" lon="5.12546">
        <ele>235</ele>
        <time>2019-04-19T07:49:05Z</time>
      </trkpt>
      <trkpt lat="44.69509" lon="5.125">
        <ele>235</ele>
        <time>2019-04-19T07:50:05Z</time>
      </trkpt>
      <trkpt lat="44.69512" lon="5.12307">
        <ele>236</ele>
        <time>2019-04-19T07:51:05Z</time>
      </trkpt>
      <trkpt lat="44.69518" lon="5.12212">
        <ele>235</ele>
        <time>2019-04-19T07:52:05Z</time>
      </trkpt>
      <trkpt lat="44.69521" lon="5.1218">
        <ele>235</ele>
        <time>2019-04-19T07:53:05Z</time>
      </trkpt>
      <trkpt lat="44.69538" lon="5.12125">
        <ele>234</ele>
        <time>2019-04-19T07:54:05Z</time>
      </trkpt>
      <trkpt lat="44.69576" lon="5.12018">
        <ele>231</ele>
        <time>2019-04-19T07:55:05Z</time>
      </trkpt>
      <trkpt lat="44.69725" lon="5.11742">
        <ele>233</ele>
        <time>2019-04-19T07:56:05Z</time>
      </trkpt>
      <trkpt lat="44.6978" lon="5.1163">
        <ele>232</ele>
        <time>2019-04-19T07:57:05Z</time>
      </trkpt>
      <trkpt lat="44.69816" lon="5.1155">
        <ele>232</ele>
        <time>2019-04-19T07:58:05Z</time>
      </trkpt>
      <trkpt lat="44.69853" lon="5.11442">
        <ele>231</ele>
        <time>2019-04-19T07:59:05Z</time>
      </trkpt>
      <trkpt lat="44.69864" lon="5.11404">
        <ele>231</ele>
        <time>2019-04-19T08:00:05Z</time>
      </trkpt>
      <trkpt lat="44.69876" lon="5.11275">
        <ele>229</ele>
        <time>2019-04-19T08:01:05Z</time>
      </trkpt>
      <trkpt lat="44.69886" lon="5.11199">
        <ele>229</ele>
        <time>2019-04-19T08:02:05Z</time>
      </trkpt>
      <trkpt lat="44.69894" lon="5.11167">
        <ele>230</ele>
        <time>2019-04-19T08:03:05Z</time>
      </trkpt>
      <trkpt lat="44.69943" lon="5.11044">
        <ele>231</ele>
        <time>2019-04-19T08:04:05Z</time>
      </trkpt>
      <trkpt lat="44.70006" lon="5.10861">
        <ele>230</ele>
        <time>2019-04-19T08:05:05Z</time>
      </trkpt>
      <trkpt lat="44.70018" lon="5.10812">
        <ele>229</ele>
        <time>2019-04-19T08:06:05Z</time>
      </trkpt>
      <trkpt lat="44.70111" lon="5.10366">
        <ele>225</ele>
        <time>2019-04-19T08:07:05Z</time>
      </trkpt>
      <trkpt lat="44.70137" lon="5.10283">
        <ele>225</ele>
        <time>2019-04-19T08:08:05Z</time>
      </trkpt>
      <trkpt lat="44.70181" lon="5.10154">
        <ele>224</ele>
        <time>2019-04-19T08:09:05Z</time>
      </trkpt>
      <trkpt lat="44.70203" lon="5.10073">
        <ele>224</ele>
        <time>2019-04-19T08:10:05Z</time>
      </trkpt>
      <trkpt lat="44.70214" lon="5.09964">
        <ele>224</ele>
        <time>2019-04-19T08:11:05Z</time>
      </trkpt>
      <trkpt lat="44.70223" lon="5.0993">
        <ele>224</ele>
        <time>2019-04-19T08:12:05Z</time>
      </trkpt>
      <trkpt lat="44.70206" lon="5.09883">
        <ele>224</ele>
        <time>2019-04-19T08:13:05Z</time>
      </trkpt>
      <trkpt lat="44.70202" lon="5.09844">
        <ele>224</ele>
        <time>2019-04-19T08:14:05Z</time>
      </trkpt>
      <trkpt lat="44.70228" lon="5.09725">
        <ele>223</ele>
        <time>2019-04-19T08:15:05Z</time>
      </trkpt>
      <trkpt lat="44.70243" lon="5.09699">
        <ele>222</ele>
        <time>2019-04-19T08:16:05Z</time>
      </trkpt>
      <trkpt lat="44.70308" lon="5.09554">
        <ele>220</ele>
        <time>2019-04-19T08:17:05Z</time>
      </trkpt>
      <trkpt lat="44.70334" lon="5.0951">
        <ele>220</ele>
        <time>2019-04-19T08:18:05Z</time>
      </trkpt>
      <trkpt lat="44.70348" lon="5.09465">
        <ele>220</ele>
        <time>2019-04-19T08:19:05Z</time>
      </trkpt>
      <trkpt lat="44.70355" lon="5.09435">
        <ele>220</ele>
        <time>2019-04-19T08:20:05Z</time>
      </trkpt>
      <trkpt lat="44.70357" lon="5.09404">
        <ele>220</ele>
        <time>2019-04-19T08:21:05Z</time>
      </trkpt>
      <trkpt lat="44.70366" lon="5.0916">
        <ele>219</ele>
        <time>2019-04-19T08:22:05Z</time>
      </trkpt>
      <trkpt lat="44.70371" lon="5.09128">
        <ele>219</ele>
        <time>2019-04-19T08:23:05Z</time>
      </trkpt>
      <trkpt lat="44.70439" lon="5.08893">
        <ele>219</ele>
        <time>2019-04-19T08:24:05Z</time>
      </trkpt>
      <trkpt lat="44.70445" lon="5.08868">
        <ele>218</ele>
        <time>2019-04-19T08:25:05Z</time>
      </trkpt>
      <trkpt lat="44.70455" lon="5.08862">
        <ele>218</ele>
        <time>2019-04-19T08:26:05Z</time>
      </trkpt>
      <trkpt lat="44.70467" lon="5.08862">
        <ele>218</ele>
        <time>2019-04-19T08:27:05Z</time>
      </trkpt>
      <trkpt lat="44.70467" lon="5.08874">
        <ele>218</ele>
        <time>2019-04-19T08:28:05Z</time>
      </trkpt>
      <trkpt lat="44.70472" lon="5.08885">
        <ele>218</ele>
        <time>2019-04-19T08:29:05Z</time>
      </trkpt>
      <trkpt lat="44.70476" lon="5.08888">
        <ele>218</ele>
        <time>2019-04-19T08:30:05Z</time>
      </trkpt>
      <trkpt lat="44.70486" lon="5.08889">
        <ele>218</ele>
        <time>2019-04-19T08:31:05Z</time>
      </trkpt>
      <trkpt lat="44.70494" lon="5.08882">
        <ele>217</ele>
        <time>2019-04-19T08:32:05Z</time>
      </trkpt>
      <trkpt lat="44.70496" lon="5.08876">
        <ele>217</ele>
        <time>2019-04-19T08:33:05Z</time>
      </trkpt>
      <trkpt lat="44.70524" lon="5.08891">
        <ele>217</ele>
        <time>2019-04-19T08:34:05Z</time>
      </trkpt>
      <trkpt lat="44.70619" lon="5.08915">
        <ele>217</ele>
        <time>2019-04-19T08:35:05Z</time>
      </trkpt>
      <trkpt lat="44.70673" lon="5.08934">
        <ele>215</ele>
        <time>2019-04-19T08:36:05Z</time>
      </trkpt>
      <trkpt lat="44.70922" lon="5.09067">
        <ele>219</ele>
        <time>2019-04-19T08:37:05Z</time>
      </trkpt>
      <trkpt lat="44.70934" lon="5.0908">
        <ele>220</ele>
        <time>2019-04-19T08:38:05Z</time>
      </trkpt>
      <trkpt lat="44.70946" lon="5.09097">
        <ele>221</ele>
        <time>2019-04-19T08:39:05Z</time>
      </trkpt>
      <trkpt lat="44.70947" lon="5.09101">
        <ele>221</ele>
        <time>2019-04-19T08:40:05Z</time>
      </trkpt>
      <trkpt lat="44.70952" lon="5.09108">
        <ele>222</ele>
        <time>2019-04-19T08:41:05Z</time>
      </trkpt>
      <trkpt lat="44.70954" lon="5.09108">
        <ele>222</ele>
        <time>2019-04-19T08:42:05Z</time>
      </trkpt>
      <trkpt lat="44.71035" lon="5.09065">
        <ele>221</ele>
        <time>2019-04-19T08:43:05Z</time>
      </trkpt>
      <trkpt lat="44.71045" lon="5.09053">
        <ele>220</ele>
        <time>2019-04-19T08:44:05Z</time>
      </trkpt>
      <trkpt lat="44.71054" lon="5.09042">
        <ele>219</ele>
        <time>2019-04-19T08:45:05Z</time>
      </trkpt>
      <trkpt lat="44.71141" lon="5.08883">
        <ele>219</ele>
        <time>2019-04-19T08:46:05Z</time>
      </trkpt>
      <trkpt lat="44.7115" lon="5.08864">
        <ele>219</ele>
        <time>2019-04-19T08:47:05Z</time>
      </trkpt>
      <trkpt lat="44.71156" lon="5.08847">
        <ele>219</ele>
        <time>2019-04-19T08:48:05Z</time>
      </trkpt>
      <trkpt lat="44.71193" lon="5.08708">
        <ele>219</ele>
        <time>2019-04-19T08:49:05Z</time>
      </trkpt>
      <trkpt lat="44.71236" lon="5.08529">
        <ele>222</ele>
        <time>2019-04-19T08:50:05Z</time>
      </trkpt>
      <trkpt lat="44.71243" lon="5.08487">
        <ele>223</ele>
        <time>2019-04-19T08:51:05Z</time>
      </trkpt>
      <trkpt lat="44.71243" lon="5.08459">
        <ele>223</ele>
        <time>2019-04-19T08:52:05Z</time>
      </trkpt>
      <trkpt lat="44.71234" lon="5.08411">
        <ele>222</ele>
        <time>2019-04-19T08:53:05Z</time>
      </trkpt>
      <trkpt lat="44.71212" lon="5.08313">
        <ele>219</ele>
        <time>2019-04-19T08:54:05Z</time>
      </trkpt>
      <trkpt lat="44.71212" lon="5.08292">
        <ele>218</ele>
        <time>2019-04-19T08:55:05Z</time>
      </trkpt>
      <trkpt lat="44.71222" lon="5.08216">
        <ele>216</ele>
        <time>2019-04-19T08:56:05Z</time>
      </trkpt>
      <trkpt lat="44.71227" lon="5.08185">
        <ele>215</ele>
        <time>2019-04-19T08:57:05Z</time>
      </trkpt>
      <trkpt lat="44.71236" lon="5.08153">
        <ele>215</ele>
        <time>2019-04-19T08:58:05Z</time>
      </trkpt>
      <trkpt lat="44.71251" lon="5.08113">
        <ele>215</ele>
        <time>2019-04-19T08:59:05Z</time>
      </trkpt>
      <trkpt lat="44.7145" lon="5.07793">
        <ele>217</ele>
        <time>2019-04-19T09:00:05Z</time>
      </trkpt>
      <trkpt lat="44.7152" lon="5.0771">
        <ele>219</ele>
        <time>2019-04-19T09:01:05Z</time>
      </trkpt>
      <trkpt lat="44.7153" lon="5.07655">
        <ele>216</ele>
        <time>2019-04-19T09:02:05Z</time>
      </trkpt>
      <trkpt lat="44.71529" lon="5.07386">
        <ele>207</ele>
        <time>2019-04-19T09:03:05Z</time>
      </trkpt>
      <trkpt lat="44.71527" lon="5.07307">
        <ele>206</ele>
        <time>2019-04-19T09:04:05Z</time>
      </trkpt>
      <trkpt lat="44.71517" lon="5.07192">
        <ele>205</ele>
        <time>2019-04-19T09:05:05Z</time>
      </trkpt>
      <trkpt lat="44.71494" lon="5.0698">
        <ele>207</ele>
        <time>2019-04-19T09:06:05Z</time>
      </trkpt>
      <trkpt lat="44.71489" lon="5.06926">
        <ele>206</ele>
        <time>2019-04-19T09:07:05Z</time>
      </trkpt>
      <trkpt lat="44.71488" lon="5.0687">
        <ele>206</ele>
        <time>2019-04-19T09:08:05Z</time>
      </trkpt>
      <trkpt lat="44.71495" lon="5.06685">
        <ele>207</ele>
        <time>2019-04-19T09:09:05Z</time>
      </trkpt>
      <trkpt lat="44.71506" lon="5.06453">
        <ele>208</ele>
        <time>2019-04-19T09:10:05Z</time>
      </trkpt>
      <trkpt lat="44.71524" lon="5.06117">
        <ele>210</ele>
        <time>2019-04-19T09:11:05Z</time>
      </trkpt>
      <trkpt lat="44.7153" lon="5.06079">
        <ele>209</ele>
        <time>2019-04-19T09:12:05Z</time>
      </trkpt>
      <trkpt lat="44.71535" lon="5.06081">
        <ele>210</ele>
        <time>2019-04-19T09:13:05Z</time>
      </trkpt>
      <trkpt lat="44.71539" lon="5.06079">
        <ele>210</ele>
        <time>2019-04-19T09:14:05Z</time>
      </trkpt>
      <trkpt lat="44.71544" lon="5.06072">
        <ele>211</ele>
        <time>2019-04-19T09:15:05Z</time>
      </trkpt>
      <trkpt lat="44.71543" lon="5.06061">
        <ele>210</ele>
        <time>2019-04-19T09:16:05Z</time>
      </trkpt>
      <trkpt lat="44.71586" lon="5.05949">
        <ele>209</ele>
        <time>2019-04-19T09:17:05Z</time>
      </trkpt>
      <trkpt lat="44.71595" lon="5.05931">
        <ele>208</ele>
        <time>2019-04-19T09:18:05Z</time>
      </trkpt>
      <trkpt lat="44.71612" lon="5.05908">
        <ele>208</ele>
        <time>2019-04-19T09:19:05Z</time>
      </trkpt>
      <trkpt lat="44.71642" lon="5.05882">
        <ele>209</ele>
        <time>2019-04-19T09:20:05Z</time>
      </trkpt>
      <trkpt lat="44.71659" lon="5.0587">
        <ele>209</ele>
        <time>2019-04-19T09:21:05Z</time>
      </trkpt>
      <trkpt lat="44.71665" lon="5.05844">
        <ele>210</ele>
        <time>2019-04-19T09:22:05Z</time>
      </trkpt>
      <trkpt lat="44.71666" lon="5.05825">
        <ele>210</ele>
        <time>2019-04-19T09:23:05Z</time>
      </trkpt>
      <trkpt lat="44.71672" lon="5.05807">
        <ele>211</ele>
        <time>2019-04-19T09:24:05Z</time>
      </trkpt>
      <trkpt lat="44.71678" lon="5.05799">
        <ele>211</ele>
        <time>2019-04-19T09:25:05Z</time>
      </trkpt>
      <trkpt lat="44.71678" lon="5.05794">
        <ele>211</ele>
        <time>2019-04-19T09:26:05Z</time>
      </trkpt>
      <trkpt lat="44.71673" lon="5.05773">
        <ele>211</ele>
        <time>2019-04-19T09:27:05Z</time>
      </trkpt>
      <trkpt lat="44.71683" lon="5.05671">
        <ele>213</ele>
        <time>2019-04-19T09:28:05Z</time>
      </trkpt>
      <trkpt lat="44.71684" lon="5.05635">
        <ele>214</ele>
        <time>2019-04-19T09:29:05Z</time>
      </trkpt>
      <trkpt lat="44.71682" lon="5.05613">
        <ele>214</ele>
        <time>2019-04-19T09:30:05Z</time>
      </trkpt>
      <trkpt lat="44.71672" lon="5.05566">
        <ele>213</ele>
        <time>2019-04-19T09:31:05Z</time>
      </trkpt>
      <trkpt lat="44.71668" lon="5.05537">
        <ele>213</ele>
        <time>2019-04-19T09:32:05Z</time>
      </trkpt>
      <trkpt lat="44.7167" lon="5.05505">
        <ele>213</ele>
        <time>2019-04-19T09:33:05Z</time>
      </trkpt>
      <trkpt lat="44.71676" lon="5.05461">
        <ele>214</ele>
        <time>2019-04-19T09:34:05Z</time>
      </trkpt>
      <trkpt lat="44.71677" lon="5.05408">
        <ele>214</ele>
        <time>2019-04-19T09:35:05Z</time>
      </trkpt>
      <trkpt lat="44.71671" lon="5.0537">
        <ele>213</ele>
        <time>2019-04-19T09:36:05Z</time>
      </trkpt>
      <trkpt lat="44.71671" lon="5.05346">
        <ele>213</ele>
        <time>2019-04-19T09:37:05Z</time>
      </trkpt>
      <trkpt lat="44.71674" lon="5.05303">
        <ele>212</ele>
        <time>2019-04-19T09:38:05Z</time>
      </trkpt>
      <trkpt lat="44.71684" lon="5.05196">
        <ele>208</ele>
        <time>2019-04-19T09:39:05Z</time>
      </trkpt>
      <trkpt lat="44.7169" lon="5.05162">
        <ele>207</ele>
        <time>2019-04-19T09:40:05Z</time>
      </trkpt>
      <trkpt lat="44.71712" lon="5.05088">
        <ele>204</ele>
        <time>2019-04-19T09:41:05Z</time>
      </trkpt>
      <trkpt lat="44.71727" lon="5.05021">
        <ele>202</ele>
        <time>2019-04-19T09:42:05Z</time>
      </trkpt>
      <trkpt lat="44.71735" lon="5.04963">
        <ele>199</ele>
        <time>2019-04-19T09:43:05Z</time>
      </trkpt>
      <trkpt lat="44.71736" lon="5.04941">
        <ele>199</ele>
        <time>2019-04-19T09:44:05Z</time>
      </trkpt>
      <trkpt lat="44.71734" lon="5.04927">
        <ele>198</ele>
        <time>2019-04-19T09:45:05Z</time>
      </trkpt>
      <trkpt lat="44.71728" lon="5.04913">
        <ele>198</ele>
        <time>2019-04-19T09:46:05Z</time>
      </trkpt>
      <trkpt lat="44.71711" lon="5.0489">
        <ele>198</ele>
        <time>2019-04-19T09:47:05Z</time>
      </trkpt>
      <trkpt lat="44.71709" lon="5.04875">
        <ele>197</ele>
        <time>2019-04-19T09:48:05Z</time>
      </trkpt>
      <trkpt lat="44.71711" lon="5.04864">
        <ele>197</ele>
        <time>2019-04-19T09:49:05Z</time>
      </trkpt>
      <trkpt lat="44.71717" lon="5.04841">
        <ele>197</ele>
        <time>2019-04-19T09:50:05Z</time>
      </trkpt>
      <trkpt lat="44.71881" lon="5.04486">
        <ele>196</ele>
        <time>2019-04-19T09:51:05Z</time>
      </trkpt>
      <trkpt lat="44.72205" lon="5.03796">
        <ele>194</ele>
        <time>2019-04-19T09:52:05Z</time>
      </trkpt>
      <trkpt lat="44.72224" lon="5.03772">
        <ele>194</ele>
        <time>2019-04-19T09:53:05Z</time>
      </trkpt>
      <trkpt lat="44.72234" lon="5.03768">
        <ele>194</ele>
        <time>2019-04-19T09:54:05Z</time>
      </trkpt>
      <trkpt lat="44.72238" lon="5.03762">
        <ele>195</ele>
        <time>2019-04-19T09:55:05Z</time>
      </trkpt>
      <trkpt lat="44.7224" lon="5.03755">
        <ele>195</ele>
        <time>2019-04-19T09:56:05Z</time>
      </trkpt>
      <trkpt lat="44.72238" lon="5.03741">
        <ele>195</ele>
        <time>2019-04-19T09:57:05Z</time>
      </trkpt>
      <trkpt lat="44.72254" lon="5.03692">
        <ele>194</ele>
        <time>2019-04-19T09:58:05Z</time>
      </trkpt>
      <trkpt lat="44.7231" lon="5.03574">
        <ele>193</ele>
        <time>2019-04-19T09:59:05Z</time>
      </trkpt>
      <trkpt lat="44.7237" lon="5.03441">
        <ele>193</ele>
        <time>2019-04-19T10:00:05Z</time>
      </trkpt>
      <trkpt lat="44.72392" lon="5.034">
        <ele>194</ele>
        <time>2019-04-19T10:01:05Z</time>
      </trkpt>
      <trkpt lat="44.72552" lon="5.03181">
        <ele>191</ele>
        <time>2019-04-19T10:02:05Z</time>
      </trkpt>
      <trkpt lat="44.72578" lon="5.03126">
        <ele>190</ele>
        <time>2019-04-19T10:03:05Z</time>
      </trkpt>
      <trkpt lat="44.72592" lon="5.03075">
        <ele>189</ele>
        <time>2019-04-19T10:04:05Z</time>
      </trkpt>
      <trkpt lat="44.72646" lon="5.02823">
        <ele>189</ele>
        <time>2019-04-19T10:05:05Z</time>
      </trkpt>
      <trkpt lat="44.72677" lon="5.02644">
        <ele>188</ele>
        <time>2019-04-19T10:06:05Z</time>
      </trkpt>
      <trkpt lat="44.72693" lon="5.02536">
        <ele>188</ele>
        <time>2019-04-19T10:07:05Z</time>
      </trkpt>
      <trkpt lat="44.72708" lon="5.02433">
        <ele>188</ele>
        <time>2019-04-19T10:08:05Z</time>
      </trkpt>
      <trkpt lat="44.72709" lon="5.02401">
        <ele>188</ele>
        <time>2019-04-19T10:09:05Z</time>
      </trkpt>
      <trkpt lat="44.72712" lon="5.02376">
        <ele>188</ele>
        <time>2019-04-19T10:10:05Z</time>
      </trkpt>
      <trkpt lat="44.72754" lon="5.0216">
        <ele>189</ele>
        <time>2019-04-19T10:11:05Z</time>
      </trkpt>
    </trkseg>
  </trk>
</gpx>